<?xml version="1.0" encoding="UTF-8" standalone="no" ?>
<gpx xmlns="http://www.topografix.com/GPX/1/1" xmlns:xsi="http://www.w3.org/2001/XMLSchema-instance" xsi:schemaLocation="http://www.topografix.com/GPX/1/1 http://www.topografix.com/GPX/1/1/gpx.xsd" version="1.1" creator="VisuGPX - https://www.visugpx.com">
  <metadata>
    <name>sortie route 23.02.2014</name>
    <desc><![CDATA[belle sortie]]></desc>
  </metadata>
  <trk>
    <name><![CDATA[23-FEV-14 16:51:04]]></name>
    <trkseg>
      <trkpt lat="48.01405" lon="-1.28755">
        <ele>65.99</ele>
        <time>2014-02-23T12:54:26Z</time>
      </trkpt>
      <trkpt lat="48.01405" lon="-1.28755">
        <ele>65.03</ele>
        <time>2014-02-23T12:54:31Z</time>
      </trkpt>
      <trkpt lat="48.01405" lon="-1.28756">
        <ele>65.99</ele>
        <time>2014-02-23T12:54:58Z</time>
      </trkpt>
      <trkpt lat="48.01405" lon="-1.28756">
        <ele>66.95</ele>
        <time>2014-02-23T12:55:32Z</time>
      </trkpt>
      <trkpt lat="48.014" lon="-1.28756">
        <ele>66.47</ele>
        <time>2014-02-23T12:55:43Z</time>
      </trkpt>
      <trkpt lat="48.01373" lon="-1.28761">
        <ele>65.03</ele>
        <time>2014-02-23T12:55:53Z</time>
      </trkpt>
      <trkpt lat="48.01337" lon="-1.28775">
        <ele>65.03</ele>
        <time>2014-02-23T12:56:01Z</time>
      </trkpt>
      <trkpt lat="48.01333" lon="-1.28775">
        <ele>64.55</ele>
        <time>2014-02-23T12:56:02Z</time>
      </trkpt>
      <trkpt lat="48.01329" lon="-1.28772">
        <ele>64.55</ele>
        <time>2014-02-23T12:56:03Z</time>
      </trkpt>
      <trkpt lat="48.01326" lon="-1.28767">
        <ele>64.07</ele>
        <time>2014-02-23T12:56:04Z</time>
      </trkpt>
      <trkpt lat="48.01323" lon="-1.2876">
        <ele>63.58</ele>
        <time>2014-02-23T12:56:05Z</time>
      </trkpt>
      <trkpt lat="48.0132" lon="-1.28753">
        <ele>64.07</ele>
        <time>2014-02-23T12:56:06Z</time>
      </trkpt>
      <trkpt lat="48.01316" lon="-1.28746">
        <ele>64.07</ele>
        <time>2014-02-23T12:56:07Z</time>
      </trkpt>
      <trkpt lat="48.01301" lon="-1.28712">
        <ele>63.58</ele>
        <time>2014-02-23T12:56:12Z</time>
      </trkpt>
      <trkpt lat="48.01296" lon="-1.28708">
        <ele>63.1</ele>
        <time>2014-02-23T12:56:13Z</time>
      </trkpt>
      <trkpt lat="48.01291" lon="-1.28708">
        <ele>62.62</ele>
        <time>2014-02-23T12:56:14Z</time>
      </trkpt>
      <trkpt lat="48.0127" lon="-1.28716">
        <ele>61.18</ele>
        <time>2014-02-23T12:56:18Z</time>
      </trkpt>
      <trkpt lat="48.01256" lon="-1.28724">
        <ele>60.7</ele>
        <time>2014-02-23T12:56:25Z</time>
      </trkpt>
      <trkpt lat="48.01256" lon="-1.28723">
        <ele>60.7</ele>
        <time>2014-02-23T12:56:49Z</time>
      </trkpt>
      <trkpt lat="48.01255" lon="-1.28723">
        <ele>61.18</ele>
        <time>2014-02-23T12:57:02Z</time>
      </trkpt>
      <trkpt lat="48.01251" lon="-1.28721">
        <ele>60.7</ele>
        <time>2014-02-23T12:57:04Z</time>
      </trkpt>
      <trkpt lat="48.01249" lon="-1.2872">
        <ele>61.18</ele>
        <time>2014-02-23T12:57:05Z</time>
      </trkpt>
      <trkpt lat="48.01246" lon="-1.28718">
        <ele>60.7</ele>
        <time>2014-02-23T12:57:06Z</time>
      </trkpt>
      <trkpt lat="48.01243" lon="-1.28718">
        <ele>61.18</ele>
        <time>2014-02-23T12:57:07Z</time>
      </trkpt>
      <trkpt lat="48.01239" lon="-1.28719">
        <ele>61.18</ele>
        <time>2014-02-23T12:57:08Z</time>
      </trkpt>
      <trkpt lat="48.01235" lon="-1.28721">
        <ele>60.7</ele>
        <time>2014-02-23T12:57:09Z</time>
      </trkpt>
      <trkpt lat="48.01232" lon="-1.28726">
        <ele>60.7</ele>
        <time>2014-02-23T12:57:10Z</time>
      </trkpt>
      <trkpt lat="48.0123" lon="-1.28731">
        <ele>60.7</ele>
        <time>2014-02-23T12:57:11Z</time>
      </trkpt>
      <trkpt lat="48.01228" lon="-1.28737">
        <ele>61.18</ele>
        <time>2014-02-23T12:57:12Z</time>
      </trkpt>
      <trkpt lat="48.01228" lon="-1.28744">
        <ele>61.18</ele>
        <time>2014-02-23T12:57:13Z</time>
      </trkpt>
      <trkpt lat="48.01229" lon="-1.28752">
        <ele>61.18</ele>
        <time>2014-02-23T12:57:14Z</time>
      </trkpt>
      <trkpt lat="48.01229" lon="-1.28759">
        <ele>61.66</ele>
        <time>2014-02-23T12:57:15Z</time>
      </trkpt>
      <trkpt lat="48.01229" lon="-1.28766">
        <ele>61.66</ele>
        <time>2014-02-23T12:57:16Z</time>
      </trkpt>
      <trkpt lat="48.01229" lon="-1.28791">
        <ele>61.66</ele>
        <time>2014-02-23T12:57:24Z</time>
      </trkpt>
      <trkpt lat="48.01227" lon="-1.28823">
        <ele>62.14</ele>
        <time>2014-02-23T12:57:33Z</time>
      </trkpt>
      <trkpt lat="48.01227" lon="-1.28851">
        <ele>62.62</ele>
        <time>2014-02-23T12:57:37Z</time>
      </trkpt>
      <trkpt lat="48.01226" lon="-1.28859">
        <ele>62.62</ele>
        <time>2014-02-23T12:57:38Z</time>
      </trkpt>
      <trkpt lat="48.01225" lon="-1.28866">
        <ele>62.62</ele>
        <time>2014-02-23T12:57:39Z</time>
      </trkpt>
      <trkpt lat="48.0122" lon="-1.28949">
        <ele>64.55</ele>
        <time>2014-02-23T12:57:50Z</time>
      </trkpt>
      <trkpt lat="48.0122" lon="-1.28957">
        <ele>65.03</ele>
        <time>2014-02-23T12:57:51Z</time>
      </trkpt>
      <trkpt lat="48.0122" lon="-1.28964">
        <ele>65.03</ele>
        <time>2014-02-23T12:57:52Z</time>
      </trkpt>
      <trkpt lat="48.01216" lon="-1.29078">
        <ele>67.43</ele>
        <time>2014-02-23T12:58:08Z</time>
      </trkpt>
      <trkpt lat="48.01215" lon="-1.29119">
        <ele>67.43</ele>
        <time>2014-02-23T12:58:15Z</time>
      </trkpt>
      <trkpt lat="48.01215" lon="-1.29126">
        <ele>67.91</ele>
        <time>2014-02-23T12:58:16Z</time>
      </trkpt>
      <trkpt lat="48.01216" lon="-1.29133">
        <ele>67.91</ele>
        <time>2014-02-23T12:58:17Z</time>
      </trkpt>
      <trkpt lat="48.01217" lon="-1.29141">
        <ele>67.43</ele>
        <time>2014-02-23T12:58:18Z</time>
      </trkpt>
      <trkpt lat="48.01217" lon="-1.29148">
        <ele>67.91</ele>
        <time>2014-02-23T12:58:19Z</time>
      </trkpt>
      <trkpt lat="48.01215" lon="-1.29156">
        <ele>67.91</ele>
        <time>2014-02-23T12:58:20Z</time>
      </trkpt>
      <trkpt lat="48.01214" lon="-1.29163">
        <ele>68.39</ele>
        <time>2014-02-23T12:58:21Z</time>
      </trkpt>
      <trkpt lat="48.01212" lon="-1.2917">
        <ele>67.91</ele>
        <time>2014-02-23T12:58:22Z</time>
      </trkpt>
      <trkpt lat="48.01183" lon="-1.29279">
        <ele>67.91</ele>
        <time>2014-02-23T12:58:36Z</time>
      </trkpt>
      <trkpt lat="48.01175" lon="-1.29318">
        <ele>67.43</ele>
        <time>2014-02-23T12:58:41Z</time>
      </trkpt>
      <trkpt lat="48.01175" lon="-1.29325">
        <ele>67.43</ele>
        <time>2014-02-23T12:58:42Z</time>
      </trkpt>
      <trkpt lat="48.01175" lon="-1.29332">
        <ele>66.95</ele>
        <time>2014-02-23T12:58:43Z</time>
      </trkpt>
      <trkpt lat="48.01176" lon="-1.29338">
        <ele>66.95</ele>
        <time>2014-02-23T12:58:44Z</time>
      </trkpt>
      <trkpt lat="48.01177" lon="-1.29344">
        <ele>66.95</ele>
        <time>2014-02-23T12:58:45Z</time>
      </trkpt>
      <trkpt lat="48.0118" lon="-1.2935">
        <ele>67.43</ele>
        <time>2014-02-23T12:58:46Z</time>
      </trkpt>
      <trkpt lat="48.01182" lon="-1.29355">
        <ele>67.43</ele>
        <time>2014-02-23T12:58:47Z</time>
      </trkpt>
      <trkpt lat="48.01185" lon="-1.2936">
        <ele>67.43</ele>
        <time>2014-02-23T12:58:48Z</time>
      </trkpt>
      <trkpt lat="48.01189" lon="-1.29365">
        <ele>67.91</ele>
        <time>2014-02-23T12:58:49Z</time>
      </trkpt>
      <trkpt lat="48.01245" lon="-1.29441">
        <ele>69.83</ele>
        <time>2014-02-23T12:59:04Z</time>
      </trkpt>
      <trkpt lat="48.01325" lon="-1.29545">
        <ele>70.79</ele>
        <time>2014-02-23T12:59:22Z</time>
      </trkpt>
      <trkpt lat="48.01394" lon="-1.29634">
        <ele>69.83</ele>
        <time>2014-02-23T12:59:36Z</time>
      </trkpt>
      <trkpt lat="48.01442" lon="-1.29699">
        <ele>68.39</ele>
        <time>2014-02-23T12:59:45Z</time>
      </trkpt>
      <trkpt lat="48.01466" lon="-1.29722">
        <ele>67.43</ele>
        <time>2014-02-23T12:59:49Z</time>
      </trkpt>
      <trkpt lat="48.01472" lon="-1.29727">
        <ele>67.43</ele>
        <time>2014-02-23T12:59:50Z</time>
      </trkpt>
      <trkpt lat="48.01478" lon="-1.29733">
        <ele>67.43</ele>
        <time>2014-02-23T12:59:51Z</time>
      </trkpt>
      <trkpt lat="48.01483" lon="-1.2974">
        <ele>67.43</ele>
        <time>2014-02-23T12:59:52Z</time>
      </trkpt>
      <trkpt lat="48.01487" lon="-1.29748">
        <ele>67.43</ele>
        <time>2014-02-23T12:59:53Z</time>
      </trkpt>
      <trkpt lat="48.01565" lon="-1.29857">
        <ele>65.03</ele>
        <time>2014-02-23T13:00:07Z</time>
      </trkpt>
      <trkpt lat="48.01681" lon="-1.30008">
        <ele>63.1</ele>
        <time>2014-02-23T13:00:26Z</time>
      </trkpt>
      <trkpt lat="48.01763" lon="-1.30113">
        <ele>64.55</ele>
        <time>2014-02-23T13:00:41Z</time>
      </trkpt>
      <trkpt lat="48.01768" lon="-1.30119">
        <ele>65.03</ele>
        <time>2014-02-23T13:00:42Z</time>
      </trkpt>
      <trkpt lat="48.01774" lon="-1.30123">
        <ele>65.03</ele>
        <time>2014-02-23T13:00:43Z</time>
      </trkpt>
      <trkpt lat="48.0178" lon="-1.30126">
        <ele>65.03</ele>
        <time>2014-02-23T13:00:44Z</time>
      </trkpt>
      <trkpt lat="48.01792" lon="-1.30133">
        <ele>65.51</ele>
        <time>2014-02-23T13:00:46Z</time>
      </trkpt>
      <trkpt lat="48.01797" lon="-1.30139">
        <ele>65.51</ele>
        <time>2014-02-23T13:00:47Z</time>
      </trkpt>
      <trkpt lat="48.01802" lon="-1.30147">
        <ele>65.51</ele>
        <time>2014-02-23T13:00:48Z</time>
      </trkpt>
      <trkpt lat="48.01805" lon="-1.30156">
        <ele>65.51</ele>
        <time>2014-02-23T13:00:49Z</time>
      </trkpt>
      <trkpt lat="48.01809" lon="-1.30165">
        <ele>65.51</ele>
        <time>2014-02-23T13:00:50Z</time>
      </trkpt>
      <trkpt lat="48.01813" lon="-1.30173">
        <ele>65.51</ele>
        <time>2014-02-23T13:00:51Z</time>
      </trkpt>
      <trkpt lat="48.01818" lon="-1.30181">
        <ele>65.51</ele>
        <time>2014-02-23T13:00:52Z</time>
      </trkpt>
      <trkpt lat="48.01911" lon="-1.30307">
        <ele>64.55</ele>
        <time>2014-02-23T13:01:08Z</time>
      </trkpt>
      <trkpt lat="48.01989" lon="-1.30409">
        <ele>65.99</ele>
        <time>2014-02-23T13:01:22Z</time>
      </trkpt>
      <trkpt lat="48.02061" lon="-1.30501">
        <ele>69.35</ele>
        <time>2014-02-23T13:01:37Z</time>
      </trkpt>
      <trkpt lat="48.02136" lon="-1.306">
        <ele>72.24</ele>
        <time>2014-02-23T13:01:54Z</time>
      </trkpt>
      <trkpt lat="48.02215" lon="-1.30703">
        <ele>73.68</ele>
        <time>2014-02-23T13:02:12Z</time>
      </trkpt>
      <trkpt lat="48.02301" lon="-1.30816">
        <ele>77.52</ele>
        <time>2014-02-23T13:02:30Z</time>
      </trkpt>
      <trkpt lat="48.0235" lon="-1.30882">
        <ele>80.41</ele>
        <time>2014-02-23T13:02:43Z</time>
      </trkpt>
      <trkpt lat="48.02395" lon="-1.3094">
        <ele>83.77</ele>
        <time>2014-02-23T13:02:55Z</time>
      </trkpt>
      <trkpt lat="48.02408" lon="-1.3096">
        <ele>84.73</ele>
        <time>2014-02-23T13:02:59Z</time>
      </trkpt>
      <trkpt lat="48.02447" lon="-1.31004">
        <ele>87.62</ele>
        <time>2014-02-23T13:03:09Z</time>
      </trkpt>
      <trkpt lat="48.02455" lon="-1.31014">
        <ele>88.1</ele>
        <time>2014-02-23T13:03:11Z</time>
      </trkpt>
      <trkpt lat="48.02493" lon="-1.31068">
        <ele>90.98</ele>
        <time>2014-02-23T13:03:22Z</time>
      </trkpt>
      <trkpt lat="48.02496" lon="-1.31073">
        <ele>90.98</ele>
        <time>2014-02-23T13:03:23Z</time>
      </trkpt>
      <trkpt lat="48.02511" lon="-1.3109">
        <ele>91.94</ele>
        <time>2014-02-23T13:03:27Z</time>
      </trkpt>
      <trkpt lat="48.02515" lon="-1.31094">
        <ele>92.42</ele>
        <time>2014-02-23T13:03:28Z</time>
      </trkpt>
      <trkpt lat="48.02534" lon="-1.31115">
        <ele>94.35</ele>
        <time>2014-02-23T13:03:33Z</time>
      </trkpt>
      <trkpt lat="48.02537" lon="-1.3112">
        <ele>94.35</ele>
        <time>2014-02-23T13:03:34Z</time>
      </trkpt>
      <trkpt lat="48.02571" lon="-1.31161">
        <ele>97.71</ele>
        <time>2014-02-23T13:03:43Z</time>
      </trkpt>
      <trkpt lat="48.02634" lon="-1.31247">
        <ele>97.71</ele>
        <time>2014-02-23T13:03:57Z</time>
      </trkpt>
      <trkpt lat="48.02708" lon="-1.31346">
        <ele>94.35</ele>
        <time>2014-02-23T13:04:09Z</time>
      </trkpt>
      <trkpt lat="48.02757" lon="-1.31409">
        <ele>90.98</ele>
        <time>2014-02-23T13:04:16Z</time>
      </trkpt>
      <trkpt lat="48.02868" lon="-1.31516">
        <ele>90.02</ele>
        <time>2014-02-23T13:04:30Z</time>
      </trkpt>
      <trkpt lat="48.02983" lon="-1.31558">
        <ele>90.98</ele>
        <time>2014-02-23T13:04:44Z</time>
      </trkpt>
      <trkpt lat="48.03094" lon="-1.31559">
        <ele>93.39</ele>
        <time>2014-02-23T13:04:59Z</time>
      </trkpt>
      <trkpt lat="48.03234" lon="-1.31545">
        <ele>96.27</ele>
        <time>2014-02-23T13:05:18Z</time>
      </trkpt>
      <trkpt lat="48.03242" lon="-1.31544">
        <ele>96.27</ele>
        <time>2014-02-23T13:05:19Z</time>
      </trkpt>
      <trkpt lat="48.03249" lon="-1.31542">
        <ele>96.27</ele>
        <time>2014-02-23T13:05:20Z</time>
      </trkpt>
      <trkpt lat="48.03402" lon="-1.31535">
        <ele>95.79</ele>
        <time>2014-02-23T13:05:38Z</time>
      </trkpt>
      <trkpt lat="48.03555" lon="-1.31566">
        <ele>95.31</ele>
        <time>2014-02-23T13:05:56Z</time>
      </trkpt>
      <trkpt lat="48.03718" lon="-1.31636">
        <ele>94.35</ele>
        <time>2014-02-23T13:06:15Z</time>
      </trkpt>
      <trkpt lat="48.03895" lon="-1.31719">
        <ele>93.39</ele>
        <time>2014-02-23T13:06:35Z</time>
      </trkpt>
      <trkpt lat="48.04063" lon="-1.31768">
        <ele>92.42</ele>
        <time>2014-02-23T13:06:54Z</time>
      </trkpt>
      <trkpt lat="48.04233" lon="-1.31773">
        <ele>91.94</ele>
        <time>2014-02-23T13:07:13Z</time>
      </trkpt>
      <trkpt lat="48.04433" lon="-1.31767">
        <ele>90.98</ele>
        <time>2014-02-23T13:07:35Z</time>
      </trkpt>
      <trkpt lat="48.04607" lon="-1.31764">
        <ele>90.02</ele>
        <time>2014-02-23T13:07:54Z</time>
      </trkpt>
      <trkpt lat="48.04762" lon="-1.31777">
        <ele>89.06</ele>
        <time>2014-02-23T13:08:11Z</time>
      </trkpt>
      <trkpt lat="48.04931" lon="-1.31823">
        <ele>88.1</ele>
        <time>2014-02-23T13:08:30Z</time>
      </trkpt>
      <trkpt lat="48.05091" lon="-1.31898">
        <ele>87.62</ele>
        <time>2014-02-23T13:08:49Z</time>
      </trkpt>
      <trkpt lat="48.05221" lon="-1.31985">
        <ele>88.58</ele>
        <time>2014-02-23T13:09:06Z</time>
      </trkpt>
      <trkpt lat="48.05303" lon="-1.32053">
        <ele>90.5</ele>
        <time>2014-02-23T13:09:20Z</time>
      </trkpt>
      <trkpt lat="48.05323" lon="-1.32082">
        <ele>91.46</ele>
        <time>2014-02-23T13:09:29Z</time>
      </trkpt>
      <trkpt lat="48.05322" lon="-1.32088">
        <ele>91.94</ele>
        <time>2014-02-23T13:09:30Z</time>
      </trkpt>
      <trkpt lat="48.05321" lon="-1.32095">
        <ele>91.46</ele>
        <time>2014-02-23T13:09:31Z</time>
      </trkpt>
      <trkpt lat="48.05318" lon="-1.32102">
        <ele>91.46</ele>
        <time>2014-02-23T13:09:32Z</time>
      </trkpt>
      <trkpt lat="48.05315" lon="-1.3211">
        <ele>90.98</ele>
        <time>2014-02-23T13:09:33Z</time>
      </trkpt>
      <trkpt lat="48.05312" lon="-1.32118">
        <ele>91.46</ele>
        <time>2014-02-23T13:09:34Z</time>
      </trkpt>
      <trkpt lat="48.05308" lon="-1.32126">
        <ele>90.98</ele>
        <time>2014-02-23T13:09:35Z</time>
      </trkpt>
      <trkpt lat="48.0525" lon="-1.32252">
        <ele>88.1</ele>
        <time>2014-02-23T13:09:49Z</time>
      </trkpt>
      <trkpt lat="48.05193" lon="-1.32367">
        <ele>86.18</ele>
        <time>2014-02-23T13:10:02Z</time>
      </trkpt>
      <trkpt lat="48.05141" lon="-1.3248">
        <ele>84.73</ele>
        <time>2014-02-23T13:10:14Z</time>
      </trkpt>
      <trkpt lat="48.05076" lon="-1.32615">
        <ele>83.29</ele>
        <time>2014-02-23T13:10:29Z</time>
      </trkpt>
      <trkpt lat="48.05013" lon="-1.32745">
        <ele>81.85</ele>
        <time>2014-02-23T13:10:44Z</time>
      </trkpt>
      <trkpt lat="48.04961" lon="-1.32852">
        <ele>82.33</ele>
        <time>2014-02-23T13:10:57Z</time>
      </trkpt>
      <trkpt lat="48.04912" lon="-1.32956">
        <ele>82.81</ele>
        <time>2014-02-23T13:11:10Z</time>
      </trkpt>
      <trkpt lat="48.04852" lon="-1.33083">
        <ele>83.77</ele>
        <time>2014-02-23T13:11:27Z</time>
      </trkpt>
      <trkpt lat="48.0483" lon="-1.33129">
        <ele>84.73</ele>
        <time>2014-02-23T13:11:34Z</time>
      </trkpt>
      <trkpt lat="48.04825" lon="-1.3315">
        <ele>85.21</ele>
        <time>2014-02-23T13:11:37Z</time>
      </trkpt>
      <trkpt lat="48.04827" lon="-1.33157">
        <ele>85.21</ele>
        <time>2014-02-23T13:11:38Z</time>
      </trkpt>
      <trkpt lat="48.04831" lon="-1.33161">
        <ele>85.21</ele>
        <time>2014-02-23T13:11:39Z</time>
      </trkpt>
      <trkpt lat="48.04835" lon="-1.33165">
        <ele>85.21</ele>
        <time>2014-02-23T13:11:40Z</time>
      </trkpt>
      <trkpt lat="48.0484" lon="-1.33168">
        <ele>85.21</ele>
        <time>2014-02-23T13:11:41Z</time>
      </trkpt>
      <trkpt lat="48.04844" lon="-1.3317">
        <ele>85.21</ele>
        <time>2014-02-23T13:11:42Z</time>
      </trkpt>
      <trkpt lat="48.04862" lon="-1.33184">
        <ele>85.69</ele>
        <time>2014-02-23T13:11:46Z</time>
      </trkpt>
      <trkpt lat="48.04866" lon="-1.33189">
        <ele>86.18</ele>
        <time>2014-02-23T13:11:47Z</time>
      </trkpt>
      <trkpt lat="48.04869" lon="-1.33193">
        <ele>86.18</ele>
        <time>2014-02-23T13:11:48Z</time>
      </trkpt>
      <trkpt lat="48.04873" lon="-1.33195">
        <ele>86.18</ele>
        <time>2014-02-23T13:11:49Z</time>
      </trkpt>
      <trkpt lat="48.04878" lon="-1.33195">
        <ele>86.66</ele>
        <time>2014-02-23T13:11:50Z</time>
      </trkpt>
      <trkpt lat="48.04883" lon="-1.33195">
        <ele>86.66</ele>
        <time>2014-02-23T13:11:51Z</time>
      </trkpt>
      <trkpt lat="48.04901" lon="-1.33198">
        <ele>87.14</ele>
        <time>2014-02-23T13:11:55Z</time>
      </trkpt>
      <trkpt lat="48.04905" lon="-1.332">
        <ele>87.14</ele>
        <time>2014-02-23T13:11:56Z</time>
      </trkpt>
      <trkpt lat="48.0491" lon="-1.332">
        <ele>87.14</ele>
        <time>2014-02-23T13:11:57Z</time>
      </trkpt>
      <trkpt lat="48.04914" lon="-1.33202">
        <ele>87.14</ele>
        <time>2014-02-23T13:11:58Z</time>
      </trkpt>
      <trkpt lat="48.04918" lon="-1.33206">
        <ele>87.14</ele>
        <time>2014-02-23T13:11:59Z</time>
      </trkpt>
      <trkpt lat="48.04922" lon="-1.3321">
        <ele>87.14</ele>
        <time>2014-02-23T13:12:00Z</time>
      </trkpt>
      <trkpt lat="48.04927" lon="-1.33214">
        <ele>87.14</ele>
        <time>2014-02-23T13:12:01Z</time>
      </trkpt>
      <trkpt lat="48.04991" lon="-1.33248">
        <ele>83.77</ele>
        <time>2014-02-23T13:12:10Z</time>
      </trkpt>
      <trkpt lat="48.05093" lon="-1.33326">
        <ele>80.41</ele>
        <time>2014-02-23T13:12:23Z</time>
      </trkpt>
      <trkpt lat="48.0521" lon="-1.33419">
        <ele>79.93</ele>
        <time>2014-02-23T13:12:38Z</time>
      </trkpt>
      <trkpt lat="48.05279" lon="-1.3351">
        <ele>82.33</ele>
        <time>2014-02-23T13:12:51Z</time>
      </trkpt>
      <trkpt lat="48.05371" lon="-1.33643">
        <ele>84.73</ele>
        <time>2014-02-23T13:13:09Z</time>
      </trkpt>
      <trkpt lat="48.05461" lon="-1.33767">
        <ele>84.25</ele>
        <time>2014-02-23T13:13:25Z</time>
      </trkpt>
      <trkpt lat="48.05554" lon="-1.33829">
        <ele>82.81</ele>
        <time>2014-02-23T13:13:37Z</time>
      </trkpt>
      <trkpt lat="48.05669" lon="-1.33864">
        <ele>79.45</ele>
        <time>2014-02-23T13:13:49Z</time>
      </trkpt>
      <trkpt lat="48.05838" lon="-1.33912">
        <ele>79.45</ele>
        <time>2014-02-23T13:14:06Z</time>
      </trkpt>
      <trkpt lat="48.05941" lon="-1.33927">
        <ele>82.81</ele>
        <time>2014-02-23T13:14:19Z</time>
      </trkpt>
      <trkpt lat="48.06064" lon="-1.33958">
        <ele>81.85</ele>
        <time>2014-02-23T13:14:34Z</time>
      </trkpt>
      <trkpt lat="48.06153" lon="-1.34053">
        <ele>80.41</ele>
        <time>2014-02-23T13:14:46Z</time>
      </trkpt>
      <trkpt lat="48.06267" lon="-1.34237">
        <ele>79.45</ele>
        <time>2014-02-23T13:15:04Z</time>
      </trkpt>
      <trkpt lat="48.06301" lon="-1.34302">
        <ele>78.97</ele>
        <time>2014-02-23T13:15:10Z</time>
      </trkpt>
      <trkpt lat="48.06305" lon="-1.34314">
        <ele>78.48</ele>
        <time>2014-02-23T13:15:11Z</time>
      </trkpt>
      <trkpt lat="48.06311" lon="-1.34339">
        <ele>78.97</ele>
        <time>2014-02-23T13:15:13Z</time>
      </trkpt>
      <trkpt lat="48.06315" lon="-1.3447">
        <ele>79.93</ele>
        <time>2014-02-23T13:15:24Z</time>
      </trkpt>
      <trkpt lat="48.06312" lon="-1.34619">
        <ele>81.85</ele>
        <time>2014-02-23T13:15:38Z</time>
      </trkpt>
      <trkpt lat="48.06307" lon="-1.34779">
        <ele>83.77</ele>
        <time>2014-02-23T13:15:54Z</time>
      </trkpt>
      <trkpt lat="48.06304" lon="-1.34919">
        <ele>85.21</ele>
        <time>2014-02-23T13:16:08Z</time>
      </trkpt>
      <trkpt lat="48.06298" lon="-1.35094">
        <ele>84.25</ele>
        <time>2014-02-23T13:16:24Z</time>
      </trkpt>
      <trkpt lat="48.06291" lon="-1.35243">
        <ele>80.89</ele>
        <time>2014-02-23T13:16:36Z</time>
      </trkpt>
      <trkpt lat="48.06282" lon="-1.35429">
        <ele>78.48</ele>
        <time>2014-02-23T13:16:51Z</time>
      </trkpt>
      <trkpt lat="48.06277" lon="-1.35613">
        <ele>77.04</ele>
        <time>2014-02-23T13:17:06Z</time>
      </trkpt>
      <trkpt lat="48.06283" lon="-1.35778">
        <ele>78.48</ele>
        <time>2014-02-23T13:17:22Z</time>
      </trkpt>
      <trkpt lat="48.06292" lon="-1.35942">
        <ele>79.93</ele>
        <time>2014-02-23T13:17:38Z</time>
      </trkpt>
      <trkpt lat="48.06303" lon="-1.36124">
        <ele>81.85</ele>
        <time>2014-02-23T13:17:56Z</time>
      </trkpt>
      <trkpt lat="48.06313" lon="-1.3631">
        <ele>84.25</ele>
        <time>2014-02-23T13:18:15Z</time>
      </trkpt>
      <trkpt lat="48.06335" lon="-1.36468">
        <ele>87.62</ele>
        <time>2014-02-23T13:18:32Z</time>
      </trkpt>
      <trkpt lat="48.06392" lon="-1.36541">
        <ele>88.1</ele>
        <time>2014-02-23T13:18:43Z</time>
      </trkpt>
      <trkpt lat="48.06499" lon="-1.36619">
        <ele>87.14</ele>
        <time>2014-02-23T13:18:58Z</time>
      </trkpt>
      <trkpt lat="48.0665" lon="-1.36731">
        <ele>84.25</ele>
        <time>2014-02-23T13:19:16Z</time>
      </trkpt>
      <trkpt lat="48.06785" lon="-1.36831">
        <ele>80.89</ele>
        <time>2014-02-23T13:19:31Z</time>
      </trkpt>
      <trkpt lat="48.06909" lon="-1.36939">
        <ele>78.48</ele>
        <time>2014-02-23T13:19:45Z</time>
      </trkpt>
      <trkpt lat="48.06953" lon="-1.3705">
        <ele>77.04</ele>
        <time>2014-02-23T13:19:54Z</time>
      </trkpt>
      <trkpt lat="48.06963" lon="-1.37197">
        <ele>78.48</ele>
        <time>2014-02-23T13:20:06Z</time>
      </trkpt>
      <trkpt lat="48.06969" lon="-1.37363">
        <ele>79.93</ele>
        <time>2014-02-23T13:20:22Z</time>
      </trkpt>
      <trkpt lat="48.06976" lon="-1.37541">
        <ele>82.33</ele>
        <time>2014-02-23T13:20:40Z</time>
      </trkpt>
      <trkpt lat="48.06982" lon="-1.37721">
        <ele>83.77</ele>
        <time>2014-02-23T13:20:59Z</time>
      </trkpt>
      <trkpt lat="48.06987" lon="-1.37866">
        <ele>84.73</ele>
        <time>2014-02-23T13:21:14Z</time>
      </trkpt>
      <trkpt lat="48.06993" lon="-1.38028">
        <ele>82.33</ele>
        <time>2014-02-23T13:21:29Z</time>
      </trkpt>
      <trkpt lat="48.07001" lon="-1.38256">
        <ele>80.89</ele>
        <time>2014-02-23T13:21:49Z</time>
      </trkpt>
      <trkpt lat="48.07008" lon="-1.38404">
        <ele>81.85</ele>
        <time>2014-02-23T13:22:03Z</time>
      </trkpt>
      <trkpt lat="48.07016" lon="-1.38544">
        <ele>82.81</ele>
        <time>2014-02-23T13:22:17Z</time>
      </trkpt>
      <trkpt lat="48.0703" lon="-1.38737">
        <ele>82.33</ele>
        <time>2014-02-23T13:22:36Z</time>
      </trkpt>
      <trkpt lat="48.07038" lon="-1.38849">
        <ele>82.33</ele>
        <time>2014-02-23T13:22:47Z</time>
      </trkpt>
      <trkpt lat="48.0705" lon="-1.39">
        <ele>82.33</ele>
        <time>2014-02-23T13:23:02Z</time>
      </trkpt>
      <trkpt lat="48.07064" lon="-1.39169">
        <ele>81.85</ele>
        <time>2014-02-23T13:23:19Z</time>
      </trkpt>
      <trkpt lat="48.07072" lon="-1.39209">
        <ele>81.37</ele>
        <time>2014-02-23T13:23:23Z</time>
      </trkpt>
      <trkpt lat="48.07077" lon="-1.39217">
        <ele>80.89</ele>
        <time>2014-02-23T13:23:24Z</time>
      </trkpt>
      <trkpt lat="48.07083" lon="-1.39224">
        <ele>80.89</ele>
        <time>2014-02-23T13:23:25Z</time>
      </trkpt>
      <trkpt lat="48.07094" lon="-1.39239">
        <ele>80.41</ele>
        <time>2014-02-23T13:23:27Z</time>
      </trkpt>
      <trkpt lat="48.07099" lon="-1.39247">
        <ele>80.41</ele>
        <time>2014-02-23T13:23:28Z</time>
      </trkpt>
      <trkpt lat="48.07142" lon="-1.39335">
        <ele>77.04</ele>
        <time>2014-02-23T13:23:37Z</time>
      </trkpt>
      <trkpt lat="48.07185" lon="-1.3942">
        <ele>74.16</ele>
        <time>2014-02-23T13:23:45Z</time>
      </trkpt>
      <trkpt lat="48.0719" lon="-1.3943">
        <ele>73.68</ele>
        <time>2014-02-23T13:23:46Z</time>
      </trkpt>
      <trkpt lat="48.07258" lon="-1.39556">
        <ele>76.56</ele>
        <time>2014-02-23T13:24:00Z</time>
      </trkpt>
      <trkpt lat="48.07329" lon="-1.39635">
        <ele>78</ele>
        <time>2014-02-23T13:24:13Z</time>
      </trkpt>
      <trkpt lat="48.07349" lon="-1.39652">
        <ele>76.56</ele>
        <time>2014-02-23T13:24:16Z</time>
      </trkpt>
      <trkpt lat="48.0737" lon="-1.3967">
        <ele>75.6</ele>
        <time>2014-02-23T13:24:19Z</time>
      </trkpt>
      <trkpt lat="48.07377" lon="-1.39674">
        <ele>75.6</ele>
        <time>2014-02-23T13:24:20Z</time>
      </trkpt>
      <trkpt lat="48.07385" lon="-1.39677">
        <ele>75.12</ele>
        <time>2014-02-23T13:24:21Z</time>
      </trkpt>
      <trkpt lat="48.07394" lon="-1.39678">
        <ele>74.64</ele>
        <time>2014-02-23T13:24:22Z</time>
      </trkpt>
      <trkpt lat="48.07402" lon="-1.39681">
        <ele>74.16</ele>
        <time>2014-02-23T13:24:23Z</time>
      </trkpt>
      <trkpt lat="48.07409" lon="-1.39687">
        <ele>74.16</ele>
        <time>2014-02-23T13:24:24Z</time>
      </trkpt>
      <trkpt lat="48.07415" lon="-1.39696">
        <ele>73.68</ele>
        <time>2014-02-23T13:24:25Z</time>
      </trkpt>
      <trkpt lat="48.07421" lon="-1.39704">
        <ele>73.2</ele>
        <time>2014-02-23T13:24:26Z</time>
      </trkpt>
      <trkpt lat="48.07428" lon="-1.39711">
        <ele>73.2</ele>
        <time>2014-02-23T13:24:27Z</time>
      </trkpt>
      <trkpt lat="48.07435" lon="-1.39717">
        <ele>73.2</ele>
        <time>2014-02-23T13:24:28Z</time>
      </trkpt>
      <trkpt lat="48.07443" lon="-1.39723">
        <ele>73.2</ele>
        <time>2014-02-23T13:24:29Z</time>
      </trkpt>
      <trkpt lat="48.07573" lon="-1.39815">
        <ele>74.64</ele>
        <time>2014-02-23T13:24:48Z</time>
      </trkpt>
      <trkpt lat="48.07677" lon="-1.39888">
        <ele>76.56</ele>
        <time>2014-02-23T13:25:04Z</time>
      </trkpt>
      <trkpt lat="48.07765" lon="-1.3995">
        <ele>78.97</ele>
        <time>2014-02-23T13:25:19Z</time>
      </trkpt>
      <trkpt lat="48.07867" lon="-1.40023">
        <ele>80.89</ele>
        <time>2014-02-23T13:25:36Z</time>
      </trkpt>
      <trkpt lat="48.07973" lon="-1.40085">
        <ele>83.29</ele>
        <time>2014-02-23T13:25:53Z</time>
      </trkpt>
      <trkpt lat="48.08081" lon="-1.40115">
        <ele>86.66</ele>
        <time>2014-02-23T13:26:10Z</time>
      </trkpt>
      <trkpt lat="48.08193" lon="-1.40134">
        <ele>89.06</ele>
        <time>2014-02-23T13:26:27Z</time>
      </trkpt>
      <trkpt lat="48.08311" lon="-1.40141">
        <ele>87.62</ele>
        <time>2014-02-23T13:26:42Z</time>
      </trkpt>
      <trkpt lat="48.08445" lon="-1.40121">
        <ele>85.69</ele>
        <time>2014-02-23T13:26:56Z</time>
      </trkpt>
      <trkpt lat="48.08635" lon="-1.40085">
        <ele>85.21</ele>
        <time>2014-02-23T13:27:16Z</time>
      </trkpt>
      <trkpt lat="48.08813" lon="-1.40036">
        <ele>85.21</ele>
        <time>2014-02-23T13:27:35Z</time>
      </trkpt>
      <trkpt lat="48.08906" lon="-1.4001">
        <ele>81.85</ele>
        <time>2014-02-23T13:27:44Z</time>
      </trkpt>
      <trkpt lat="48.08965" lon="-1.40008">
        <ele>78.97</ele>
        <time>2014-02-23T13:27:49Z</time>
      </trkpt>
      <trkpt lat="48.09037" lon="-1.40022">
        <ele>75.12</ele>
        <time>2014-02-23T13:27:55Z</time>
      </trkpt>
      <trkpt lat="48.09062" lon="-1.40027">
        <ele>74.64</ele>
        <time>2014-02-23T13:27:57Z</time>
      </trkpt>
      <trkpt lat="48.09194" lon="-1.40054">
        <ele>71.27</ele>
        <time>2014-02-23T13:28:08Z</time>
      </trkpt>
      <trkpt lat="48.09363" lon="-1.40087">
        <ele>69.35</ele>
        <time>2014-02-23T13:28:23Z</time>
      </trkpt>
      <trkpt lat="48.0949" lon="-1.401">
        <ele>68.87</ele>
        <time>2014-02-23T13:28:35Z</time>
      </trkpt>
      <trkpt lat="48.09627" lon="-1.40114">
        <ele>67.91</ele>
        <time>2014-02-23T13:28:49Z</time>
      </trkpt>
      <trkpt lat="48.09798" lon="-1.40122">
        <ele>67.91</ele>
        <time>2014-02-23T13:29:07Z</time>
      </trkpt>
      <trkpt lat="48.0999" lon="-1.40123">
        <ele>65.99</ele>
        <time>2014-02-23T13:29:27Z</time>
      </trkpt>
      <trkpt lat="48.10176" lon="-1.40123">
        <ele>63.58</ele>
        <time>2014-02-23T13:29:46Z</time>
      </trkpt>
      <trkpt lat="48.10331" lon="-1.40129">
        <ele>63.1</ele>
        <time>2014-02-23T13:30:02Z</time>
      </trkpt>
      <trkpt lat="48.10398" lon="-1.40139">
        <ele>61.66</ele>
        <time>2014-02-23T13:30:09Z</time>
      </trkpt>
      <trkpt lat="48.10407" lon="-1.40142">
        <ele>61.18</ele>
        <time>2014-02-23T13:30:10Z</time>
      </trkpt>
      <trkpt lat="48.10417" lon="-1.40145">
        <ele>61.18</ele>
        <time>2014-02-23T13:30:11Z</time>
      </trkpt>
      <trkpt lat="48.10437" lon="-1.4015">
        <ele>59.74</ele>
        <time>2014-02-23T13:30:13Z</time>
      </trkpt>
      <trkpt lat="48.10487" lon="-1.40164">
        <ele>56.86</ele>
        <time>2014-02-23T13:30:18Z</time>
      </trkpt>
      <trkpt lat="48.10519" lon="-1.40172">
        <ele>55.41</ele>
        <time>2014-02-23T13:30:21Z</time>
      </trkpt>
      <trkpt lat="48.10591" lon="-1.40195">
        <ele>52.05</ele>
        <time>2014-02-23T13:30:28Z</time>
      </trkpt>
      <trkpt lat="48.106" lon="-1.40203">
        <ele>51.57</ele>
        <time>2014-02-23T13:30:29Z</time>
      </trkpt>
      <trkpt lat="48.10607" lon="-1.40214">
        <ele>51.57</ele>
        <time>2014-02-23T13:30:30Z</time>
      </trkpt>
      <trkpt lat="48.10613" lon="-1.40227">
        <ele>51.09</ele>
        <time>2014-02-23T13:30:31Z</time>
      </trkpt>
      <trkpt lat="48.10617" lon="-1.40242">
        <ele>50.61</ele>
        <time>2014-02-23T13:30:32Z</time>
      </trkpt>
      <trkpt lat="48.10619" lon="-1.40257">
        <ele>51.57</ele>
        <time>2014-02-23T13:30:33Z</time>
      </trkpt>
      <trkpt lat="48.1062" lon="-1.40272">
        <ele>50.13</ele>
        <time>2014-02-23T13:30:34Z</time>
      </trkpt>
      <trkpt lat="48.10619" lon="-1.40287">
        <ele>49.65</ele>
        <time>2014-02-23T13:30:35Z</time>
      </trkpt>
      <trkpt lat="48.10618" lon="-1.40301">
        <ele>49.65</ele>
        <time>2014-02-23T13:30:36Z</time>
      </trkpt>
      <trkpt lat="48.10616" lon="-1.40315">
        <ele>49.65</ele>
        <time>2014-02-23T13:30:37Z</time>
      </trkpt>
      <trkpt lat="48.106" lon="-1.40435">
        <ele>47.24</ele>
        <time>2014-02-23T13:30:46Z</time>
      </trkpt>
      <trkpt lat="48.10576" lon="-1.40618">
        <ele>44.84</ele>
        <time>2014-02-23T13:31:00Z</time>
      </trkpt>
      <trkpt lat="48.10564" lon="-1.40704">
        <ele>46.76</ele>
        <time>2014-02-23T13:31:08Z</time>
      </trkpt>
      <trkpt lat="48.10563" lon="-1.40714">
        <ele>46.76</ele>
        <time>2014-02-23T13:31:09Z</time>
      </trkpt>
      <trkpt lat="48.10562" lon="-1.40723">
        <ele>47.72</ele>
        <time>2014-02-23T13:31:10Z</time>
      </trkpt>
      <trkpt lat="48.1056" lon="-1.4074">
        <ele>46.76</ele>
        <time>2014-02-23T13:31:12Z</time>
      </trkpt>
      <trkpt lat="48.10557" lon="-1.40781">
        <ele>49.65</ele>
        <time>2014-02-23T13:31:17Z</time>
      </trkpt>
      <trkpt lat="48.10553" lon="-1.40845">
        <ele>50.13</ele>
        <time>2014-02-23T13:31:25Z</time>
      </trkpt>
      <trkpt lat="48.10554" lon="-1.40852">
        <ele>50.13</ele>
        <time>2014-02-23T13:31:26Z</time>
      </trkpt>
      <trkpt lat="48.10557" lon="-1.40857">
        <ele>50.13</ele>
        <time>2014-02-23T13:31:27Z</time>
      </trkpt>
      <trkpt lat="48.10559" lon="-1.4086">
        <ele>50.13</ele>
        <time>2014-02-23T13:31:28Z</time>
      </trkpt>
      <trkpt lat="48.10561" lon="-1.40862">
        <ele>50.61</ele>
        <time>2014-02-23T13:31:29Z</time>
      </trkpt>
      <trkpt lat="48.10563" lon="-1.40862">
        <ele>51.09</ele>
        <time>2014-02-23T13:31:30Z</time>
      </trkpt>
      <trkpt lat="48.10565" lon="-1.40862">
        <ele>51.09</ele>
        <time>2014-02-23T13:31:31Z</time>
      </trkpt>
      <trkpt lat="48.10567" lon="-1.40863">
        <ele>51.09</ele>
        <time>2014-02-23T13:31:32Z</time>
      </trkpt>
      <trkpt lat="48.10574" lon="-1.40858">
        <ele>51.09</ele>
        <time>2014-02-23T13:31:35Z</time>
      </trkpt>
      <trkpt lat="48.10578" lon="-1.40854">
        <ele>51.09</ele>
        <time>2014-02-23T13:31:36Z</time>
      </trkpt>
      <trkpt lat="48.106" lon="-1.40831">
        <ele>50.13</ele>
        <time>2014-02-23T13:31:41Z</time>
      </trkpt>
      <trkpt lat="48.10605" lon="-1.40824">
        <ele>50.13</ele>
        <time>2014-02-23T13:31:42Z</time>
      </trkpt>
      <trkpt lat="48.1061" lon="-1.40815">
        <ele>50.13</ele>
        <time>2014-02-23T13:31:43Z</time>
      </trkpt>
      <trkpt lat="48.10614" lon="-1.40806">
        <ele>49.65</ele>
        <time>2014-02-23T13:31:44Z</time>
      </trkpt>
      <trkpt lat="48.10619" lon="-1.40796">
        <ele>49.16</ele>
        <time>2014-02-23T13:31:45Z</time>
      </trkpt>
      <trkpt lat="48.10622" lon="-1.40786">
        <ele>49.16</ele>
        <time>2014-02-23T13:31:46Z</time>
      </trkpt>
      <trkpt lat="48.1064" lon="-1.40732">
        <ele>47.24</ele>
        <time>2014-02-23T13:31:51Z</time>
      </trkpt>
      <trkpt lat="48.10672" lon="-1.40634">
        <ele>43.88</ele>
        <time>2014-02-23T13:32:00Z</time>
      </trkpt>
      <trkpt lat="48.10683" lon="-1.40589">
        <ele>42.92</ele>
        <time>2014-02-23T13:32:04Z</time>
      </trkpt>
      <trkpt lat="48.10687" lon="-1.4058">
        <ele>42.92</ele>
        <time>2014-02-23T13:32:05Z</time>
      </trkpt>
      <trkpt lat="48.10722" lon="-1.40523">
        <ele>42.92</ele>
        <time>2014-02-23T13:32:12Z</time>
      </trkpt>
      <trkpt lat="48.10728" lon="-1.40519">
        <ele>42.92</ele>
        <time>2014-02-23T13:32:13Z</time>
      </trkpt>
      <trkpt lat="48.10735" lon="-1.40517">
        <ele>42.44</ele>
        <time>2014-02-23T13:32:14Z</time>
      </trkpt>
      <trkpt lat="48.10742" lon="-1.40517">
        <ele>42.44</ele>
        <time>2014-02-23T13:32:15Z</time>
      </trkpt>
      <trkpt lat="48.10749" lon="-1.40516">
        <ele>42.44</ele>
        <time>2014-02-23T13:32:16Z</time>
      </trkpt>
      <trkpt lat="48.10756" lon="-1.40515">
        <ele>42.92</ele>
        <time>2014-02-23T13:32:17Z</time>
      </trkpt>
      <trkpt lat="48.10763" lon="-1.40513">
        <ele>42.92</ele>
        <time>2014-02-23T13:32:18Z</time>
      </trkpt>
      <trkpt lat="48.10818" lon="-1.40488">
        <ele>44.84</ele>
        <time>2014-02-23T13:32:27Z</time>
      </trkpt>
      <trkpt lat="48.10823" lon="-1.40484">
        <ele>44.36</ele>
        <time>2014-02-23T13:32:28Z</time>
      </trkpt>
      <trkpt lat="48.10827" lon="-1.4048">
        <ele>44.36</ele>
        <time>2014-02-23T13:32:29Z</time>
      </trkpt>
      <trkpt lat="48.10831" lon="-1.40481">
        <ele>44.36</ele>
        <time>2014-02-23T13:32:30Z</time>
      </trkpt>
      <trkpt lat="48.10834" lon="-1.40486">
        <ele>44.36</ele>
        <time>2014-02-23T13:32:31Z</time>
      </trkpt>
      <trkpt lat="48.10836" lon="-1.40491">
        <ele>44.36</ele>
        <time>2014-02-23T13:32:32Z</time>
      </trkpt>
      <trkpt lat="48.10838" lon="-1.40497">
        <ele>44.84</ele>
        <time>2014-02-23T13:32:33Z</time>
      </trkpt>
      <trkpt lat="48.10842" lon="-1.40503">
        <ele>43.4</ele>
        <time>2014-02-23T13:32:34Z</time>
      </trkpt>
      <trkpt lat="48.10847" lon="-1.40507">
        <ele>42.92</ele>
        <time>2014-02-23T13:32:35Z</time>
      </trkpt>
      <trkpt lat="48.10852" lon="-1.40509">
        <ele>42.92</ele>
        <time>2014-02-23T13:32:36Z</time>
      </trkpt>
      <trkpt lat="48.10858" lon="-1.40509">
        <ele>42.92</ele>
        <time>2014-02-23T13:32:37Z</time>
      </trkpt>
      <trkpt lat="48.10863" lon="-1.40509">
        <ele>42.92</ele>
        <time>2014-02-23T13:32:38Z</time>
      </trkpt>
      <trkpt lat="48.10868" lon="-1.4051">
        <ele>43.4</ele>
        <time>2014-02-23T13:32:39Z</time>
      </trkpt>
      <trkpt lat="48.10907" lon="-1.40519">
        <ele>46.28</ele>
        <time>2014-02-23T13:32:48Z</time>
      </trkpt>
      <trkpt lat="48.10912" lon="-1.4052">
        <ele>46.76</ele>
        <time>2014-02-23T13:32:49Z</time>
      </trkpt>
      <trkpt lat="48.10916" lon="-1.40524">
        <ele>47.24</ele>
        <time>2014-02-23T13:32:50Z</time>
      </trkpt>
      <trkpt lat="48.10917" lon="-1.40529">
        <ele>47.72</ele>
        <time>2014-02-23T13:32:51Z</time>
      </trkpt>
      <trkpt lat="48.10916" lon="-1.40536">
        <ele>47.72</ele>
        <time>2014-02-23T13:32:52Z</time>
      </trkpt>
      <trkpt lat="48.10915" lon="-1.40542">
        <ele>48.2</ele>
        <time>2014-02-23T13:32:53Z</time>
      </trkpt>
      <trkpt lat="48.10913" lon="-1.40547">
        <ele>48.2</ele>
        <time>2014-02-23T13:32:54Z</time>
      </trkpt>
      <trkpt lat="48.10912" lon="-1.40552">
        <ele>48.68</ele>
        <time>2014-02-23T13:32:55Z</time>
      </trkpt>
      <trkpt lat="48.10904" lon="-1.40579">
        <ele>50.13</ele>
        <time>2014-02-23T13:33:00Z</time>
      </trkpt>
      <trkpt lat="48.10896" lon="-1.40609">
        <ele>53.01</ele>
        <time>2014-02-23T13:33:05Z</time>
      </trkpt>
      <trkpt lat="48.10894" lon="-1.40615">
        <ele>52.53</ele>
        <time>2014-02-23T13:33:06Z</time>
      </trkpt>
      <trkpt lat="48.10872" lon="-1.40703">
        <ele>52.53</ele>
        <time>2014-02-23T13:33:18Z</time>
      </trkpt>
      <trkpt lat="48.10862" lon="-1.40763">
        <ele>53.01</ele>
        <time>2014-02-23T13:33:26Z</time>
      </trkpt>
      <trkpt lat="48.10863" lon="-1.4077">
        <ele>52.53</ele>
        <time>2014-02-23T13:33:27Z</time>
      </trkpt>
      <trkpt lat="48.10866" lon="-1.40775">
        <ele>53.01</ele>
        <time>2014-02-23T13:33:28Z</time>
      </trkpt>
      <trkpt lat="48.10871" lon="-1.40778">
        <ele>53.01</ele>
        <time>2014-02-23T13:33:29Z</time>
      </trkpt>
      <trkpt lat="48.10876" lon="-1.4078">
        <ele>53.01</ele>
        <time>2014-02-23T13:33:30Z</time>
      </trkpt>
      <trkpt lat="48.10928" lon="-1.40806">
        <ele>52.05</ele>
        <time>2014-02-23T13:33:39Z</time>
      </trkpt>
      <trkpt lat="48.10941" lon="-1.40809">
        <ele>52.05</ele>
        <time>2014-02-23T13:33:41Z</time>
      </trkpt>
      <trkpt lat="48.10948" lon="-1.40809">
        <ele>51.57</ele>
        <time>2014-02-23T13:33:42Z</time>
      </trkpt>
      <trkpt lat="48.1099" lon="-1.4081">
        <ele>51.09</ele>
        <time>2014-02-23T13:33:48Z</time>
      </trkpt>
      <trkpt lat="48.11103" lon="-1.40813">
        <ele>50.61</ele>
        <time>2014-02-23T13:34:03Z</time>
      </trkpt>
      <trkpt lat="48.112" lon="-1.40806">
        <ele>49.16</ele>
        <time>2014-02-23T13:34:15Z</time>
      </trkpt>
      <trkpt lat="48.11254" lon="-1.40787">
        <ele>48.2</ele>
        <time>2014-02-23T13:34:21Z</time>
      </trkpt>
      <trkpt lat="48.1133" lon="-1.40793">
        <ele>51.09</ele>
        <time>2014-02-23T13:34:31Z</time>
      </trkpt>
      <trkpt lat="48.11433" lon="-1.40807">
        <ele>53.97</ele>
        <time>2014-02-23T13:34:47Z</time>
      </trkpt>
      <trkpt lat="48.1153" lon="-1.40822">
        <ele>56.86</ele>
        <time>2014-02-23T13:35:02Z</time>
      </trkpt>
      <trkpt lat="48.11583" lon="-1.40829">
        <ele>60.22</ele>
        <time>2014-02-23T13:35:12Z</time>
      </trkpt>
      <trkpt lat="48.1162" lon="-1.40838">
        <ele>63.1</ele>
        <time>2014-02-23T13:35:20Z</time>
      </trkpt>
      <trkpt lat="48.11629" lon="-1.4084">
        <ele>64.55</ele>
        <time>2014-02-23T13:35:22Z</time>
      </trkpt>
      <trkpt lat="48.11686" lon="-1.40844">
        <ele>67.43</ele>
        <time>2014-02-23T13:35:34Z</time>
      </trkpt>
      <trkpt lat="48.11753" lon="-1.4085">
        <ele>70.79</ele>
        <time>2014-02-23T13:35:48Z</time>
      </trkpt>
      <trkpt lat="48.11808" lon="-1.40852">
        <ele>73.68</ele>
        <time>2014-02-23T13:36:00Z</time>
      </trkpt>
      <trkpt lat="48.11812" lon="-1.40851">
        <ele>73.68</ele>
        <time>2014-02-23T13:36:01Z</time>
      </trkpt>
      <trkpt lat="48.11883" lon="-1.40847">
        <ele>76.56</ele>
        <time>2014-02-23T13:36:15Z</time>
      </trkpt>
      <trkpt lat="48.11949" lon="-1.40842">
        <ele>77.04</ele>
        <time>2014-02-23T13:36:26Z</time>
      </trkpt>
      <trkpt lat="48.12024" lon="-1.40847">
        <ele>77.52</ele>
        <time>2014-02-23T13:36:37Z</time>
      </trkpt>
      <trkpt lat="48.12129" lon="-1.40854">
        <ele>76.56</ele>
        <time>2014-02-23T13:36:51Z</time>
      </trkpt>
      <trkpt lat="48.12269" lon="-1.40865">
        <ele>77.52</ele>
        <time>2014-02-23T13:37:09Z</time>
      </trkpt>
      <trkpt lat="48.12394" lon="-1.40874">
        <ele>80.89</ele>
        <time>2014-02-23T13:37:26Z</time>
      </trkpt>
      <trkpt lat="48.12541" lon="-1.40886">
        <ele>80.89</ele>
        <time>2014-02-23T13:37:45Z</time>
      </trkpt>
      <trkpt lat="48.12628" lon="-1.40893">
        <ele>81.37</ele>
        <time>2014-02-23T13:37:56Z</time>
      </trkpt>
      <trkpt lat="48.12709" lon="-1.40898">
        <ele>83.29</ele>
        <time>2014-02-23T13:38:08Z</time>
      </trkpt>
      <trkpt lat="48.12783" lon="-1.40902">
        <ele>85.21</ele>
        <time>2014-02-23T13:38:20Z</time>
      </trkpt>
      <trkpt lat="48.1279" lon="-1.40903">
        <ele>85.69</ele>
        <time>2014-02-23T13:38:21Z</time>
      </trkpt>
      <trkpt lat="48.12828" lon="-1.40903">
        <ele>88.1</ele>
        <time>2014-02-23T13:38:29Z</time>
      </trkpt>
      <trkpt lat="48.12879" lon="-1.4091">
        <ele>89.54</ele>
        <time>2014-02-23T13:38:37Z</time>
      </trkpt>
      <trkpt lat="48.12928" lon="-1.40919">
        <ele>91.46</ele>
        <time>2014-02-23T13:38:45Z</time>
      </trkpt>
      <trkpt lat="48.12939" lon="-1.40919">
        <ele>91.94</ele>
        <time>2014-02-23T13:38:47Z</time>
      </trkpt>
      <trkpt lat="48.12944" lon="-1.40919">
        <ele>91.94</ele>
        <time>2014-02-23T13:38:48Z</time>
      </trkpt>
      <trkpt lat="48.13024" lon="-1.4092">
        <ele>95.31</ele>
        <time>2014-02-23T13:39:03Z</time>
      </trkpt>
      <trkpt lat="48.13089" lon="-1.40912">
        <ele>97.71</ele>
        <time>2014-02-23T13:39:15Z</time>
      </trkpt>
      <trkpt lat="48.13094" lon="-1.4091">
        <ele>97.71</ele>
        <time>2014-02-23T13:39:16Z</time>
      </trkpt>
      <trkpt lat="48.13139" lon="-1.40902">
        <ele>99.15</ele>
        <time>2014-02-23T13:39:24Z</time>
      </trkpt>
      <trkpt lat="48.13178" lon="-1.40886">
        <ele>101.08</ele>
        <time>2014-02-23T13:39:32Z</time>
      </trkpt>
      <trkpt lat="48.13183" lon="-1.40883">
        <ele>101.08</ele>
        <time>2014-02-23T13:39:33Z</time>
      </trkpt>
      <trkpt lat="48.13187" lon="-1.4088">
        <ele>101.56</ele>
        <time>2014-02-23T13:39:34Z</time>
      </trkpt>
      <trkpt lat="48.13191" lon="-1.40877">
        <ele>101.56</ele>
        <time>2014-02-23T13:39:35Z</time>
      </trkpt>
      <trkpt lat="48.13208" lon="-1.40867">
        <ele>102.52</ele>
        <time>2014-02-23T13:39:39Z</time>
      </trkpt>
      <trkpt lat="48.13212" lon="-1.40865">
        <ele>102.52</ele>
        <time>2014-02-23T13:39:40Z</time>
      </trkpt>
      <trkpt lat="48.13222" lon="-1.40862">
        <ele>103</ele>
        <time>2014-02-23T13:39:42Z</time>
      </trkpt>
      <trkpt lat="48.13267" lon="-1.40837">
        <ele>105.4</ele>
        <time>2014-02-23T13:39:52Z</time>
      </trkpt>
      <trkpt lat="48.13324" lon="-1.40807">
        <ele>106.36</ele>
        <time>2014-02-23T13:40:03Z</time>
      </trkpt>
      <trkpt lat="48.13334" lon="-1.40799">
        <ele>106.84</ele>
        <time>2014-02-23T13:40:05Z</time>
      </trkpt>
      <trkpt lat="48.1338" lon="-1.40768">
        <ele>106.84</ele>
        <time>2014-02-23T13:40:13Z</time>
      </trkpt>
      <trkpt lat="48.1343" lon="-1.40734">
        <ele>107.32</ele>
        <time>2014-02-23T13:40:21Z</time>
      </trkpt>
      <trkpt lat="48.13496" lon="-1.40677">
        <ele>107.32</ele>
        <time>2014-02-23T13:40:32Z</time>
      </trkpt>
      <trkpt lat="48.1357" lon="-1.40608">
        <ele>107.81</ele>
        <time>2014-02-23T13:40:44Z</time>
      </trkpt>
      <trkpt lat="48.13667" lon="-1.40522">
        <ele>107.81</ele>
        <time>2014-02-23T13:41:00Z</time>
      </trkpt>
      <trkpt lat="48.13744" lon="-1.40448">
        <ele>107.81</ele>
        <time>2014-02-23T13:41:13Z</time>
      </trkpt>
      <trkpt lat="48.13865" lon="-1.40341">
        <ele>107.32</ele>
        <time>2014-02-23T13:41:32Z</time>
      </trkpt>
      <trkpt lat="48.13893" lon="-1.40314">
        <ele>106.84</ele>
        <time>2014-02-23T13:41:36Z</time>
      </trkpt>
      <trkpt lat="48.13914" lon="-1.40295">
        <ele>105.4</ele>
        <time>2014-02-23T13:41:39Z</time>
      </trkpt>
      <trkpt lat="48.14025" lon="-1.40193">
        <ele>102.04</ele>
        <time>2014-02-23T13:41:54Z</time>
      </trkpt>
      <trkpt lat="48.14119" lon="-1.40103">
        <ele>100.11</ele>
        <time>2014-02-23T13:42:07Z</time>
      </trkpt>
      <trkpt lat="48.14182" lon="-1.4005">
        <ele>98.19</ele>
        <time>2014-02-23T13:42:15Z</time>
      </trkpt>
      <trkpt lat="48.14191" lon="-1.40046">
        <ele>97.71</ele>
        <time>2014-02-23T13:42:16Z</time>
      </trkpt>
      <trkpt lat="48.142" lon="-1.40045">
        <ele>98.19</ele>
        <time>2014-02-23T13:42:17Z</time>
      </trkpt>
      <trkpt lat="48.14209" lon="-1.40045">
        <ele>98.19</ele>
        <time>2014-02-23T13:42:18Z</time>
      </trkpt>
      <trkpt lat="48.14218" lon="-1.40046">
        <ele>97.71</ele>
        <time>2014-02-23T13:42:19Z</time>
      </trkpt>
      <trkpt lat="48.14227" lon="-1.40048">
        <ele>97.71</ele>
        <time>2014-02-23T13:42:20Z</time>
      </trkpt>
      <trkpt lat="48.14236" lon="-1.40052">
        <ele>97.71</ele>
        <time>2014-02-23T13:42:21Z</time>
      </trkpt>
      <trkpt lat="48.14244" lon="-1.40056">
        <ele>97.71</ele>
        <time>2014-02-23T13:42:22Z</time>
      </trkpt>
      <trkpt lat="48.14252" lon="-1.40061">
        <ele>97.71</ele>
        <time>2014-02-23T13:42:23Z</time>
      </trkpt>
      <trkpt lat="48.1426" lon="-1.40067">
        <ele>97.71</ele>
        <time>2014-02-23T13:42:24Z</time>
      </trkpt>
      <trkpt lat="48.14364" lon="-1.40152">
        <ele>97.71</ele>
        <time>2014-02-23T13:42:38Z</time>
      </trkpt>
      <trkpt lat="48.14476" lon="-1.40243">
        <ele>98.67</ele>
        <time>2014-02-23T13:42:53Z</time>
      </trkpt>
      <trkpt lat="48.14602" lon="-1.40349">
        <ele>97.71</ele>
        <time>2014-02-23T13:43:10Z</time>
      </trkpt>
      <trkpt lat="48.14657" lon="-1.40397">
        <ele>96.75</ele>
        <time>2014-02-23T13:43:17Z</time>
      </trkpt>
      <trkpt lat="48.14776" lon="-1.40482">
        <ele>95.31</ele>
        <time>2014-02-23T13:43:32Z</time>
      </trkpt>
      <trkpt lat="48.14836" lon="-1.40523">
        <ele>98.19</ele>
        <time>2014-02-23T13:43:41Z</time>
      </trkpt>
      <trkpt lat="48.14842" lon="-1.40527">
        <ele>98.67</ele>
        <time>2014-02-23T13:43:42Z</time>
      </trkpt>
      <trkpt lat="48.14879" lon="-1.40549">
        <ele>100.6</ele>
        <time>2014-02-23T13:43:48Z</time>
      </trkpt>
      <trkpt lat="48.14928" lon="-1.40583">
        <ele>102.52</ele>
        <time>2014-02-23T13:43:57Z</time>
      </trkpt>
      <trkpt lat="48.14995" lon="-1.4063">
        <ele>105.4</ele>
        <time>2014-02-23T13:44:10Z</time>
      </trkpt>
      <trkpt lat="48.15011" lon="-1.4064">
        <ele>105.88</ele>
        <time>2014-02-23T13:44:13Z</time>
      </trkpt>
      <trkpt lat="48.15072" lon="-1.40684">
        <ele>108.29</ele>
        <time>2014-02-23T13:44:25Z</time>
      </trkpt>
      <trkpt lat="48.15172" lon="-1.40755">
        <ele>110.21</ele>
        <time>2014-02-23T13:44:42Z</time>
      </trkpt>
      <trkpt lat="48.15294" lon="-1.40841">
        <ele>109.25</ele>
        <time>2014-02-23T13:45:00Z</time>
      </trkpt>
      <trkpt lat="48.15398" lon="-1.40915">
        <ele>105.88</ele>
        <time>2014-02-23T13:45:13Z</time>
      </trkpt>
      <trkpt lat="48.15512" lon="-1.40994">
        <ele>106.36</ele>
        <time>2014-02-23T13:45:28Z</time>
      </trkpt>
      <trkpt lat="48.15589" lon="-1.4107">
        <ele>109.25</ele>
        <time>2014-02-23T13:45:42Z</time>
      </trkpt>
      <trkpt lat="48.15673" lon="-1.41175">
        <ele>111.65</ele>
        <time>2014-02-23T13:45:59Z</time>
      </trkpt>
      <trkpt lat="48.15731" lon="-1.4125">
        <ele>113.09</ele>
        <time>2014-02-23T13:46:12Z</time>
      </trkpt>
      <trkpt lat="48.15788" lon="-1.41326">
        <ele>115.01</ele>
        <time>2014-02-23T13:46:25Z</time>
      </trkpt>
      <trkpt lat="48.15863" lon="-1.41419">
        <ele>116.94</ele>
        <time>2014-02-23T13:46:41Z</time>
      </trkpt>
      <trkpt lat="48.15934" lon="-1.41509">
        <ele>118.86</ele>
        <time>2014-02-23T13:46:55Z</time>
      </trkpt>
      <trkpt lat="48.16014" lon="-1.41609">
        <ele>119.34</ele>
        <time>2014-02-23T13:47:10Z</time>
      </trkpt>
      <trkpt lat="48.16122" lon="-1.41749">
        <ele>116.94</ele>
        <time>2014-02-23T13:47:28Z</time>
      </trkpt>
      <trkpt lat="48.16234" lon="-1.41892">
        <ele>116.46</ele>
        <time>2014-02-23T13:47:45Z</time>
      </trkpt>
      <trkpt lat="48.16317" lon="-1.41999">
        <ele>118.86</ele>
        <time>2014-02-23T13:48:00Z</time>
      </trkpt>
      <trkpt lat="48.16378" lon="-1.4208">
        <ele>121.26</ele>
        <time>2014-02-23T13:48:13Z</time>
      </trkpt>
      <trkpt lat="48.16435" lon="-1.42146">
        <ele>123.67</ele>
        <time>2014-02-23T13:48:25Z</time>
      </trkpt>
      <trkpt lat="48.165" lon="-1.42232">
        <ele>124.63</ele>
        <time>2014-02-23T13:48:38Z</time>
      </trkpt>
      <trkpt lat="48.16595" lon="-1.42355">
        <ele>123.19</ele>
        <time>2014-02-23T13:48:54Z</time>
      </trkpt>
      <trkpt lat="48.16715" lon="-1.42509">
        <ele>121.74</ele>
        <time>2014-02-23T13:49:13Z</time>
      </trkpt>
      <trkpt lat="48.16792" lon="-1.42606">
        <ele>123.67</ele>
        <time>2014-02-23T13:49:27Z</time>
      </trkpt>
      <trkpt lat="48.16883" lon="-1.42724">
        <ele>122.22</ele>
        <time>2014-02-23T13:49:43Z</time>
      </trkpt>
      <trkpt lat="48.16986" lon="-1.42859">
        <ele>118.86</ele>
        <time>2014-02-23T13:49:58Z</time>
      </trkpt>
      <trkpt lat="48.17001" lon="-1.42878">
        <ele>117.42</ele>
        <time>2014-02-23T13:50:00Z</time>
      </trkpt>
      <trkpt lat="48.17078" lon="-1.42974">
        <ele>114.53</ele>
        <time>2014-02-23T13:50:10Z</time>
      </trkpt>
      <trkpt lat="48.17162" lon="-1.4308">
        <ele>115.01</ele>
        <time>2014-02-23T13:50:23Z</time>
      </trkpt>
      <trkpt lat="48.17244" lon="-1.43186">
        <ele>117.42</ele>
        <time>2014-02-23T13:50:38Z</time>
      </trkpt>
      <trkpt lat="48.17317" lon="-1.43279">
        <ele>120.3</ele>
        <time>2014-02-23T13:50:53Z</time>
      </trkpt>
      <trkpt lat="48.17396" lon="-1.43378">
        <ele>122.71</ele>
        <time>2014-02-23T13:51:09Z</time>
      </trkpt>
      <trkpt lat="48.17482" lon="-1.43487">
        <ele>123.67</ele>
        <time>2014-02-23T13:51:26Z</time>
      </trkpt>
      <trkpt lat="48.1752" lon="-1.43538">
        <ele>123.67</ele>
        <time>2014-02-23T13:51:34Z</time>
      </trkpt>
      <trkpt lat="48.17523" lon="-1.43545">
        <ele>123.67</ele>
        <time>2014-02-23T13:51:35Z</time>
      </trkpt>
      <trkpt lat="48.17525" lon="-1.43551">
        <ele>123.19</ele>
        <time>2014-02-23T13:51:36Z</time>
      </trkpt>
      <trkpt lat="48.17527" lon="-1.43557">
        <ele>123.19</ele>
        <time>2014-02-23T13:51:37Z</time>
      </trkpt>
      <trkpt lat="48.17531" lon="-1.43562">
        <ele>123.19</ele>
        <time>2014-02-23T13:51:38Z</time>
      </trkpt>
      <trkpt lat="48.17535" lon="-1.43566">
        <ele>123.19</ele>
        <time>2014-02-23T13:51:39Z</time>
      </trkpt>
      <trkpt lat="48.1754" lon="-1.43568">
        <ele>123.19</ele>
        <time>2014-02-23T13:51:40Z</time>
      </trkpt>
      <trkpt lat="48.17546" lon="-1.43569">
        <ele>123.19</ele>
        <time>2014-02-23T13:51:41Z</time>
      </trkpt>
      <trkpt lat="48.17647" lon="-1.43603">
        <ele>122.22</ele>
        <time>2014-02-23T13:51:57Z</time>
      </trkpt>
      <trkpt lat="48.17736" lon="-1.43633">
        <ele>118.86</ele>
        <time>2014-02-23T13:52:09Z</time>
      </trkpt>
      <trkpt lat="48.17798" lon="-1.43662">
        <ele>115.5</ele>
        <time>2014-02-23T13:52:16Z</time>
      </trkpt>
      <trkpt lat="48.17807" lon="-1.43667">
        <ele>115.5</ele>
        <time>2014-02-23T13:52:17Z</time>
      </trkpt>
      <trkpt lat="48.17928" lon="-1.43732">
        <ele>112.61</ele>
        <time>2014-02-23T13:52:32Z</time>
      </trkpt>
      <trkpt lat="48.1795" lon="-1.43746">
        <ele>113.57</ele>
        <time>2014-02-23T13:52:35Z</time>
      </trkpt>
      <trkpt lat="48.18037" lon="-1.43803">
        <ele>114.53</ele>
        <time>2014-02-23T13:52:48Z</time>
      </trkpt>
      <trkpt lat="48.18091" lon="-1.43859">
        <ele>114.53</ele>
        <time>2014-02-23T13:52:57Z</time>
      </trkpt>
      <trkpt lat="48.18163" lon="-1.43893">
        <ele>114.05</ele>
        <time>2014-02-23T13:53:07Z</time>
      </trkpt>
      <trkpt lat="48.18186" lon="-1.439">
        <ele>113.57</ele>
        <time>2014-02-23T13:53:10Z</time>
      </trkpt>
      <trkpt lat="48.18193" lon="-1.43901">
        <ele>113.57</ele>
        <time>2014-02-23T13:53:11Z</time>
      </trkpt>
      <trkpt lat="48.18285" lon="-1.43879">
        <ele>113.09</ele>
        <time>2014-02-23T13:53:23Z</time>
      </trkpt>
      <trkpt lat="48.18307" lon="-1.43869">
        <ele>113.09</ele>
        <time>2014-02-23T13:53:26Z</time>
      </trkpt>
      <trkpt lat="48.18359" lon="-1.43839">
        <ele>112.13</ele>
        <time>2014-02-23T13:53:34Z</time>
      </trkpt>
      <trkpt lat="48.18389" lon="-1.43836">
        <ele>110.21</ele>
        <time>2014-02-23T13:53:39Z</time>
      </trkpt>
      <trkpt lat="48.18394" lon="-1.43837">
        <ele>110.21</ele>
        <time>2014-02-23T13:53:40Z</time>
      </trkpt>
      <trkpt lat="48.18398" lon="-1.43837">
        <ele>109.73</ele>
        <time>2014-02-23T13:53:41Z</time>
      </trkpt>
      <trkpt lat="48.18402" lon="-1.43836">
        <ele>109.73</ele>
        <time>2014-02-23T13:53:42Z</time>
      </trkpt>
      <trkpt lat="48.18407" lon="-1.43835">
        <ele>109.25</ele>
        <time>2014-02-23T13:53:43Z</time>
      </trkpt>
      <trkpt lat="48.18412" lon="-1.43837">
        <ele>108.77</ele>
        <time>2014-02-23T13:53:44Z</time>
      </trkpt>
      <trkpt lat="48.18417" lon="-1.43842">
        <ele>108.77</ele>
        <time>2014-02-23T13:53:45Z</time>
      </trkpt>
      <trkpt lat="48.18421" lon="-1.43848">
        <ele>108.29</ele>
        <time>2014-02-23T13:53:46Z</time>
      </trkpt>
      <trkpt lat="48.18426" lon="-1.43855">
        <ele>107.81</ele>
        <time>2014-02-23T13:53:47Z</time>
      </trkpt>
      <trkpt lat="48.1843" lon="-1.43863">
        <ele>107.32</ele>
        <time>2014-02-23T13:53:48Z</time>
      </trkpt>
      <trkpt lat="48.18469" lon="-1.43966">
        <ele>107.81</ele>
        <time>2014-02-23T13:54:00Z</time>
      </trkpt>
      <trkpt lat="48.18515" lon="-1.44088">
        <ele>107.32</ele>
        <time>2014-02-23T13:54:14Z</time>
      </trkpt>
      <trkpt lat="48.18559" lon="-1.44217">
        <ele>106.36</ele>
        <time>2014-02-23T13:54:28Z</time>
      </trkpt>
      <trkpt lat="48.1859" lon="-1.44325">
        <ele>106.84</ele>
        <time>2014-02-23T13:54:39Z</time>
      </trkpt>
      <trkpt lat="48.18595" lon="-1.44333">
        <ele>106.36</ele>
        <time>2014-02-23T13:54:40Z</time>
      </trkpt>
      <trkpt lat="48.18601" lon="-1.44338">
        <ele>106.36</ele>
        <time>2014-02-23T13:54:41Z</time>
      </trkpt>
      <trkpt lat="48.18608" lon="-1.44341">
        <ele>105.88</ele>
        <time>2014-02-23T13:54:42Z</time>
      </trkpt>
      <trkpt lat="48.18616" lon="-1.44341">
        <ele>105.4</ele>
        <time>2014-02-23T13:54:43Z</time>
      </trkpt>
      <trkpt lat="48.18624" lon="-1.4434">
        <ele>104.92</ele>
        <time>2014-02-23T13:54:44Z</time>
      </trkpt>
      <trkpt lat="48.18632" lon="-1.44337">
        <ele>104.92</ele>
        <time>2014-02-23T13:54:45Z</time>
      </trkpt>
      <trkpt lat="48.18641" lon="-1.44334">
        <ele>103.96</ele>
        <time>2014-02-23T13:54:46Z</time>
      </trkpt>
      <trkpt lat="48.18686" lon="-1.44315">
        <ele>100.6</ele>
        <time>2014-02-23T13:54:51Z</time>
      </trkpt>
      <trkpt lat="48.18721" lon="-1.44299">
        <ele>98.67</ele>
        <time>2014-02-23T13:54:55Z</time>
      </trkpt>
      <trkpt lat="48.18728" lon="-1.44294">
        <ele>98.19</ele>
        <time>2014-02-23T13:54:56Z</time>
      </trkpt>
      <trkpt lat="48.18734" lon="-1.44287">
        <ele>97.23</ele>
        <time>2014-02-23T13:54:57Z</time>
      </trkpt>
      <trkpt lat="48.1874" lon="-1.4428">
        <ele>96.75</ele>
        <time>2014-02-23T13:54:58Z</time>
      </trkpt>
      <trkpt lat="48.18747" lon="-1.44277">
        <ele>96.27</ele>
        <time>2014-02-23T13:54:59Z</time>
      </trkpt>
      <trkpt lat="48.18754" lon="-1.44279">
        <ele>96.27</ele>
        <time>2014-02-23T13:55:00Z</time>
      </trkpt>
      <trkpt lat="48.1876" lon="-1.44286">
        <ele>95.31</ele>
        <time>2014-02-23T13:55:01Z</time>
      </trkpt>
      <trkpt lat="48.18766" lon="-1.44294">
        <ele>95.31</ele>
        <time>2014-02-23T13:55:02Z</time>
      </trkpt>
      <trkpt lat="48.18772" lon="-1.44302">
        <ele>94.83</ele>
        <time>2014-02-23T13:55:03Z</time>
      </trkpt>
      <trkpt lat="48.18779" lon="-1.4431">
        <ele>94.35</ele>
        <time>2014-02-23T13:55:04Z</time>
      </trkpt>
      <trkpt lat="48.18812" lon="-1.44338">
        <ele>91.94</ele>
        <time>2014-02-23T13:55:08Z</time>
      </trkpt>
      <trkpt lat="48.18887" lon="-1.444">
        <ele>89.06</ele>
        <time>2014-02-23T13:55:17Z</time>
      </trkpt>
      <trkpt lat="48.18952" lon="-1.44473">
        <ele>87.14</ele>
        <time>2014-02-23T13:55:26Z</time>
      </trkpt>
      <trkpt lat="48.18989" lon="-1.4452">
        <ele>84.73</ele>
        <time>2014-02-23T13:55:31Z</time>
      </trkpt>
      <trkpt lat="48.18995" lon="-1.44532">
        <ele>84.25</ele>
        <time>2014-02-23T13:55:32Z</time>
      </trkpt>
      <trkpt lat="48.19001" lon="-1.44545">
        <ele>83.77</ele>
        <time>2014-02-23T13:55:33Z</time>
      </trkpt>
      <trkpt lat="48.19009" lon="-1.44574">
        <ele>82.81</ele>
        <time>2014-02-23T13:55:35Z</time>
      </trkpt>
      <trkpt lat="48.19031" lon="-1.44708">
        <ele>79.45</ele>
        <time>2014-02-23T13:55:44Z</time>
      </trkpt>
      <trkpt lat="48.19074" lon="-1.44873">
        <ele>77.04</ele>
        <time>2014-02-23T13:55:56Z</time>
      </trkpt>
      <trkpt lat="48.19112" lon="-1.4498">
        <ele>73.68</ele>
        <time>2014-02-23T13:56:04Z</time>
      </trkpt>
      <trkpt lat="48.19145" lon="-1.45078">
        <ele>70.79</ele>
        <time>2014-02-23T13:56:11Z</time>
      </trkpt>
      <trkpt lat="48.19162" lon="-1.45137">
        <ele>67.43</ele>
        <time>2014-02-23T13:56:15Z</time>
      </trkpt>
      <trkpt lat="48.1918" lon="-1.45215">
        <ele>64.07</ele>
        <time>2014-02-23T13:56:20Z</time>
      </trkpt>
      <trkpt lat="48.19195" lon="-1.45295">
        <ele>62.62</ele>
        <time>2014-02-23T13:56:25Z</time>
      </trkpt>
      <trkpt lat="48.19198" lon="-1.45311">
        <ele>62.62</ele>
        <time>2014-02-23T13:56:26Z</time>
      </trkpt>
      <trkpt lat="48.19211" lon="-1.45404">
        <ele>64.07</ele>
        <time>2014-02-23T13:56:33Z</time>
      </trkpt>
      <trkpt lat="48.19214" lon="-1.45438">
        <ele>66.95</ele>
        <time>2014-02-23T13:56:36Z</time>
      </trkpt>
      <trkpt lat="48.19214" lon="-1.45448">
        <ele>66.47</ele>
        <time>2014-02-23T13:56:37Z</time>
      </trkpt>
      <trkpt lat="48.19215" lon="-1.45459">
        <ele>66.47</ele>
        <time>2014-02-23T13:56:38Z</time>
      </trkpt>
      <trkpt lat="48.19217" lon="-1.45516">
        <ele>69.35</ele>
        <time>2014-02-23T13:56:44Z</time>
      </trkpt>
      <trkpt lat="48.19219" lon="-1.45607">
        <ele>72.72</ele>
        <time>2014-02-23T13:56:55Z</time>
      </trkpt>
      <trkpt lat="48.19219" lon="-1.45631">
        <ele>72.72</ele>
        <time>2014-02-23T13:56:58Z</time>
      </trkpt>
      <trkpt lat="48.1922" lon="-1.45639">
        <ele>73.68</ele>
        <time>2014-02-23T13:56:59Z</time>
      </trkpt>
      <trkpt lat="48.1922" lon="-1.45646">
        <ele>73.68</ele>
        <time>2014-02-23T13:57:00Z</time>
      </trkpt>
      <trkpt lat="48.1922" lon="-1.45654">
        <ele>74.16</ele>
        <time>2014-02-23T13:57:01Z</time>
      </trkpt>
      <trkpt lat="48.19219" lon="-1.45662">
        <ele>74.16</ele>
        <time>2014-02-23T13:57:02Z</time>
      </trkpt>
      <trkpt lat="48.19214" lon="-1.4576">
        <ele>75.6</ele>
        <time>2014-02-23T13:57:14Z</time>
      </trkpt>
      <trkpt lat="48.192" lon="-1.45887">
        <ele>76.56</ele>
        <time>2014-02-23T13:57:28Z</time>
      </trkpt>
      <trkpt lat="48.19201" lon="-1.45991">
        <ele>75.12</ele>
        <time>2014-02-23T13:57:38Z</time>
      </trkpt>
      <trkpt lat="48.19206" lon="-1.46145">
        <ele>75.12</ele>
        <time>2014-02-23T13:57:52Z</time>
      </trkpt>
      <trkpt lat="48.19217" lon="-1.46298">
        <ele>76.08</ele>
        <time>2014-02-23T13:58:07Z</time>
      </trkpt>
      <trkpt lat="48.19221" lon="-1.46307">
        <ele>76.08</ele>
        <time>2014-02-23T13:58:08Z</time>
      </trkpt>
      <trkpt lat="48.19225" lon="-1.46315">
        <ele>75.6</ele>
        <time>2014-02-23T13:58:09Z</time>
      </trkpt>
      <trkpt lat="48.1923" lon="-1.46323">
        <ele>75.6</ele>
        <time>2014-02-23T13:58:10Z</time>
      </trkpt>
      <trkpt lat="48.19236" lon="-1.4633">
        <ele>75.12</ele>
        <time>2014-02-23T13:58:11Z</time>
      </trkpt>
      <trkpt lat="48.19242" lon="-1.46338">
        <ele>75.12</ele>
        <time>2014-02-23T13:58:12Z</time>
      </trkpt>
      <trkpt lat="48.19294" lon="-1.46398">
        <ele>70.79</ele>
        <time>2014-02-23T13:58:20Z</time>
      </trkpt>
      <trkpt lat="48.193" lon="-1.46405">
        <ele>70.79</ele>
        <time>2014-02-23T13:58:21Z</time>
      </trkpt>
      <trkpt lat="48.19337" lon="-1.46446">
        <ele>68.87</ele>
        <time>2014-02-23T13:58:26Z</time>
      </trkpt>
      <trkpt lat="48.19391" lon="-1.46508">
        <ele>65.51</ele>
        <time>2014-02-23T13:58:33Z</time>
      </trkpt>
      <trkpt lat="48.19441" lon="-1.46564">
        <ele>62.14</ele>
        <time>2014-02-23T13:58:39Z</time>
      </trkpt>
      <trkpt lat="48.19459" lon="-1.46585">
        <ele>61.18</ele>
        <time>2014-02-23T13:58:41Z</time>
      </trkpt>
      <trkpt lat="48.19506" lon="-1.46638">
        <ele>57.82</ele>
        <time>2014-02-23T13:58:46Z</time>
      </trkpt>
      <trkpt lat="48.19555" lon="-1.46693">
        <ele>54.45</ele>
        <time>2014-02-23T13:58:51Z</time>
      </trkpt>
      <trkpt lat="48.1967" lon="-1.46824">
        <ele>53.01</ele>
        <time>2014-02-23T13:59:04Z</time>
      </trkpt>
      <trkpt lat="48.19696" lon="-1.46853">
        <ele>53.97</ele>
        <time>2014-02-23T13:59:08Z</time>
      </trkpt>
      <trkpt lat="48.19702" lon="-1.46855">
        <ele>54.45</ele>
        <time>2014-02-23T13:59:09Z</time>
      </trkpt>
      <trkpt lat="48.19708" lon="-1.46852">
        <ele>54.45</ele>
        <time>2014-02-23T13:59:10Z</time>
      </trkpt>
      <trkpt lat="48.19712" lon="-1.46846">
        <ele>54.93</ele>
        <time>2014-02-23T13:59:11Z</time>
      </trkpt>
      <trkpt lat="48.19714" lon="-1.46839">
        <ele>55.41</ele>
        <time>2014-02-23T13:59:12Z</time>
      </trkpt>
      <trkpt lat="48.19715" lon="-1.46832">
        <ele>55.41</ele>
        <time>2014-02-23T13:59:13Z</time>
      </trkpt>
      <trkpt lat="48.19714" lon="-1.46824">
        <ele>55.89</ele>
        <time>2014-02-23T13:59:14Z</time>
      </trkpt>
      <trkpt lat="48.19713" lon="-1.46816">
        <ele>55.89</ele>
        <time>2014-02-23T13:59:15Z</time>
      </trkpt>
      <trkpt lat="48.1971" lon="-1.46792">
        <ele>56.37</ele>
        <time>2014-02-23T13:59:18Z</time>
      </trkpt>
      <trkpt lat="48.19705" lon="-1.46758">
        <ele>56.86</ele>
        <time>2014-02-23T13:59:22Z</time>
      </trkpt>
      <trkpt lat="48.19694" lon="-1.46637">
        <ele>59.74</ele>
        <time>2014-02-23T13:59:37Z</time>
      </trkpt>
      <trkpt lat="48.19682" lon="-1.46528">
        <ele>58.78</ele>
        <time>2014-02-23T13:59:49Z</time>
      </trkpt>
      <trkpt lat="48.19676" lon="-1.46482">
        <ele>57.82</ele>
        <time>2014-02-23T13:59:53Z</time>
      </trkpt>
      <trkpt lat="48.19669" lon="-1.46447">
        <ele>56.37</ele>
        <time>2014-02-23T13:59:56Z</time>
      </trkpt>
      <trkpt lat="48.19661" lon="-1.46424">
        <ele>56.37</ele>
        <time>2014-02-23T13:59:58Z</time>
      </trkpt>
      <trkpt lat="48.19619" lon="-1.46336">
        <ele>58.3</ele>
        <time>2014-02-23T14:00:09Z</time>
      </trkpt>
      <trkpt lat="48.19588" lon="-1.46265">
        <ele>60.22</ele>
        <time>2014-02-23T14:00:20Z</time>
      </trkpt>
      <trkpt lat="48.19585" lon="-1.46259">
        <ele>60.7</ele>
        <time>2014-02-23T14:00:21Z</time>
      </trkpt>
      <trkpt lat="48.19574" lon="-1.4622">
        <ele>63.1</ele>
        <time>2014-02-23T14:00:27Z</time>
      </trkpt>
      <trkpt lat="48.19568" lon="-1.46195">
        <ele>63.58</ele>
        <time>2014-02-23T14:00:31Z</time>
      </trkpt>
      <trkpt lat="48.19558" lon="-1.46096">
        <ele>65.03</ele>
        <time>2014-02-23T14:00:44Z</time>
      </trkpt>
      <trkpt lat="48.19573" lon="-1.45976">
        <ele>63.58</ele>
        <time>2014-02-23T14:00:57Z</time>
      </trkpt>
      <trkpt lat="48.19579" lon="-1.45834">
        <ele>63.1</ele>
        <time>2014-02-23T14:01:12Z</time>
      </trkpt>
      <trkpt lat="48.19597" lon="-1.45729">
        <ele>64.55</ele>
        <time>2014-02-23T14:01:24Z</time>
      </trkpt>
      <trkpt lat="48.19599" lon="-1.45722">
        <ele>65.03</ele>
        <time>2014-02-23T14:01:25Z</time>
      </trkpt>
      <trkpt lat="48.19603" lon="-1.45708">
        <ele>65.51</ele>
        <time>2014-02-23T14:01:27Z</time>
      </trkpt>
      <trkpt lat="48.19609" lon="-1.4568">
        <ele>65.99</ele>
        <time>2014-02-23T14:01:31Z</time>
      </trkpt>
      <trkpt lat="48.19621" lon="-1.45644">
        <ele>67.43</ele>
        <time>2014-02-23T14:01:37Z</time>
      </trkpt>
      <trkpt lat="48.19641" lon="-1.45587">
        <ele>69.35</ele>
        <time>2014-02-23T14:01:46Z</time>
      </trkpt>
      <trkpt lat="48.19644" lon="-1.4558">
        <ele>69.35</ele>
        <time>2014-02-23T14:01:47Z</time>
      </trkpt>
      <trkpt lat="48.1969" lon="-1.4548">
        <ele>72.24</ele>
        <time>2014-02-23T14:02:02Z</time>
      </trkpt>
      <trkpt lat="48.19699" lon="-1.45462">
        <ele>72.72</ele>
        <time>2014-02-23T14:02:05Z</time>
      </trkpt>
      <trkpt lat="48.19729" lon="-1.45401">
        <ele>75.12</ele>
        <time>2014-02-23T14:02:15Z</time>
      </trkpt>
      <trkpt lat="48.19742" lon="-1.45359">
        <ele>76.08</ele>
        <time>2014-02-23T14:02:21Z</time>
      </trkpt>
      <trkpt lat="48.19743" lon="-1.45352">
        <ele>76.08</ele>
        <time>2014-02-23T14:02:22Z</time>
      </trkpt>
      <trkpt lat="48.19764" lon="-1.45216">
        <ele>77.04</ele>
        <time>2014-02-23T14:02:39Z</time>
      </trkpt>
      <trkpt lat="48.19777" lon="-1.45096">
        <ele>73.68</ele>
        <time>2014-02-23T14:02:50Z</time>
      </trkpt>
      <trkpt lat="48.19778" lon="-1.44975">
        <ele>69.83</ele>
        <time>2014-02-23T14:03:00Z</time>
      </trkpt>
      <trkpt lat="48.19762" lon="-1.44883">
        <ele>66.47</ele>
        <time>2014-02-23T14:03:07Z</time>
      </trkpt>
      <trkpt lat="48.19759" lon="-1.44869">
        <ele>65.99</ele>
        <time>2014-02-23T14:03:08Z</time>
      </trkpt>
      <trkpt lat="48.19758" lon="-1.44771">
        <ele>62.62</ele>
        <time>2014-02-23T14:03:15Z</time>
      </trkpt>
      <trkpt lat="48.19781" lon="-1.44629">
        <ele>62.14</ele>
        <time>2014-02-23T14:03:26Z</time>
      </trkpt>
      <trkpt lat="48.1981" lon="-1.4444">
        <ele>60.7</ele>
        <time>2014-02-23T14:03:43Z</time>
      </trkpt>
      <trkpt lat="48.19837" lon="-1.4425">
        <ele>58.3</ele>
        <time>2014-02-23T14:04:00Z</time>
      </trkpt>
      <trkpt lat="48.19837" lon="-1.44217">
        <ele>58.3</ele>
        <time>2014-02-23T14:04:03Z</time>
      </trkpt>
      <trkpt lat="48.19834" lon="-1.44184">
        <ele>58.3</ele>
        <time>2014-02-23T14:04:06Z</time>
      </trkpt>
      <trkpt lat="48.19826" lon="-1.44154">
        <ele>57.82</ele>
        <time>2014-02-23T14:04:09Z</time>
      </trkpt>
      <trkpt lat="48.19767" lon="-1.43984">
        <ele>58.78</ele>
        <time>2014-02-23T14:04:27Z</time>
      </trkpt>
      <trkpt lat="48.19751" lon="-1.43844">
        <ele>61.66</ele>
        <time>2014-02-23T14:04:43Z</time>
      </trkpt>
      <trkpt lat="48.19733" lon="-1.4368">
        <ele>61.18</ele>
        <time>2014-02-23T14:05:01Z</time>
      </trkpt>
      <trkpt lat="48.19728" lon="-1.43633">
        <ele>63.58</ele>
        <time>2014-02-23T14:05:07Z</time>
      </trkpt>
      <trkpt lat="48.19727" lon="-1.43626">
        <ele>63.58</ele>
        <time>2014-02-23T14:05:08Z</time>
      </trkpt>
      <trkpt lat="48.19726" lon="-1.43604">
        <ele>64.07</ele>
        <time>2014-02-23T14:05:11Z</time>
      </trkpt>
      <trkpt lat="48.1972" lon="-1.43564">
        <ele>65.03</ele>
        <time>2014-02-23T14:05:17Z</time>
      </trkpt>
      <trkpt lat="48.1972" lon="-1.43557">
        <ele>65.51</ele>
        <time>2014-02-23T14:05:18Z</time>
      </trkpt>
      <trkpt lat="48.19721" lon="-1.4355">
        <ele>65.51</ele>
        <time>2014-02-23T14:05:19Z</time>
      </trkpt>
      <trkpt lat="48.19721" lon="-1.43501">
        <ele>67.43</ele>
        <time>2014-02-23T14:05:26Z</time>
      </trkpt>
      <trkpt lat="48.19722" lon="-1.4348">
        <ele>67.43</ele>
        <time>2014-02-23T14:05:29Z</time>
      </trkpt>
      <trkpt lat="48.19721" lon="-1.4346">
        <ele>68.87</ele>
        <time>2014-02-23T14:05:32Z</time>
      </trkpt>
      <trkpt lat="48.19721" lon="-1.43453">
        <ele>68.87</ele>
        <time>2014-02-23T14:05:33Z</time>
      </trkpt>
      <trkpt lat="48.19721" lon="-1.43447">
        <ele>68.87</ele>
        <time>2014-02-23T14:05:34Z</time>
      </trkpt>
      <trkpt lat="48.19721" lon="-1.43427">
        <ele>69.35</ele>
        <time>2014-02-23T14:05:37Z</time>
      </trkpt>
      <trkpt lat="48.19724" lon="-1.43401">
        <ele>70.31</ele>
        <time>2014-02-23T14:05:41Z</time>
      </trkpt>
      <trkpt lat="48.19724" lon="-1.43395">
        <ele>70.79</ele>
        <time>2014-02-23T14:05:42Z</time>
      </trkpt>
      <trkpt lat="48.19724" lon="-1.43375">
        <ele>71.76</ele>
        <time>2014-02-23T14:05:45Z</time>
      </trkpt>
      <trkpt lat="48.19724" lon="-1.4335">
        <ele>72.24</ele>
        <time>2014-02-23T14:05:49Z</time>
      </trkpt>
      <trkpt lat="48.19724" lon="-1.43338">
        <ele>72.72</ele>
        <time>2014-02-23T14:05:51Z</time>
      </trkpt>
      <trkpt lat="48.19724" lon="-1.43332">
        <ele>73.2</ele>
        <time>2014-02-23T14:05:52Z</time>
      </trkpt>
      <trkpt lat="48.19723" lon="-1.433">
        <ele>74.16</ele>
        <time>2014-02-23T14:05:57Z</time>
      </trkpt>
      <trkpt lat="48.19724" lon="-1.43287">
        <ele>75.12</ele>
        <time>2014-02-23T14:05:59Z</time>
      </trkpt>
      <trkpt lat="48.1972" lon="-1.43198">
        <ele>78</ele>
        <time>2014-02-23T14:06:13Z</time>
      </trkpt>
      <trkpt lat="48.1972" lon="-1.43186">
        <ele>78.48</ele>
        <time>2014-02-23T14:06:15Z</time>
      </trkpt>
      <trkpt lat="48.1972" lon="-1.4318">
        <ele>78.97</ele>
        <time>2014-02-23T14:06:16Z</time>
      </trkpt>
      <trkpt lat="48.19733" lon="-1.43066">
        <ele>79.93</ele>
        <time>2014-02-23T14:06:31Z</time>
      </trkpt>
      <trkpt lat="48.19728" lon="-1.42928">
        <ele>77.04</ele>
        <time>2014-02-23T14:06:44Z</time>
      </trkpt>
      <trkpt lat="48.19706" lon="-1.42816">
        <ele>74.16</ele>
        <time>2014-02-23T14:06:54Z</time>
      </trkpt>
      <trkpt lat="48.19677" lon="-1.42704">
        <ele>70.79</ele>
        <time>2014-02-23T14:07:04Z</time>
      </trkpt>
      <trkpt lat="48.19669" lon="-1.4268">
        <ele>69.83</ele>
        <time>2014-02-23T14:07:06Z</time>
      </trkpt>
      <trkpt lat="48.19649" lon="-1.42624">
        <ele>66.95</ele>
        <time>2014-02-23T14:07:11Z</time>
      </trkpt>
      <trkpt lat="48.19624" lon="-1.42557">
        <ele>63.58</ele>
        <time>2014-02-23T14:07:17Z</time>
      </trkpt>
      <trkpt lat="48.19609" lon="-1.42493">
        <ele>60.7</ele>
        <time>2014-02-23T14:07:22Z</time>
      </trkpt>
      <trkpt lat="48.19598" lon="-1.42421">
        <ele>59.26</ele>
        <time>2014-02-23T14:07:29Z</time>
      </trkpt>
      <trkpt lat="48.19598" lon="-1.42414">
        <ele>59.26</ele>
        <time>2014-02-23T14:07:30Z</time>
      </trkpt>
      <trkpt lat="48.196" lon="-1.42408">
        <ele>59.26</ele>
        <time>2014-02-23T14:07:31Z</time>
      </trkpt>
      <trkpt lat="48.19603" lon="-1.42403">
        <ele>59.74</ele>
        <time>2014-02-23T14:07:32Z</time>
      </trkpt>
      <trkpt lat="48.19608" lon="-1.42399">
        <ele>59.74</ele>
        <time>2014-02-23T14:07:33Z</time>
      </trkpt>
      <trkpt lat="48.19612" lon="-1.42395">
        <ele>59.74</ele>
        <time>2014-02-23T14:07:34Z</time>
      </trkpt>
      <trkpt lat="48.19646" lon="-1.42358">
        <ele>62.62</ele>
        <time>2014-02-23T14:07:42Z</time>
      </trkpt>
      <trkpt lat="48.19655" lon="-1.42342">
        <ele>63.1</ele>
        <time>2014-02-23T14:07:45Z</time>
      </trkpt>
      <trkpt lat="48.19659" lon="-1.42329">
        <ele>63.58</ele>
        <time>2014-02-23T14:07:47Z</time>
      </trkpt>
      <trkpt lat="48.19661" lon="-1.42321">
        <ele>63.58</ele>
        <time>2014-02-23T14:07:48Z</time>
      </trkpt>
      <trkpt lat="48.19662" lon="-1.42313">
        <ele>63.58</ele>
        <time>2014-02-23T14:07:49Z</time>
      </trkpt>
      <trkpt lat="48.19663" lon="-1.42304">
        <ele>63.1</ele>
        <time>2014-02-23T14:07:50Z</time>
      </trkpt>
      <trkpt lat="48.19663" lon="-1.42294">
        <ele>63.58</ele>
        <time>2014-02-23T14:07:51Z</time>
      </trkpt>
      <trkpt lat="48.19673" lon="-1.42131">
        <ele>63.1</ele>
        <time>2014-02-23T14:08:07Z</time>
      </trkpt>
      <trkpt lat="48.19669" lon="-1.41983">
        <ele>64.55</ele>
        <time>2014-02-23T14:08:22Z</time>
      </trkpt>
      <trkpt lat="48.19663" lon="-1.41867">
        <ele>66.95</ele>
        <time>2014-02-23T14:08:35Z</time>
      </trkpt>
      <trkpt lat="48.19657" lon="-1.41749">
        <ele>69.83</ele>
        <time>2014-02-23T14:08:50Z</time>
      </trkpt>
      <trkpt lat="48.19653" lon="-1.41632">
        <ele>72.24</ele>
        <time>2014-02-23T14:09:05Z</time>
      </trkpt>
      <trkpt lat="48.1965" lon="-1.41496">
        <ele>72.72</ele>
        <time>2014-02-23T14:09:20Z</time>
      </trkpt>
      <trkpt lat="48.19643" lon="-1.41354">
        <ele>71.27</ele>
        <time>2014-02-23T14:09:33Z</time>
      </trkpt>
      <trkpt lat="48.19604" lon="-1.41165">
        <ele>68.39</ele>
        <time>2014-02-23T14:09:50Z</time>
      </trkpt>
      <trkpt lat="48.19577" lon="-1.41047">
        <ele>65.03</ele>
        <time>2014-02-23T14:10:00Z</time>
      </trkpt>
      <trkpt lat="48.19562" lon="-1.40982">
        <ele>62.62</ele>
        <time>2014-02-23T14:10:05Z</time>
      </trkpt>
      <trkpt lat="48.1955" lon="-1.40928">
        <ele>59.26</ele>
        <time>2014-02-23T14:10:09Z</time>
      </trkpt>
      <trkpt lat="48.19513" lon="-1.40766">
        <ele>58.78</ele>
        <time>2014-02-23T14:10:23Z</time>
      </trkpt>
      <trkpt lat="48.19511" lon="-1.40756">
        <ele>58.78</ele>
        <time>2014-02-23T14:10:24Z</time>
      </trkpt>
      <trkpt lat="48.19516" lon="-1.40633">
        <ele>59.26</ele>
        <time>2014-02-23T14:10:36Z</time>
      </trkpt>
      <trkpt lat="48.19549" lon="-1.40511">
        <ele>61.18</ele>
        <time>2014-02-23T14:10:49Z</time>
      </trkpt>
      <trkpt lat="48.19591" lon="-1.40375">
        <ele>62.14</ele>
        <time>2014-02-23T14:11:05Z</time>
      </trkpt>
      <trkpt lat="48.19627" lon="-1.40252">
        <ele>64.55</ele>
        <time>2014-02-23T14:11:20Z</time>
      </trkpt>
      <trkpt lat="48.19653" lon="-1.40113">
        <ele>65.99</ele>
        <time>2014-02-23T14:11:36Z</time>
      </trkpt>
      <trkpt lat="48.19677" lon="-1.39949">
        <ele>68.39</ele>
        <time>2014-02-23T14:11:55Z</time>
      </trkpt>
      <trkpt lat="48.19695" lon="-1.39825">
        <ele>71.76</ele>
        <time>2014-02-23T14:12:10Z</time>
      </trkpt>
      <trkpt lat="48.19695" lon="-1.39817">
        <ele>71.76</ele>
        <time>2014-02-23T14:12:11Z</time>
      </trkpt>
      <trkpt lat="48.19709" lon="-1.39691">
        <ele>74.64</ele>
        <time>2014-02-23T14:12:27Z</time>
      </trkpt>
      <trkpt lat="48.19711" lon="-1.39667">
        <ele>74.64</ele>
        <time>2014-02-23T14:12:30Z</time>
      </trkpt>
      <trkpt lat="48.19725" lon="-1.39524">
        <ele>76.56</ele>
        <time>2014-02-23T14:12:47Z</time>
      </trkpt>
      <trkpt lat="48.19737" lon="-1.39377">
        <ele>78</ele>
        <time>2014-02-23T14:13:04Z</time>
      </trkpt>
      <trkpt lat="48.19719" lon="-1.39242">
        <ele>77.04</ele>
        <time>2014-02-23T14:13:18Z</time>
      </trkpt>
      <trkpt lat="48.19683" lon="-1.3908">
        <ele>74.16</ele>
        <time>2014-02-23T14:13:34Z</time>
      </trkpt>
      <trkpt lat="48.19652" lon="-1.38933">
        <ele>70.79</ele>
        <time>2014-02-23T14:13:47Z</time>
      </trkpt>
      <trkpt lat="48.19611" lon="-1.38758">
        <ele>67.91</ele>
        <time>2014-02-23T14:14:02Z</time>
      </trkpt>
      <trkpt lat="48.19555" lon="-1.38579">
        <ele>67.43</ele>
        <time>2014-02-23T14:14:20Z</time>
      </trkpt>
      <trkpt lat="48.1954" lon="-1.38427">
        <ele>67.91</ele>
        <time>2014-02-23T14:14:36Z</time>
      </trkpt>
      <trkpt lat="48.19539" lon="-1.38368">
        <ele>69.35</ele>
        <time>2014-02-23T14:14:43Z</time>
      </trkpt>
      <trkpt lat="48.19539" lon="-1.3836">
        <ele>69.83</ele>
        <time>2014-02-23T14:14:44Z</time>
      </trkpt>
      <trkpt lat="48.19537" lon="-1.38309">
        <ele>71.76</ele>
        <time>2014-02-23T14:14:51Z</time>
      </trkpt>
      <trkpt lat="48.19534" lon="-1.38244">
        <ele>74.64</ele>
        <time>2014-02-23T14:15:02Z</time>
      </trkpt>
      <trkpt lat="48.19529" lon="-1.38202">
        <ele>77.52</ele>
        <time>2014-02-23T14:15:10Z</time>
      </trkpt>
      <trkpt lat="48.19523" lon="-1.3816">
        <ele>80.89</ele>
        <time>2014-02-23T14:15:18Z</time>
      </trkpt>
      <trkpt lat="48.19503" lon="-1.38104">
        <ele>83.77</ele>
        <time>2014-02-23T14:15:30Z</time>
      </trkpt>
      <trkpt lat="48.19492" lon="-1.38068">
        <ele>85.21</ele>
        <time>2014-02-23T14:15:37Z</time>
      </trkpt>
      <trkpt lat="48.19464" lon="-1.37984">
        <ele>87.62</ele>
        <time>2014-02-23T14:15:51Z</time>
      </trkpt>
      <trkpt lat="48.19413" lon="-1.37874">
        <ele>86.18</ele>
        <time>2014-02-23T14:16:07Z</time>
      </trkpt>
      <trkpt lat="48.19357" lon="-1.3775">
        <ele>83.29</ele>
        <time>2014-02-23T14:16:21Z</time>
      </trkpt>
      <trkpt lat="48.19353" lon="-1.37726">
        <ele>82.81</ele>
        <time>2014-02-23T14:16:23Z</time>
      </trkpt>
      <trkpt lat="48.19345" lon="-1.37626">
        <ele>79.45</ele>
        <time>2014-02-23T14:16:31Z</time>
      </trkpt>
      <trkpt lat="48.19338" lon="-1.37523">
        <ele>76.56</ele>
        <time>2014-02-23T14:16:39Z</time>
      </trkpt>
      <trkpt lat="48.19337" lon="-1.37497">
        <ele>75.6</ele>
        <time>2014-02-23T14:16:41Z</time>
      </trkpt>
      <trkpt lat="48.19334" lon="-1.37459">
        <ele>74.16</ele>
        <time>2014-02-23T14:16:44Z</time>
      </trkpt>
      <trkpt lat="48.19327" lon="-1.37367">
        <ele>70.79</ele>
        <time>2014-02-23T14:16:51Z</time>
      </trkpt>
      <trkpt lat="48.19325" lon="-1.37342">
        <ele>70.31</ele>
        <time>2014-02-23T14:16:53Z</time>
      </trkpt>
      <trkpt lat="48.19315" lon="-1.37201">
        <ele>70.79</ele>
        <time>2014-02-23T14:17:06Z</time>
      </trkpt>
      <trkpt lat="48.19316" lon="-1.37083">
        <ele>71.76</ele>
        <time>2014-02-23T14:17:19Z</time>
      </trkpt>
      <trkpt lat="48.19315" lon="-1.37031">
        <ele>74.16</ele>
        <time>2014-02-23T14:17:26Z</time>
      </trkpt>
      <trkpt lat="48.19314" lon="-1.37024">
        <ele>74.16</ele>
        <time>2014-02-23T14:17:27Z</time>
      </trkpt>
      <trkpt lat="48.19309" lon="-1.37005">
        <ele>74.16</ele>
        <time>2014-02-23T14:17:30Z</time>
      </trkpt>
      <trkpt lat="48.19308" lon="-1.36999">
        <ele>74.16</ele>
        <time>2014-02-23T14:17:31Z</time>
      </trkpt>
      <trkpt lat="48.19303" lon="-1.36983">
        <ele>74.64</ele>
        <time>2014-02-23T14:17:34Z</time>
      </trkpt>
      <trkpt lat="48.19302" lon="-1.36977">
        <ele>75.12</ele>
        <time>2014-02-23T14:17:35Z</time>
      </trkpt>
      <trkpt lat="48.19301" lon="-1.36971">
        <ele>75.6</ele>
        <time>2014-02-23T14:17:36Z</time>
      </trkpt>
      <trkpt lat="48.19301" lon="-1.36965">
        <ele>75.6</ele>
        <time>2014-02-23T14:17:37Z</time>
      </trkpt>
      <trkpt lat="48.19299" lon="-1.36959">
        <ele>76.08</ele>
        <time>2014-02-23T14:17:38Z</time>
      </trkpt>
      <trkpt lat="48.19296" lon="-1.36955">
        <ele>76.56</ele>
        <time>2014-02-23T14:17:39Z</time>
      </trkpt>
      <trkpt lat="48.19291" lon="-1.36952">
        <ele>76.08</ele>
        <time>2014-02-23T14:17:40Z</time>
      </trkpt>
      <trkpt lat="48.19287" lon="-1.36949">
        <ele>76.08</ele>
        <time>2014-02-23T14:17:41Z</time>
      </trkpt>
      <trkpt lat="48.19282" lon="-1.36945">
        <ele>76.08</ele>
        <time>2014-02-23T14:17:42Z</time>
      </trkpt>
      <trkpt lat="48.19278" lon="-1.36941">
        <ele>76.56</ele>
        <time>2014-02-23T14:17:43Z</time>
      </trkpt>
      <trkpt lat="48.19273" lon="-1.36935">
        <ele>76.08</ele>
        <time>2014-02-23T14:17:44Z</time>
      </trkpt>
      <trkpt lat="48.1927" lon="-1.36928">
        <ele>76.08</ele>
        <time>2014-02-23T14:17:45Z</time>
      </trkpt>
      <trkpt lat="48.19267" lon="-1.36919">
        <ele>75.6</ele>
        <time>2014-02-23T14:17:46Z</time>
      </trkpt>
      <trkpt lat="48.19261" lon="-1.369">
        <ele>74.64</ele>
        <time>2014-02-23T14:17:48Z</time>
      </trkpt>
      <trkpt lat="48.19243" lon="-1.36843">
        <ele>71.27</ele>
        <time>2014-02-23T14:17:53Z</time>
      </trkpt>
      <trkpt lat="48.19229" lon="-1.36809">
        <ele>69.83</ele>
        <time>2014-02-23T14:17:56Z</time>
      </trkpt>
      <trkpt lat="48.19174" lon="-1.36678">
        <ele>67.43</ele>
        <time>2014-02-23T14:18:09Z</time>
      </trkpt>
      <trkpt lat="48.19115" lon="-1.36538">
        <ele>67.91</ele>
        <time>2014-02-23T14:18:25Z</time>
      </trkpt>
      <trkpt lat="48.19112" lon="-1.3653">
        <ele>67.91</ele>
        <time>2014-02-23T14:18:26Z</time>
      </trkpt>
      <trkpt lat="48.19053" lon="-1.36387">
        <ele>68.87</ele>
        <time>2014-02-23T14:18:44Z</time>
      </trkpt>
      <trkpt lat="48.19002" lon="-1.36263">
        <ele>71.27</ele>
        <time>2014-02-23T14:19:01Z</time>
      </trkpt>
      <trkpt lat="48.18948" lon="-1.36135">
        <ele>72.72</ele>
        <time>2014-02-23T14:19:19Z</time>
      </trkpt>
      <trkpt lat="48.18904" lon="-1.36029">
        <ele>73.2</ele>
        <time>2014-02-23T14:19:33Z</time>
      </trkpt>
      <trkpt lat="48.18878" lon="-1.35949">
        <ele>70.31</ele>
        <time>2014-02-23T14:19:41Z</time>
      </trkpt>
      <trkpt lat="48.18877" lon="-1.35936">
        <ele>69.83</ele>
        <time>2014-02-23T14:19:42Z</time>
      </trkpt>
      <trkpt lat="48.18876" lon="-1.35924">
        <ele>69.83</ele>
        <time>2014-02-23T14:19:43Z</time>
      </trkpt>
      <trkpt lat="48.18877" lon="-1.35912">
        <ele>69.35</ele>
        <time>2014-02-23T14:19:44Z</time>
      </trkpt>
      <trkpt lat="48.18878" lon="-1.35901">
        <ele>69.35</ele>
        <time>2014-02-23T14:19:45Z</time>
      </trkpt>
      <trkpt lat="48.18899" lon="-1.35766">
        <ele>70.31</ele>
        <time>2014-02-23T14:19:59Z</time>
      </trkpt>
      <trkpt lat="48.18921" lon="-1.35628">
        <ele>71.76</ele>
        <time>2014-02-23T14:20:15Z</time>
      </trkpt>
      <trkpt lat="48.18924" lon="-1.35605">
        <ele>72.24</ele>
        <time>2014-02-23T14:20:18Z</time>
      </trkpt>
      <trkpt lat="48.18925" lon="-1.35581">
        <ele>72.72</ele>
        <time>2014-02-23T14:20:21Z</time>
      </trkpt>
      <trkpt lat="48.18927" lon="-1.35542">
        <ele>73.68</ele>
        <time>2014-02-23T14:20:26Z</time>
      </trkpt>
      <trkpt lat="48.18925" lon="-1.35518">
        <ele>73.68</ele>
        <time>2014-02-23T14:20:29Z</time>
      </trkpt>
      <trkpt lat="48.18914" lon="-1.35421">
        <ele>74.64</ele>
        <time>2014-02-23T14:20:41Z</time>
      </trkpt>
      <trkpt lat="48.18867" lon="-1.35327">
        <ele>75.12</ele>
        <time>2014-02-23T14:20:55Z</time>
      </trkpt>
      <trkpt lat="48.18818" lon="-1.3525">
        <ele>72.24</ele>
        <time>2014-02-23T14:21:06Z</time>
      </trkpt>
      <trkpt lat="48.18815" lon="-1.35242">
        <ele>72.24</ele>
        <time>2014-02-23T14:21:07Z</time>
      </trkpt>
      <trkpt lat="48.18812" lon="-1.35233">
        <ele>72.24</ele>
        <time>2014-02-23T14:21:08Z</time>
      </trkpt>
      <trkpt lat="48.1881" lon="-1.35225">
        <ele>72.24</ele>
        <time>2014-02-23T14:21:09Z</time>
      </trkpt>
      <trkpt lat="48.18808" lon="-1.35216">
        <ele>72.72</ele>
        <time>2014-02-23T14:21:10Z</time>
      </trkpt>
      <trkpt lat="48.18808" lon="-1.35207">
        <ele>72.24</ele>
        <time>2014-02-23T14:21:11Z</time>
      </trkpt>
      <trkpt lat="48.18808" lon="-1.35198">
        <ele>72.24</ele>
        <time>2014-02-23T14:21:12Z</time>
      </trkpt>
      <trkpt lat="48.18808" lon="-1.35188">
        <ele>72.24</ele>
        <time>2014-02-23T14:21:13Z</time>
      </trkpt>
      <trkpt lat="48.1882" lon="-1.35109">
        <ele>73.2</ele>
        <time>2014-02-23T14:21:22Z</time>
      </trkpt>
      <trkpt lat="48.18822" lon="-1.35101">
        <ele>73.68</ele>
        <time>2014-02-23T14:21:23Z</time>
      </trkpt>
      <trkpt lat="48.18824" lon="-1.35093">
        <ele>73.68</ele>
        <time>2014-02-23T14:21:24Z</time>
      </trkpt>
      <trkpt lat="48.18837" lon="-1.35002">
        <ele>76.56</ele>
        <time>2014-02-23T14:21:36Z</time>
      </trkpt>
      <trkpt lat="48.18843" lon="-1.34967">
        <ele>78</ele>
        <time>2014-02-23T14:21:41Z</time>
      </trkpt>
      <trkpt lat="48.18843" lon="-1.3496">
        <ele>78.48</ele>
        <time>2014-02-23T14:21:42Z</time>
      </trkpt>
      <trkpt lat="48.18843" lon="-1.34953">
        <ele>78.48</ele>
        <time>2014-02-23T14:21:43Z</time>
      </trkpt>
      <trkpt lat="48.18843" lon="-1.34927">
        <ele>79.93</ele>
        <time>2014-02-23T14:21:47Z</time>
      </trkpt>
      <trkpt lat="48.18842" lon="-1.34921">
        <ele>79.93</ele>
        <time>2014-02-23T14:21:48Z</time>
      </trkpt>
      <trkpt lat="48.18841" lon="-1.34915">
        <ele>80.41</ele>
        <time>2014-02-23T14:21:49Z</time>
      </trkpt>
      <trkpt lat="48.1884" lon="-1.34909">
        <ele>80.89</ele>
        <time>2014-02-23T14:21:50Z</time>
      </trkpt>
      <trkpt lat="48.18838" lon="-1.34903">
        <ele>81.37</ele>
        <time>2014-02-23T14:21:51Z</time>
      </trkpt>
      <trkpt lat="48.18836" lon="-1.34898">
        <ele>81.37</ele>
        <time>2014-02-23T14:21:52Z</time>
      </trkpt>
      <trkpt lat="48.1883" lon="-1.34877">
        <ele>82.33</ele>
        <time>2014-02-23T14:21:56Z</time>
      </trkpt>
      <trkpt lat="48.18829" lon="-1.34871">
        <ele>82.33</ele>
        <time>2014-02-23T14:21:57Z</time>
      </trkpt>
      <trkpt lat="48.18815" lon="-1.34804">
        <ele>85.69</ele>
        <time>2014-02-23T14:22:09Z</time>
      </trkpt>
      <trkpt lat="48.18808" lon="-1.34782">
        <ele>87.14</ele>
        <time>2014-02-23T14:22:13Z</time>
      </trkpt>
      <trkpt lat="48.18792" lon="-1.34697">
        <ele>89.06</ele>
        <time>2014-02-23T14:22:26Z</time>
      </trkpt>
      <trkpt lat="48.18788" lon="-1.34661">
        <ele>89.54</ele>
        <time>2014-02-23T14:22:31Z</time>
      </trkpt>
      <trkpt lat="48.18773" lon="-1.34528">
        <ele>90.98</ele>
        <time>2014-02-23T14:22:48Z</time>
      </trkpt>
      <trkpt lat="48.18758" lon="-1.34389">
        <ele>93.87</ele>
        <time>2014-02-23T14:23:07Z</time>
      </trkpt>
      <trkpt lat="48.18751" lon="-1.34318">
        <ele>96.27</ele>
        <time>2014-02-23T14:23:18Z</time>
      </trkpt>
      <trkpt lat="48.1875" lon="-1.34313">
        <ele>96.75</ele>
        <time>2014-02-23T14:23:19Z</time>
      </trkpt>
      <trkpt lat="48.18749" lon="-1.34307">
        <ele>96.75</ele>
        <time>2014-02-23T14:23:20Z</time>
      </trkpt>
      <trkpt lat="48.18735" lon="-1.34256">
        <ele>100.11</ele>
        <time>2014-02-23T14:23:30Z</time>
      </trkpt>
      <trkpt lat="48.18727" lon="-1.34219">
        <ele>101.56</ele>
        <time>2014-02-23T14:23:37Z</time>
      </trkpt>
      <trkpt lat="48.18726" lon="-1.34213">
        <ele>101.56</ele>
        <time>2014-02-23T14:23:38Z</time>
      </trkpt>
      <trkpt lat="48.18725" lon="-1.34206">
        <ele>101.56</ele>
        <time>2014-02-23T14:23:39Z</time>
      </trkpt>
      <trkpt lat="48.18724" lon="-1.34199">
        <ele>102.04</ele>
        <time>2014-02-23T14:23:40Z</time>
      </trkpt>
      <trkpt lat="48.18723" lon="-1.34192">
        <ele>102.04</ele>
        <time>2014-02-23T14:23:41Z</time>
      </trkpt>
      <trkpt lat="48.1871" lon="-1.34075">
        <ele>100.6</ele>
        <time>2014-02-23T14:23:54Z</time>
      </trkpt>
      <trkpt lat="48.18709" lon="-1.33954">
        <ele>100.6</ele>
        <time>2014-02-23T14:24:06Z</time>
      </trkpt>
      <trkpt lat="48.18701" lon="-1.33798">
        <ele>101.56</ele>
        <time>2014-02-23T14:24:23Z</time>
      </trkpt>
      <trkpt lat="48.18694" lon="-1.33627">
        <ele>102.52</ele>
        <time>2014-02-23T14:24:42Z</time>
      </trkpt>
      <trkpt lat="48.18687" lon="-1.33466">
        <ele>104.44</ele>
        <time>2014-02-23T14:25:01Z</time>
      </trkpt>
      <trkpt lat="48.1868" lon="-1.33309">
        <ele>105.4</ele>
        <time>2014-02-23T14:25:20Z</time>
      </trkpt>
      <trkpt lat="48.18673" lon="-1.33157">
        <ele>106.36</ele>
        <time>2014-02-23T14:25:38Z</time>
      </trkpt>
      <trkpt lat="48.18668" lon="-1.33026">
        <ele>107.32</ele>
        <time>2014-02-23T14:25:54Z</time>
      </trkpt>
      <trkpt lat="48.1866" lon="-1.32882">
        <ele>108.77</ele>
        <time>2014-02-23T14:26:11Z</time>
      </trkpt>
      <trkpt lat="48.18654" lon="-1.32829">
        <ele>108.77</ele>
        <time>2014-02-23T14:26:17Z</time>
      </trkpt>
      <trkpt lat="48.18627" lon="-1.32709">
        <ele>108.77</ele>
        <time>2014-02-23T14:26:31Z</time>
      </trkpt>
      <trkpt lat="48.18582" lon="-1.32568">
        <ele>105.88</ele>
        <time>2014-02-23T14:26:47Z</time>
      </trkpt>
      <trkpt lat="48.18538" lon="-1.32435">
        <ele>102.52</ele>
        <time>2014-02-23T14:27:01Z</time>
      </trkpt>
      <trkpt lat="48.18488" lon="-1.32275">
        <ele>101.56</ele>
        <time>2014-02-23T14:27:19Z</time>
      </trkpt>
      <trkpt lat="48.18473" lon="-1.32228">
        <ele>102.52</ele>
        <time>2014-02-23T14:27:25Z</time>
      </trkpt>
      <trkpt lat="48.18434" lon="-1.3211">
        <ele>104.44</ele>
        <time>2014-02-23T14:27:41Z</time>
      </trkpt>
      <trkpt lat="48.18398" lon="-1.31992">
        <ele>106.36</ele>
        <time>2014-02-23T14:27:57Z</time>
      </trkpt>
      <trkpt lat="48.18395" lon="-1.31986">
        <ele>106.36</ele>
        <time>2014-02-23T14:27:58Z</time>
      </trkpt>
      <trkpt lat="48.18358" lon="-1.31877">
        <ele>107.32</ele>
        <time>2014-02-23T14:28:13Z</time>
      </trkpt>
      <trkpt lat="48.18346" lon="-1.31842">
        <ele>107.81</ele>
        <time>2014-02-23T14:28:18Z</time>
      </trkpt>
      <trkpt lat="48.18343" lon="-1.31837">
        <ele>107.81</ele>
        <time>2014-02-23T14:28:19Z</time>
      </trkpt>
      <trkpt lat="48.18339" lon="-1.31832">
        <ele>107.81</ele>
        <time>2014-02-23T14:28:20Z</time>
      </trkpt>
      <trkpt lat="48.18334" lon="-1.31828">
        <ele>107.81</ele>
        <time>2014-02-23T14:28:21Z</time>
      </trkpt>
      <trkpt lat="48.18329" lon="-1.31824">
        <ele>108.29</ele>
        <time>2014-02-23T14:28:22Z</time>
      </trkpt>
      <trkpt lat="48.18304" lon="-1.31807">
        <ele>108.29</ele>
        <time>2014-02-23T14:28:27Z</time>
      </trkpt>
      <trkpt lat="48.18276" lon="-1.31801">
        <ele>108.29</ele>
        <time>2014-02-23T14:28:32Z</time>
      </trkpt>
      <trkpt lat="48.18227" lon="-1.318">
        <ele>109.25</ele>
        <time>2014-02-23T14:28:41Z</time>
      </trkpt>
      <trkpt lat="48.18222" lon="-1.31803">
        <ele>109.73</ele>
        <time>2014-02-23T14:28:42Z</time>
      </trkpt>
      <trkpt lat="48.18217" lon="-1.31803">
        <ele>109.73</ele>
        <time>2014-02-23T14:28:43Z</time>
      </trkpt>
      <trkpt lat="48.18155" lon="-1.31789">
        <ele>109.73</ele>
        <time>2014-02-23T14:28:55Z</time>
      </trkpt>
      <trkpt lat="48.18149" lon="-1.31788">
        <ele>109.73</ele>
        <time>2014-02-23T14:28:56Z</time>
      </trkpt>
      <trkpt lat="48.18132" lon="-1.31783">
        <ele>109.25</ele>
        <time>2014-02-23T14:28:59Z</time>
      </trkpt>
      <trkpt lat="48.18106" lon="-1.31767">
        <ele>109.73</ele>
        <time>2014-02-23T14:29:04Z</time>
      </trkpt>
      <trkpt lat="48.18101" lon="-1.31761">
        <ele>109.73</ele>
        <time>2014-02-23T14:29:05Z</time>
      </trkpt>
      <trkpt lat="48.18098" lon="-1.31753">
        <ele>109.25</ele>
        <time>2014-02-23T14:29:06Z</time>
      </trkpt>
      <trkpt lat="48.18095" lon="-1.31745">
        <ele>109.25</ele>
        <time>2014-02-23T14:29:07Z</time>
      </trkpt>
      <trkpt lat="48.18092" lon="-1.31736">
        <ele>108.77</ele>
        <time>2014-02-23T14:29:08Z</time>
      </trkpt>
      <trkpt lat="48.1809" lon="-1.31728">
        <ele>108.29</ele>
        <time>2014-02-23T14:29:09Z</time>
      </trkpt>
      <trkpt lat="48.18049" lon="-1.31578">
        <ele>105.4</ele>
        <time>2014-02-23T14:29:27Z</time>
      </trkpt>
      <trkpt lat="48.18017" lon="-1.31463">
        <ele>102.52</ele>
        <time>2014-02-23T14:29:39Z</time>
      </trkpt>
      <trkpt lat="48.17982" lon="-1.31339">
        <ele>99.15</ele>
        <time>2014-02-23T14:29:51Z</time>
      </trkpt>
      <trkpt lat="48.17979" lon="-1.31329">
        <ele>99.15</ele>
        <time>2014-02-23T14:29:52Z</time>
      </trkpt>
      <trkpt lat="48.17938" lon="-1.31182">
        <ele>97.23</ele>
        <time>2014-02-23T14:30:07Z</time>
      </trkpt>
      <trkpt lat="48.179" lon="-1.31048">
        <ele>97.23</ele>
        <time>2014-02-23T14:30:22Z</time>
      </trkpt>
      <trkpt lat="48.17863" lon="-1.3091">
        <ele>99.63</ele>
        <time>2014-02-23T14:30:40Z</time>
      </trkpt>
      <trkpt lat="48.17824" lon="-1.30771">
        <ele>101.08</ele>
        <time>2014-02-23T14:30:58Z</time>
      </trkpt>
      <trkpt lat="48.17822" lon="-1.30763">
        <ele>101.08</ele>
        <time>2014-02-23T14:30:59Z</time>
      </trkpt>
      <trkpt lat="48.17785" lon="-1.30629">
        <ele>99.63</ele>
        <time>2014-02-23T14:31:14Z</time>
      </trkpt>
      <trkpt lat="48.17782" lon="-1.30619">
        <ele>99.63</ele>
        <time>2014-02-23T14:31:15Z</time>
      </trkpt>
      <trkpt lat="48.17742" lon="-1.30479">
        <ele>96.75</ele>
        <time>2014-02-23T14:31:30Z</time>
      </trkpt>
      <trkpt lat="48.17723" lon="-1.30407">
        <ele>93.39</ele>
        <time>2014-02-23T14:31:37Z</time>
      </trkpt>
      <trkpt lat="48.17698" lon="-1.30321">
        <ele>90.5</ele>
        <time>2014-02-23T14:31:45Z</time>
      </trkpt>
      <trkpt lat="48.17691" lon="-1.30288">
        <ele>90.02</ele>
        <time>2014-02-23T14:31:48Z</time>
      </trkpt>
      <trkpt lat="48.17688" lon="-1.30268">
        <ele>89.54</ele>
        <time>2014-02-23T14:31:50Z</time>
      </trkpt>
      <trkpt lat="48.17686" lon="-1.30258">
        <ele>89.54</ele>
        <time>2014-02-23T14:31:51Z</time>
      </trkpt>
      <trkpt lat="48.17663" lon="-1.30195">
        <ele>89.54</ele>
        <time>2014-02-23T14:31:58Z</time>
      </trkpt>
      <trkpt lat="48.1766" lon="-1.30186">
        <ele>89.54</ele>
        <time>2014-02-23T14:31:59Z</time>
      </trkpt>
      <trkpt lat="48.17657" lon="-1.30176">
        <ele>89.54</ele>
        <time>2014-02-23T14:32:00Z</time>
      </trkpt>
      <trkpt lat="48.17654" lon="-1.30167">
        <ele>89.54</ele>
        <time>2014-02-23T14:32:01Z</time>
      </trkpt>
      <trkpt lat="48.17651" lon="-1.30159">
        <ele>89.06</ele>
        <time>2014-02-23T14:32:02Z</time>
      </trkpt>
      <trkpt lat="48.17639" lon="-1.30114">
        <ele>90.02</ele>
        <time>2014-02-23T14:32:07Z</time>
      </trkpt>
      <trkpt lat="48.176" lon="-1.29975">
        <ele>90.5</ele>
        <time>2014-02-23T14:32:23Z</time>
      </trkpt>
      <trkpt lat="48.1759" lon="-1.29936">
        <ele>91.46</ele>
        <time>2014-02-23T14:32:28Z</time>
      </trkpt>
      <trkpt lat="48.17566" lon="-1.29852">
        <ele>95.31</ele>
        <time>2014-02-23T14:32:40Z</time>
      </trkpt>
      <trkpt lat="48.17565" lon="-1.29845">
        <ele>94.83</ele>
        <time>2014-02-23T14:32:41Z</time>
      </trkpt>
      <trkpt lat="48.17561" lon="-1.29832">
        <ele>95.31</ele>
        <time>2014-02-23T14:32:43Z</time>
      </trkpt>
      <trkpt lat="48.17559" lon="-1.29826">
        <ele>95.79</ele>
        <time>2014-02-23T14:32:44Z</time>
      </trkpt>
      <trkpt lat="48.17539" lon="-1.29756">
        <ele>99.15</ele>
        <time>2014-02-23T14:32:56Z</time>
      </trkpt>
      <trkpt lat="48.17524" lon="-1.29721">
        <ele>100.6</ele>
        <time>2014-02-23T14:33:03Z</time>
      </trkpt>
      <trkpt lat="48.17523" lon="-1.29716">
        <ele>101.08</ele>
        <time>2014-02-23T14:33:04Z</time>
      </trkpt>
      <trkpt lat="48.1752" lon="-1.29711">
        <ele>101.08</ele>
        <time>2014-02-23T14:33:05Z</time>
      </trkpt>
      <trkpt lat="48.17518" lon="-1.29706">
        <ele>101.56</ele>
        <time>2014-02-23T14:33:06Z</time>
      </trkpt>
      <trkpt lat="48.17515" lon="-1.29702">
        <ele>101.56</ele>
        <time>2014-02-23T14:33:07Z</time>
      </trkpt>
      <trkpt lat="48.17513" lon="-1.29698">
        <ele>102.04</ele>
        <time>2014-02-23T14:33:08Z</time>
      </trkpt>
      <trkpt lat="48.17506" lon="-1.29686">
        <ele>103.48</ele>
        <time>2014-02-23T14:33:11Z</time>
      </trkpt>
      <trkpt lat="48.17469" lon="-1.29638">
        <ele>106.84</ele>
        <time>2014-02-23T14:33:24Z</time>
      </trkpt>
      <trkpt lat="48.1743" lon="-1.29598">
        <ele>109.73</ele>
        <time>2014-02-23T14:33:36Z</time>
      </trkpt>
      <trkpt lat="48.17379" lon="-1.29543">
        <ele>110.69</ele>
        <time>2014-02-23T14:33:50Z</time>
      </trkpt>
      <trkpt lat="48.17309" lon="-1.29461">
        <ele>108.29</ele>
        <time>2014-02-23T14:34:05Z</time>
      </trkpt>
      <trkpt lat="48.17256" lon="-1.29399">
        <ele>105.4</ele>
        <time>2014-02-23T14:34:14Z</time>
      </trkpt>
      <trkpt lat="48.17213" lon="-1.29347">
        <ele>102.04</ele>
        <time>2014-02-23T14:34:21Z</time>
      </trkpt>
      <trkpt lat="48.17181" lon="-1.29289">
        <ele>98.67</ele>
        <time>2014-02-23T14:34:27Z</time>
      </trkpt>
      <trkpt lat="48.17166" lon="-1.29258">
        <ele>97.71</ele>
        <time>2014-02-23T14:34:30Z</time>
      </trkpt>
      <trkpt lat="48.17136" lon="-1.29193">
        <ele>94.35</ele>
        <time>2014-02-23T14:34:36Z</time>
      </trkpt>
      <trkpt lat="48.17125" lon="-1.29171">
        <ele>93.39</ele>
        <time>2014-02-23T14:34:38Z</time>
      </trkpt>
      <trkpt lat="48.17079" lon="-1.29073">
        <ele>90.02</ele>
        <time>2014-02-23T14:34:47Z</time>
      </trkpt>
      <trkpt lat="48.17017" lon="-1.28944">
        <ele>89.06</ele>
        <time>2014-02-23T14:35:01Z</time>
      </trkpt>
      <trkpt lat="48.16956" lon="-1.28815">
        <ele>88.58</ele>
        <time>2014-02-23T14:35:16Z</time>
      </trkpt>
      <trkpt lat="48.16887" lon="-1.28671">
        <ele>87.62</ele>
        <time>2014-02-23T14:35:32Z</time>
      </trkpt>
      <trkpt lat="48.16859" lon="-1.28613">
        <ele>88.58</ele>
        <time>2014-02-23T14:35:39Z</time>
      </trkpt>
      <trkpt lat="48.1685" lon="-1.28589">
        <ele>90.02</ele>
        <time>2014-02-23T14:35:42Z</time>
      </trkpt>
      <trkpt lat="48.16846" lon="-1.28582">
        <ele>90.02</ele>
        <time>2014-02-23T14:35:43Z</time>
      </trkpt>
      <trkpt lat="48.16843" lon="-1.28574">
        <ele>90.5</ele>
        <time>2014-02-23T14:35:44Z</time>
      </trkpt>
      <trkpt lat="48.1684" lon="-1.28568">
        <ele>90.5</ele>
        <time>2014-02-23T14:35:45Z</time>
      </trkpt>
      <trkpt lat="48.16837" lon="-1.28562">
        <ele>90.98</ele>
        <time>2014-02-23T14:35:46Z</time>
      </trkpt>
      <trkpt lat="48.16833" lon="-1.28557">
        <ele>90.98</ele>
        <time>2014-02-23T14:35:47Z</time>
      </trkpt>
      <trkpt lat="48.16826" lon="-1.28545">
        <ele>91.46</ele>
        <time>2014-02-23T14:35:49Z</time>
      </trkpt>
      <trkpt lat="48.16795" lon="-1.28478">
        <ele>94.35</ele>
        <time>2014-02-23T14:35:59Z</time>
      </trkpt>
      <trkpt lat="48.16791" lon="-1.28471">
        <ele>94.35</ele>
        <time>2014-02-23T14:36:00Z</time>
      </trkpt>
      <trkpt lat="48.16789" lon="-1.28465">
        <ele>94.35</ele>
        <time>2014-02-23T14:36:01Z</time>
      </trkpt>
      <trkpt lat="48.16765" lon="-1.2842">
        <ele>96.75</ele>
        <time>2014-02-23T14:36:09Z</time>
      </trkpt>
      <trkpt lat="48.16762" lon="-1.28413">
        <ele>96.75</ele>
        <time>2014-02-23T14:36:10Z</time>
      </trkpt>
      <trkpt lat="48.16759" lon="-1.28407">
        <ele>97.23</ele>
        <time>2014-02-23T14:36:11Z</time>
      </trkpt>
      <trkpt lat="48.1675" lon="-1.28389">
        <ele>97.71</ele>
        <time>2014-02-23T14:36:14Z</time>
      </trkpt>
      <trkpt lat="48.16713" lon="-1.28308">
        <ele>100.6</ele>
        <time>2014-02-23T14:36:27Z</time>
      </trkpt>
      <trkpt lat="48.16702" lon="-1.28287">
        <ele>102.04</ele>
        <time>2014-02-23T14:36:31Z</time>
      </trkpt>
      <trkpt lat="48.16686" lon="-1.28252">
        <ele>103.48</ele>
        <time>2014-02-23T14:36:37Z</time>
      </trkpt>
      <trkpt lat="48.1668" lon="-1.28242">
        <ele>103.96</ele>
        <time>2014-02-23T14:36:39Z</time>
      </trkpt>
      <trkpt lat="48.16675" lon="-1.2823">
        <ele>103.96</ele>
        <time>2014-02-23T14:36:41Z</time>
      </trkpt>
      <trkpt lat="48.16642" lon="-1.28158">
        <ele>107.32</ele>
        <time>2014-02-23T14:36:54Z</time>
      </trkpt>
      <trkpt lat="48.16605" lon="-1.28075">
        <ele>110.21</ele>
        <time>2014-02-23T14:37:09Z</time>
      </trkpt>
      <trkpt lat="48.16597" lon="-1.2806">
        <ele>110.69</ele>
        <time>2014-02-23T14:37:12Z</time>
      </trkpt>
      <trkpt lat="48.16592" lon="-1.2805">
        <ele>111.17</ele>
        <time>2014-02-23T14:37:14Z</time>
      </trkpt>
      <trkpt lat="48.16589" lon="-1.28045">
        <ele>111.17</ele>
        <time>2014-02-23T14:37:15Z</time>
      </trkpt>
      <trkpt lat="48.1657" lon="-1.28001">
        <ele>113.09</ele>
        <time>2014-02-23T14:37:23Z</time>
      </trkpt>
      <trkpt lat="48.16559" lon="-1.27975">
        <ele>114.05</ele>
        <time>2014-02-23T14:37:28Z</time>
      </trkpt>
      <trkpt lat="48.16556" lon="-1.2797">
        <ele>114.05</ele>
        <time>2014-02-23T14:37:29Z</time>
      </trkpt>
      <trkpt lat="48.16536" lon="-1.2793">
        <ele>115.5</ele>
        <time>2014-02-23T14:37:37Z</time>
      </trkpt>
      <trkpt lat="48.16513" lon="-1.27885">
        <ele>116.46</ele>
        <time>2014-02-23T14:37:46Z</time>
      </trkpt>
      <trkpt lat="48.1651" lon="-1.27878">
        <ele>116.94</ele>
        <time>2014-02-23T14:37:47Z</time>
      </trkpt>
      <trkpt lat="48.16508" lon="-1.27872">
        <ele>116.94</ele>
        <time>2014-02-23T14:37:48Z</time>
      </trkpt>
      <trkpt lat="48.1647" lon="-1.27788">
        <ele>117.9</ele>
        <time>2014-02-23T14:38:02Z</time>
      </trkpt>
      <trkpt lat="48.16421" lon="-1.27685">
        <ele>118.38</ele>
        <time>2014-02-23T14:38:17Z</time>
      </trkpt>
      <trkpt lat="48.16366" lon="-1.27572">
        <ele>116.46</ele>
        <time>2014-02-23T14:38:31Z</time>
      </trkpt>
      <trkpt lat="48.16357" lon="-1.27552">
        <ele>115.01</ele>
        <time>2014-02-23T14:38:33Z</time>
      </trkpt>
      <trkpt lat="48.16316" lon="-1.27467">
        <ele>111.17</ele>
        <time>2014-02-23T14:38:41Z</time>
      </trkpt>
      <trkpt lat="48.1628" lon="-1.27392">
        <ele>108.29</ele>
        <time>2014-02-23T14:38:48Z</time>
      </trkpt>
      <trkpt lat="48.16259" lon="-1.27348">
        <ele>105.88</ele>
        <time>2014-02-23T14:38:52Z</time>
      </trkpt>
      <trkpt lat="48.16225" lon="-1.27278">
        <ele>103</ele>
        <time>2014-02-23T14:38:58Z</time>
      </trkpt>
      <trkpt lat="48.162" lon="-1.27226">
        <ele>99.15</ele>
        <time>2014-02-23T14:39:02Z</time>
      </trkpt>
      <trkpt lat="48.16175" lon="-1.27174">
        <ele>95.79</ele>
        <time>2014-02-23T14:39:06Z</time>
      </trkpt>
      <trkpt lat="48.16149" lon="-1.27121">
        <ele>92.9</ele>
        <time>2014-02-23T14:39:10Z</time>
      </trkpt>
      <trkpt lat="48.16113" lon="-1.27058">
        <ele>90.02</ele>
        <time>2014-02-23T14:39:15Z</time>
      </trkpt>
      <trkpt lat="48.16085" lon="-1.27013">
        <ele>87.62</ele>
        <time>2014-02-23T14:39:19Z</time>
      </trkpt>
      <trkpt lat="48.1605" lon="-1.26965">
        <ele>86.18</ele>
        <time>2014-02-23T14:39:24Z</time>
      </trkpt>
      <trkpt lat="48.15962" lon="-1.26869">
        <ele>88.58</ele>
        <time>2014-02-23T14:39:39Z</time>
      </trkpt>
      <trkpt lat="48.15909" lon="-1.26818">
        <ele>91.94</ele>
        <time>2014-02-23T14:39:51Z</time>
      </trkpt>
      <trkpt lat="48.15901" lon="-1.26811">
        <ele>92.42</ele>
        <time>2014-02-23T14:39:53Z</time>
      </trkpt>
      <trkpt lat="48.15894" lon="-1.26804">
        <ele>92.42</ele>
        <time>2014-02-23T14:39:55Z</time>
      </trkpt>
      <trkpt lat="48.15891" lon="-1.268">
        <ele>92.9</ele>
        <time>2014-02-23T14:39:56Z</time>
      </trkpt>
      <trkpt lat="48.15864" lon="-1.26772">
        <ele>95.31</ele>
        <time>2014-02-23T14:40:04Z</time>
      </trkpt>
      <trkpt lat="48.15861" lon="-1.26768">
        <ele>95.79</ele>
        <time>2014-02-23T14:40:05Z</time>
      </trkpt>
      <trkpt lat="48.15824" lon="-1.26726">
        <ele>98.67</ele>
        <time>2014-02-23T14:40:17Z</time>
      </trkpt>
      <trkpt lat="48.15783" lon="-1.26687">
        <ele>101.56</ele>
        <time>2014-02-23T14:40:30Z</time>
      </trkpt>
      <trkpt lat="48.1575" lon="-1.26645">
        <ele>104.92</ele>
        <time>2014-02-23T14:40:41Z</time>
      </trkpt>
      <trkpt lat="48.157" lon="-1.26571">
        <ele>106.84</ele>
        <time>2014-02-23T14:40:59Z</time>
      </trkpt>
      <trkpt lat="48.15644" lon="-1.2649">
        <ele>109.25</ele>
        <time>2014-02-23T14:41:18Z</time>
      </trkpt>
      <trkpt lat="48.15566" lon="-1.264">
        <ele>110.69</ele>
        <time>2014-02-23T14:41:40Z</time>
      </trkpt>
      <trkpt lat="48.15487" lon="-1.26329">
        <ele>110.21</ele>
        <time>2014-02-23T14:41:58Z</time>
      </trkpt>
      <trkpt lat="48.15388" lon="-1.26256">
        <ele>107.81</ele>
        <time>2014-02-23T14:42:16Z</time>
      </trkpt>
      <trkpt lat="48.15352" lon="-1.26227">
        <ele>105.88</ele>
        <time>2014-02-23T14:42:22Z</time>
      </trkpt>
      <trkpt lat="48.15298" lon="-1.26175">
        <ele>103</ele>
        <time>2014-02-23T14:42:31Z</time>
      </trkpt>
      <trkpt lat="48.15252" lon="-1.26123">
        <ele>99.63</ele>
        <time>2014-02-23T14:42:38Z</time>
      </trkpt>
      <trkpt lat="48.15212" lon="-1.2607">
        <ele>96.27</ele>
        <time>2014-02-23T14:42:44Z</time>
      </trkpt>
      <trkpt lat="48.15166" lon="-1.26005">
        <ele>92.9</ele>
        <time>2014-02-23T14:42:51Z</time>
      </trkpt>
      <trkpt lat="48.1507" lon="-1.25887">
        <ele>90.98</ele>
        <time>2014-02-23T14:43:07Z</time>
      </trkpt>
      <trkpt lat="48.14974" lon="-1.2579">
        <ele>88.58</ele>
        <time>2014-02-23T14:43:23Z</time>
      </trkpt>
      <trkpt lat="48.14958" lon="-1.25772">
        <ele>87.14</ele>
        <time>2014-02-23T14:43:26Z</time>
      </trkpt>
      <trkpt lat="48.149" lon="-1.25713">
        <ele>84.25</ele>
        <time>2014-02-23T14:43:36Z</time>
      </trkpt>
      <trkpt lat="48.14875" lon="-1.25687">
        <ele>82.33</ele>
        <time>2014-02-23T14:43:40Z</time>
      </trkpt>
      <trkpt lat="48.14817" lon="-1.25627">
        <ele>78.97</ele>
        <time>2014-02-23T14:43:49Z</time>
      </trkpt>
      <trkpt lat="48.14766" lon="-1.25575">
        <ele>75.12</ele>
        <time>2014-02-23T14:43:56Z</time>
      </trkpt>
      <trkpt lat="48.14728" lon="-1.25535">
        <ele>71.76</ele>
        <time>2014-02-23T14:44:01Z</time>
      </trkpt>
      <trkpt lat="48.14705" lon="-1.25512">
        <ele>70.31</ele>
        <time>2014-02-23T14:44:04Z</time>
      </trkpt>
      <trkpt lat="48.14657" lon="-1.25477">
        <ele>66.95</ele>
        <time>2014-02-23T14:44:10Z</time>
      </trkpt>
      <trkpt lat="48.14596" lon="-1.25443">
        <ele>64.07</ele>
        <time>2014-02-23T14:44:17Z</time>
      </trkpt>
      <trkpt lat="48.14489" lon="-1.25365">
        <ele>61.18</ele>
        <time>2014-02-23T14:44:32Z</time>
      </trkpt>
      <trkpt lat="48.14394" lon="-1.25295">
        <ele>61.66</ele>
        <time>2014-02-23T14:44:48Z</time>
      </trkpt>
      <trkpt lat="48.14336" lon="-1.25239">
        <ele>61.66</ele>
        <time>2014-02-23T14:44:59Z</time>
      </trkpt>
      <trkpt lat="48.14276" lon="-1.25131">
        <ele>61.66</ele>
        <time>2014-02-23T14:45:14Z</time>
      </trkpt>
      <trkpt lat="48.14241" lon="-1.25027">
        <ele>62.14</ele>
        <time>2014-02-23T14:45:26Z</time>
      </trkpt>
      <trkpt lat="48.14222" lon="-1.24973">
        <ele>62.62</ele>
        <time>2014-02-23T14:45:33Z</time>
      </trkpt>
      <trkpt lat="48.14187" lon="-1.2487">
        <ele>62.62</ele>
        <time>2014-02-23T14:45:46Z</time>
      </trkpt>
      <trkpt lat="48.14152" lon="-1.24767">
        <ele>62.14</ele>
        <time>2014-02-23T14:45:58Z</time>
      </trkpt>
      <trkpt lat="48.14114" lon="-1.24653">
        <ele>63.1</ele>
        <time>2014-02-23T14:46:12Z</time>
      </trkpt>
      <trkpt lat="48.14094" lon="-1.24588">
        <ele>64.07</ele>
        <time>2014-02-23T14:46:20Z</time>
      </trkpt>
      <trkpt lat="48.1404" lon="-1.24488">
        <ele>65.51</ele>
        <time>2014-02-23T14:46:35Z</time>
      </trkpt>
      <trkpt lat="48.13988" lon="-1.24398">
        <ele>67.91</ele>
        <time>2014-02-23T14:46:49Z</time>
      </trkpt>
      <trkpt lat="48.13979" lon="-1.24376">
        <ele>67.91</ele>
        <time>2014-02-23T14:46:52Z</time>
      </trkpt>
      <trkpt lat="48.1397" lon="-1.24353">
        <ele>68.39</ele>
        <time>2014-02-23T14:46:55Z</time>
      </trkpt>
      <trkpt lat="48.1393" lon="-1.24225">
        <ele>68.87</ele>
        <time>2014-02-23T14:47:10Z</time>
      </trkpt>
      <trkpt lat="48.13878" lon="-1.24113">
        <ele>70.79</ele>
        <time>2014-02-23T14:47:26Z</time>
      </trkpt>
      <trkpt lat="48.13834" lon="-1.24028">
        <ele>74.16</ele>
        <time>2014-02-23T14:47:40Z</time>
      </trkpt>
      <trkpt lat="48.13825" lon="-1.2401">
        <ele>74.64</ele>
        <time>2014-02-23T14:47:43Z</time>
      </trkpt>
      <trkpt lat="48.1377" lon="-1.23903">
        <ele>77.52</ele>
        <time>2014-02-23T14:48:01Z</time>
      </trkpt>
      <trkpt lat="48.13712" lon="-1.23789">
        <ele>79.93</ele>
        <time>2014-02-23T14:48:20Z</time>
      </trkpt>
      <trkpt lat="48.13662" lon="-1.23692">
        <ele>81.85</ele>
        <time>2014-02-23T14:48:35Z</time>
      </trkpt>
      <trkpt lat="48.13615" lon="-1.23598">
        <ele>84.73</ele>
        <time>2014-02-23T14:48:51Z</time>
      </trkpt>
      <trkpt lat="48.13564" lon="-1.2349">
        <ele>87.62</ele>
        <time>2014-02-23T14:49:09Z</time>
      </trkpt>
      <trkpt lat="48.13524" lon="-1.23345">
        <ele>88.58</ele>
        <time>2014-02-23T14:49:28Z</time>
      </trkpt>
      <trkpt lat="48.13491" lon="-1.23222">
        <ele>90.5</ele>
        <time>2014-02-23T14:49:44Z</time>
      </trkpt>
      <trkpt lat="48.13458" lon="-1.23101">
        <ele>92.9</ele>
        <time>2014-02-23T14:50:01Z</time>
      </trkpt>
      <trkpt lat="48.13416" lon="-1.22978">
        <ele>94.83</ele>
        <time>2014-02-23T14:50:19Z</time>
      </trkpt>
      <trkpt lat="48.13377" lon="-1.22888">
        <ele>97.23</ele>
        <time>2014-02-23T14:50:34Z</time>
      </trkpt>
      <trkpt lat="48.13362" lon="-1.22853">
        <ele>97.71</ele>
        <time>2014-02-23T14:50:40Z</time>
      </trkpt>
      <trkpt lat="48.13358" lon="-1.2284">
        <ele>99.15</ele>
        <time>2014-02-23T14:50:42Z</time>
      </trkpt>
      <trkpt lat="48.13355" lon="-1.22834">
        <ele>98.67</ele>
        <time>2014-02-23T14:50:43Z</time>
      </trkpt>
      <trkpt lat="48.13307" lon="-1.22727">
        <ele>101.08</ele>
        <time>2014-02-23T14:51:01Z</time>
      </trkpt>
      <trkpt lat="48.13277" lon="-1.22656">
        <ele>103.48</ele>
        <time>2014-02-23T14:51:13Z</time>
      </trkpt>
      <trkpt lat="48.13274" lon="-1.22652">
        <ele>103.48</ele>
        <time>2014-02-23T14:51:14Z</time>
      </trkpt>
      <trkpt lat="48.13271" lon="-1.22648">
        <ele>103.48</ele>
        <time>2014-02-23T14:51:15Z</time>
      </trkpt>
      <trkpt lat="48.13248" lon="-1.22639">
        <ele>104.92</ele>
        <time>2014-02-23T14:51:23Z</time>
      </trkpt>
      <trkpt lat="48.1324" lon="-1.22634">
        <ele>104.92</ele>
        <time>2014-02-23T14:51:25Z</time>
      </trkpt>
      <trkpt lat="48.13231" lon="-1.22626">
        <ele>105.4</ele>
        <time>2014-02-23T14:51:27Z</time>
      </trkpt>
      <trkpt lat="48.13228" lon="-1.2262">
        <ele>105.4</ele>
        <time>2014-02-23T14:51:28Z</time>
      </trkpt>
      <trkpt lat="48.13225" lon="-1.22614">
        <ele>105.88</ele>
        <time>2014-02-23T14:51:29Z</time>
      </trkpt>
      <trkpt lat="48.13224" lon="-1.22607">
        <ele>105.88</ele>
        <time>2014-02-23T14:51:30Z</time>
      </trkpt>
      <trkpt lat="48.13224" lon="-1.22599">
        <ele>106.36</ele>
        <time>2014-02-23T14:51:31Z</time>
      </trkpt>
      <trkpt lat="48.13224" lon="-1.22592">
        <ele>106.84</ele>
        <time>2014-02-23T14:51:32Z</time>
      </trkpt>
      <trkpt lat="48.13224" lon="-1.22576">
        <ele>106.36</ele>
        <time>2014-02-23T14:51:34Z</time>
      </trkpt>
      <trkpt lat="48.13223" lon="-1.22568">
        <ele>105.88</ele>
        <time>2014-02-23T14:51:35Z</time>
      </trkpt>
      <trkpt lat="48.13221" lon="-1.22561">
        <ele>105.88</ele>
        <time>2014-02-23T14:51:36Z</time>
      </trkpt>
      <trkpt lat="48.13215" lon="-1.2254">
        <ele>106.36</ele>
        <time>2014-02-23T14:51:39Z</time>
      </trkpt>
      <trkpt lat="48.13176" lon="-1.22448">
        <ele>108.29</ele>
        <time>2014-02-23T14:51:54Z</time>
      </trkpt>
      <trkpt lat="48.13144" lon="-1.22346">
        <ele>110.21</ele>
        <time>2014-02-23T14:52:10Z</time>
      </trkpt>
      <trkpt lat="48.13118" lon="-1.22215">
        <ele>111.17</ele>
        <time>2014-02-23T14:52:28Z</time>
      </trkpt>
      <trkpt lat="48.13109" lon="-1.22167">
        <ele>111.17</ele>
        <time>2014-02-23T14:52:34Z</time>
      </trkpt>
      <trkpt lat="48.13085" lon="-1.22047">
        <ele>110.21</ele>
        <time>2014-02-23T14:52:48Z</time>
      </trkpt>
      <trkpt lat="48.13082" lon="-1.22039">
        <ele>110.21</ele>
        <time>2014-02-23T14:52:49Z</time>
      </trkpt>
      <trkpt lat="48.13057" lon="-1.21903">
        <ele>109.25</ele>
        <time>2014-02-23T14:53:04Z</time>
      </trkpt>
      <trkpt lat="48.13028" lon="-1.21766">
        <ele>107.32</ele>
        <time>2014-02-23T14:53:19Z</time>
      </trkpt>
      <trkpt lat="48.12998" lon="-1.21615">
        <ele>104.44</ele>
        <time>2014-02-23T14:53:34Z</time>
      </trkpt>
      <trkpt lat="48.12974" lon="-1.21493">
        <ele>101.08</ele>
        <time>2014-02-23T14:53:45Z</time>
      </trkpt>
      <trkpt lat="48.1297" lon="-1.21472">
        <ele>100.6</ele>
        <time>2014-02-23T14:53:47Z</time>
      </trkpt>
      <trkpt lat="48.12967" lon="-1.21454">
        <ele>100.11</ele>
        <time>2014-02-23T14:53:49Z</time>
      </trkpt>
      <trkpt lat="48.12965" lon="-1.21444">
        <ele>100.11</ele>
        <time>2014-02-23T14:53:50Z</time>
      </trkpt>
      <trkpt lat="48.12946" lon="-1.2135">
        <ele>96.75</ele>
        <time>2014-02-23T14:53:59Z</time>
      </trkpt>
      <trkpt lat="48.12927" lon="-1.2126">
        <ele>93.39</ele>
        <time>2014-02-23T14:54:07Z</time>
      </trkpt>
      <trkpt lat="48.12911" lon="-1.21193">
        <ele>91.46</ele>
        <time>2014-02-23T14:54:13Z</time>
      </trkpt>
      <trkpt lat="48.12907" lon="-1.21183">
        <ele>91.46</ele>
        <time>2014-02-23T14:54:14Z</time>
      </trkpt>
      <trkpt lat="48.12901" lon="-1.21173">
        <ele>90.5</ele>
        <time>2014-02-23T14:54:15Z</time>
      </trkpt>
      <trkpt lat="48.12895" lon="-1.21166">
        <ele>90.02</ele>
        <time>2014-02-23T14:54:16Z</time>
      </trkpt>
      <trkpt lat="48.12888" lon="-1.21159">
        <ele>89.54</ele>
        <time>2014-02-23T14:54:17Z</time>
      </trkpt>
      <trkpt lat="48.1288" lon="-1.21155">
        <ele>89.06</ele>
        <time>2014-02-23T14:54:18Z</time>
      </trkpt>
      <trkpt lat="48.12872" lon="-1.21152">
        <ele>88.58</ele>
        <time>2014-02-23T14:54:19Z</time>
      </trkpt>
      <trkpt lat="48.12864" lon="-1.21151">
        <ele>88.58</ele>
        <time>2014-02-23T14:54:20Z</time>
      </trkpt>
      <trkpt lat="48.12855" lon="-1.21152">
        <ele>88.1</ele>
        <time>2014-02-23T14:54:21Z</time>
      </trkpt>
      <trkpt lat="48.12847" lon="-1.21155">
        <ele>87.62</ele>
        <time>2014-02-23T14:54:22Z</time>
      </trkpt>
      <trkpt lat="48.1284" lon="-1.21161">
        <ele>87.14</ele>
        <time>2014-02-23T14:54:23Z</time>
      </trkpt>
      <trkpt lat="48.12832" lon="-1.21168">
        <ele>86.66</ele>
        <time>2014-02-23T14:54:24Z</time>
      </trkpt>
      <trkpt lat="48.12826" lon="-1.21176">
        <ele>86.18</ele>
        <time>2014-02-23T14:54:25Z</time>
      </trkpt>
      <trkpt lat="48.1282" lon="-1.21185">
        <ele>85.69</ele>
        <time>2014-02-23T14:54:26Z</time>
      </trkpt>
      <trkpt lat="48.12815" lon="-1.21196">
        <ele>85.69</ele>
        <time>2014-02-23T14:54:27Z</time>
      </trkpt>
      <trkpt lat="48.12801" lon="-1.21227">
        <ele>84.25</ele>
        <time>2014-02-23T14:54:30Z</time>
      </trkpt>
      <trkpt lat="48.12772" lon="-1.21295">
        <ele>80.89</ele>
        <time>2014-02-23T14:54:36Z</time>
      </trkpt>
      <trkpt lat="48.12767" lon="-1.21307">
        <ele>80.89</ele>
        <time>2014-02-23T14:54:37Z</time>
      </trkpt>
      <trkpt lat="48.12737" lon="-1.21378">
        <ele>77.04</ele>
        <time>2014-02-23T14:54:43Z</time>
      </trkpt>
      <trkpt lat="48.12732" lon="-1.21389">
        <ele>77.04</ele>
        <time>2014-02-23T14:54:44Z</time>
      </trkpt>
      <trkpt lat="48.12702" lon="-1.21456">
        <ele>73.68</ele>
        <time>2014-02-23T14:54:50Z</time>
      </trkpt>
      <trkpt lat="48.12684" lon="-1.215">
        <ele>72.24</ele>
        <time>2014-02-23T14:54:54Z</time>
      </trkpt>
      <trkpt lat="48.12654" lon="-1.2157">
        <ele>69.35</ele>
        <time>2014-02-23T14:55:00Z</time>
      </trkpt>
      <trkpt lat="48.12631" lon="-1.21624">
        <ele>66.47</ele>
        <time>2014-02-23T14:55:05Z</time>
      </trkpt>
      <trkpt lat="48.12625" lon="-1.21632">
        <ele>66.47</ele>
        <time>2014-02-23T14:55:06Z</time>
      </trkpt>
      <trkpt lat="48.12618" lon="-1.21637">
        <ele>65.99</ele>
        <time>2014-02-23T14:55:07Z</time>
      </trkpt>
      <trkpt lat="48.1261" lon="-1.21636">
        <ele>65.99</ele>
        <time>2014-02-23T14:55:08Z</time>
      </trkpt>
      <trkpt lat="48.12603" lon="-1.21632">
        <ele>65.51</ele>
        <time>2014-02-23T14:55:09Z</time>
      </trkpt>
      <trkpt lat="48.12597" lon="-1.21625">
        <ele>65.99</ele>
        <time>2014-02-23T14:55:10Z</time>
      </trkpt>
      <trkpt lat="48.12585" lon="-1.21613">
        <ele>65.99</ele>
        <time>2014-02-23T14:55:12Z</time>
      </trkpt>
      <trkpt lat="48.12578" lon="-1.21609">
        <ele>66.95</ele>
        <time>2014-02-23T14:55:13Z</time>
      </trkpt>
      <trkpt lat="48.12571" lon="-1.21605">
        <ele>66.47</ele>
        <time>2014-02-23T14:55:14Z</time>
      </trkpt>
      <trkpt lat="48.12564" lon="-1.21603">
        <ele>66.47</ele>
        <time>2014-02-23T14:55:15Z</time>
      </trkpt>
      <trkpt lat="48.12556" lon="-1.21602">
        <ele>66.95</ele>
        <time>2014-02-23T14:55:16Z</time>
      </trkpt>
      <trkpt lat="48.12548" lon="-1.21601">
        <ele>66.95</ele>
        <time>2014-02-23T14:55:17Z</time>
      </trkpt>
      <trkpt lat="48.12541" lon="-1.21602">
        <ele>66.95</ele>
        <time>2014-02-23T14:55:18Z</time>
      </trkpt>
      <trkpt lat="48.12534" lon="-1.21603">
        <ele>66.95</ele>
        <time>2014-02-23T14:55:19Z</time>
      </trkpt>
      <trkpt lat="48.125" lon="-1.21606">
        <ele>67.43</ele>
        <time>2014-02-23T14:55:24Z</time>
      </trkpt>
      <trkpt lat="48.12495" lon="-1.21609">
        <ele>67.43</ele>
        <time>2014-02-23T14:55:25Z</time>
      </trkpt>
      <trkpt lat="48.1249" lon="-1.21615">
        <ele>67.91</ele>
        <time>2014-02-23T14:55:26Z</time>
      </trkpt>
      <trkpt lat="48.1246" lon="-1.21663">
        <ele>69.83</ele>
        <time>2014-02-23T14:55:35Z</time>
      </trkpt>
      <trkpt lat="48.12456" lon="-1.21663">
        <ele>69.83</ele>
        <time>2014-02-23T14:55:36Z</time>
      </trkpt>
      <trkpt lat="48.12421" lon="-1.21656">
        <ele>73.2</ele>
        <time>2014-02-23T14:55:47Z</time>
      </trkpt>
      <trkpt lat="48.1242" lon="-1.21654">
        <ele>73.2</ele>
        <time>2014-02-23T14:56:03Z</time>
      </trkpt>
      <trkpt lat="48.12416" lon="-1.21652">
        <ele>73.2</ele>
        <time>2014-02-23T14:56:08Z</time>
      </trkpt>
      <trkpt lat="48.12412" lon="-1.21651">
        <ele>73.2</ele>
        <time>2014-02-23T14:56:09Z</time>
      </trkpt>
      <trkpt lat="48.12391" lon="-1.21646">
        <ele>74.64</ele>
        <time>2014-02-23T14:56:14Z</time>
      </trkpt>
      <trkpt lat="48.12388" lon="-1.21641">
        <ele>74.64</ele>
        <time>2014-02-23T14:56:15Z</time>
      </trkpt>
      <trkpt lat="48.1235" lon="-1.21559">
        <ele>78</ele>
        <time>2014-02-23T14:56:29Z</time>
      </trkpt>
      <trkpt lat="48.12321" lon="-1.21483">
        <ele>81.37</ele>
        <time>2014-02-23T14:56:42Z</time>
      </trkpt>
      <trkpt lat="48.12312" lon="-1.21393">
        <ele>82.33</ele>
        <time>2014-02-23T14:56:56Z</time>
      </trkpt>
      <trkpt lat="48.12311" lon="-1.21387">
        <ele>82.81</ele>
        <time>2014-02-23T14:56:57Z</time>
      </trkpt>
      <trkpt lat="48.12302" lon="-1.21284">
        <ele>86.18</ele>
        <time>2014-02-23T14:57:14Z</time>
      </trkpt>
      <trkpt lat="48.12303" lon="-1.21253">
        <ele>86.18</ele>
        <time>2014-02-23T14:57:19Z</time>
      </trkpt>
      <trkpt lat="48.12304" lon="-1.21247">
        <ele>86.66</ele>
        <time>2014-02-23T14:57:20Z</time>
      </trkpt>
      <trkpt lat="48.12306" lon="-1.21211">
        <ele>87.62</ele>
        <time>2014-02-23T14:57:26Z</time>
      </trkpt>
      <trkpt lat="48.12306" lon="-1.21205">
        <ele>87.62</ele>
        <time>2014-02-23T14:57:27Z</time>
      </trkpt>
      <trkpt lat="48.12307" lon="-1.21169">
        <ele>88.58</ele>
        <time>2014-02-23T14:57:33Z</time>
      </trkpt>
      <trkpt lat="48.12306" lon="-1.21163">
        <ele>88.58</ele>
        <time>2014-02-23T14:57:34Z</time>
      </trkpt>
      <trkpt lat="48.12306" lon="-1.21157">
        <ele>88.58</ele>
        <time>2014-02-23T14:57:35Z</time>
      </trkpt>
      <trkpt lat="48.12307" lon="-1.2115">
        <ele>88.58</ele>
        <time>2014-02-23T14:57:36Z</time>
      </trkpt>
      <trkpt lat="48.12308" lon="-1.21143">
        <ele>88.58</ele>
        <time>2014-02-23T14:57:37Z</time>
      </trkpt>
      <trkpt lat="48.1231" lon="-1.21123">
        <ele>88.58</ele>
        <time>2014-02-23T14:57:40Z</time>
      </trkpt>
      <trkpt lat="48.12311" lon="-1.21116">
        <ele>89.06</ele>
        <time>2014-02-23T14:57:41Z</time>
      </trkpt>
      <trkpt lat="48.12312" lon="-1.21109">
        <ele>88.58</ele>
        <time>2014-02-23T14:57:42Z</time>
      </trkpt>
      <trkpt lat="48.12311" lon="-1.21062">
        <ele>90.02</ele>
        <time>2014-02-23T14:57:49Z</time>
      </trkpt>
      <trkpt lat="48.12311" lon="-1.21016">
        <ele>91.46</ele>
        <time>2014-02-23T14:57:57Z</time>
      </trkpt>
      <trkpt lat="48.12309" lon="-1.21011">
        <ele>91.46</ele>
        <time>2014-02-23T14:57:58Z</time>
      </trkpt>
      <trkpt lat="48.12281" lon="-1.2098">
        <ele>93.87</ele>
        <time>2014-02-23T14:58:08Z</time>
      </trkpt>
      <trkpt lat="48.12264" lon="-1.20982">
        <ele>93.87</ele>
        <time>2014-02-23T14:58:12Z</time>
      </trkpt>
      <trkpt lat="48.1226" lon="-1.20982">
        <ele>93.87</ele>
        <time>2014-02-23T14:58:13Z</time>
      </trkpt>
      <trkpt lat="48.12233" lon="-1.20981">
        <ele>95.31</ele>
        <time>2014-02-23T14:58:19Z</time>
      </trkpt>
      <trkpt lat="48.12229" lon="-1.20981">
        <ele>95.31</ele>
        <time>2014-02-23T14:58:20Z</time>
      </trkpt>
      <trkpt lat="48.12165" lon="-1.20986">
        <ele>97.71</ele>
        <time>2014-02-23T14:58:36Z</time>
      </trkpt>
      <trkpt lat="48.12154" lon="-1.20987">
        <ele>99.15</ele>
        <time>2014-02-23T14:58:39Z</time>
      </trkpt>
      <trkpt lat="48.12108" lon="-1.20993">
        <ele>100.6</ele>
        <time>2014-02-23T14:58:52Z</time>
      </trkpt>
      <trkpt lat="48.12066" lon="-1.20997">
        <ele>102.52</ele>
        <time>2014-02-23T14:59:04Z</time>
      </trkpt>
      <trkpt lat="48.1205" lon="-1.20999">
        <ele>103</ele>
        <time>2014-02-23T14:59:08Z</time>
      </trkpt>
      <trkpt lat="48.12018" lon="-1.20999">
        <ele>104.44</ele>
        <time>2014-02-23T14:59:15Z</time>
      </trkpt>
      <trkpt lat="48.12013" lon="-1.20999">
        <ele>104.44</ele>
        <time>2014-02-23T14:59:16Z</time>
      </trkpt>
      <trkpt lat="48.11966" lon="-1.21002">
        <ele>104.92</ele>
        <time>2014-02-23T14:59:26Z</time>
      </trkpt>
      <trkpt lat="48.11941" lon="-1.21004">
        <ele>104.92</ele>
        <time>2014-02-23T14:59:31Z</time>
      </trkpt>
      <trkpt lat="48.11905" lon="-1.21005">
        <ele>105.4</ele>
        <time>2014-02-23T14:59:38Z</time>
      </trkpt>
      <trkpt lat="48.11854" lon="-1.2101">
        <ele>105.4</ele>
        <time>2014-02-23T14:59:48Z</time>
      </trkpt>
      <trkpt lat="48.11849" lon="-1.2101">
        <ele>105.88</ele>
        <time>2014-02-23T14:59:49Z</time>
      </trkpt>
      <trkpt lat="48.11843" lon="-1.2101">
        <ele>105.4</ele>
        <time>2014-02-23T14:59:50Z</time>
      </trkpt>
      <trkpt lat="48.11838" lon="-1.2101">
        <ele>105.4</ele>
        <time>2014-02-23T14:59:51Z</time>
      </trkpt>
      <trkpt lat="48.11833" lon="-1.2101">
        <ele>105.4</ele>
        <time>2014-02-23T14:59:52Z</time>
      </trkpt>
      <trkpt lat="48.11827" lon="-1.2101">
        <ele>105.88</ele>
        <time>2014-02-23T14:59:53Z</time>
      </trkpt>
      <trkpt lat="48.11822" lon="-1.2101">
        <ele>105.4</ele>
        <time>2014-02-23T14:59:54Z</time>
      </trkpt>
      <trkpt lat="48.11817" lon="-1.21011">
        <ele>105.88</ele>
        <time>2014-02-23T14:59:55Z</time>
      </trkpt>
      <trkpt lat="48.11812" lon="-1.21012">
        <ele>105.4</ele>
        <time>2014-02-23T14:59:56Z</time>
      </trkpt>
      <trkpt lat="48.11807" lon="-1.21012">
        <ele>105.88</ele>
        <time>2014-02-23T14:59:57Z</time>
      </trkpt>
      <trkpt lat="48.11801" lon="-1.21012">
        <ele>105.88</ele>
        <time>2014-02-23T14:59:58Z</time>
      </trkpt>
      <trkpt lat="48.11796" lon="-1.21013">
        <ele>105.88</ele>
        <time>2014-02-23T14:59:59Z</time>
      </trkpt>
      <trkpt lat="48.1179" lon="-1.21014">
        <ele>105.88</ele>
        <time>2014-02-23T15:00:00Z</time>
      </trkpt>
      <trkpt lat="48.11784" lon="-1.21015">
        <ele>105.88</ele>
        <time>2014-02-23T15:00:01Z</time>
      </trkpt>
      <trkpt lat="48.11695" lon="-1.21023">
        <ele>106.36</ele>
        <time>2014-02-23T15:00:17Z</time>
      </trkpt>
      <trkpt lat="48.11605" lon="-1.21028">
        <ele>108.29</ele>
        <time>2014-02-23T15:00:34Z</time>
      </trkpt>
      <trkpt lat="48.11522" lon="-1.21034">
        <ele>110.21</ele>
        <time>2014-02-23T15:00:51Z</time>
      </trkpt>
      <trkpt lat="48.11517" lon="-1.21034">
        <ele>110.69</ele>
        <time>2014-02-23T15:00:52Z</time>
      </trkpt>
      <trkpt lat="48.11438" lon="-1.21041">
        <ele>112.61</ele>
        <time>2014-02-23T15:01:09Z</time>
      </trkpt>
      <trkpt lat="48.11434" lon="-1.21042">
        <ele>113.09</ele>
        <time>2014-02-23T15:01:10Z</time>
      </trkpt>
      <trkpt lat="48.11429" lon="-1.21043">
        <ele>113.57</ele>
        <time>2014-02-23T15:01:11Z</time>
      </trkpt>
      <trkpt lat="48.11425" lon="-1.21044">
        <ele>113.09</ele>
        <time>2014-02-23T15:01:12Z</time>
      </trkpt>
      <trkpt lat="48.11366" lon="-1.21038">
        <ele>114.53</ele>
        <time>2014-02-23T15:01:25Z</time>
      </trkpt>
      <trkpt lat="48.1133" lon="-1.21025">
        <ele>115.01</ele>
        <time>2014-02-23T15:01:33Z</time>
      </trkpt>
      <trkpt lat="48.11326" lon="-1.21025">
        <ele>115.5</ele>
        <time>2014-02-23T15:01:34Z</time>
      </trkpt>
      <trkpt lat="48.11321" lon="-1.21026">
        <ele>115.5</ele>
        <time>2014-02-23T15:01:35Z</time>
      </trkpt>
      <trkpt lat="48.11317" lon="-1.21028">
        <ele>115.5</ele>
        <time>2014-02-23T15:01:36Z</time>
      </trkpt>
      <trkpt lat="48.11312" lon="-1.2103">
        <ele>115.5</ele>
        <time>2014-02-23T15:01:37Z</time>
      </trkpt>
      <trkpt lat="48.11308" lon="-1.21033">
        <ele>115.98</ele>
        <time>2014-02-23T15:01:38Z</time>
      </trkpt>
      <trkpt lat="48.11304" lon="-1.21037">
        <ele>115.98</ele>
        <time>2014-02-23T15:01:39Z</time>
      </trkpt>
      <trkpt lat="48.11301" lon="-1.21041">
        <ele>116.94</ele>
        <time>2014-02-23T15:01:40Z</time>
      </trkpt>
      <trkpt lat="48.11297" lon="-1.21046">
        <ele>116.46</ele>
        <time>2014-02-23T15:01:41Z</time>
      </trkpt>
      <trkpt lat="48.1125" lon="-1.21118">
        <ele>116.94</ele>
        <time>2014-02-23T15:01:55Z</time>
      </trkpt>
      <trkpt lat="48.11232" lon="-1.21146">
        <ele>117.9</ele>
        <time>2014-02-23T15:02:00Z</time>
      </trkpt>
      <trkpt lat="48.11228" lon="-1.21152">
        <ele>117.42</ele>
        <time>2014-02-23T15:02:01Z</time>
      </trkpt>
      <trkpt lat="48.11224" lon="-1.21158">
        <ele>117.42</ele>
        <time>2014-02-23T15:02:02Z</time>
      </trkpt>
      <trkpt lat="48.1122" lon="-1.21163">
        <ele>117.9</ele>
        <time>2014-02-23T15:02:03Z</time>
      </trkpt>
      <trkpt lat="48.11216" lon="-1.2117">
        <ele>117.42</ele>
        <time>2014-02-23T15:02:04Z</time>
      </trkpt>
      <trkpt lat="48.11155" lon="-1.21266">
        <ele>116.94</ele>
        <time>2014-02-23T15:02:20Z</time>
      </trkpt>
      <trkpt lat="48.11148" lon="-1.2128">
        <ele>116.94</ele>
        <time>2014-02-23T15:02:22Z</time>
      </trkpt>
      <trkpt lat="48.11144" lon="-1.21286">
        <ele>116.94</ele>
        <time>2014-02-23T15:02:23Z</time>
      </trkpt>
      <trkpt lat="48.11076" lon="-1.21385">
        <ele>115.01</ele>
        <time>2014-02-23T15:02:39Z</time>
      </trkpt>
      <trkpt lat="48.11064" lon="-1.21404">
        <ele>115.5</ele>
        <time>2014-02-23T15:02:42Z</time>
      </trkpt>
      <trkpt lat="48.11062" lon="-1.21413">
        <ele>115.98</ele>
        <time>2014-02-23T15:02:43Z</time>
      </trkpt>
      <trkpt lat="48.11061" lon="-1.21422">
        <ele>115.01</ele>
        <time>2014-02-23T15:02:44Z</time>
      </trkpt>
      <trkpt lat="48.11062" lon="-1.21431">
        <ele>115.01</ele>
        <time>2014-02-23T15:02:45Z</time>
      </trkpt>
      <trkpt lat="48.11063" lon="-1.21441">
        <ele>115.01</ele>
        <time>2014-02-23T15:02:46Z</time>
      </trkpt>
      <trkpt lat="48.11062" lon="-1.21451">
        <ele>115.01</ele>
        <time>2014-02-23T15:02:47Z</time>
      </trkpt>
      <trkpt lat="48.1106" lon="-1.2146">
        <ele>115.01</ele>
        <time>2014-02-23T15:02:48Z</time>
      </trkpt>
      <trkpt lat="48.11057" lon="-1.21468">
        <ele>115.01</ele>
        <time>2014-02-23T15:02:49Z</time>
      </trkpt>
      <trkpt lat="48.11052" lon="-1.21475">
        <ele>115.01</ele>
        <time>2014-02-23T15:02:50Z</time>
      </trkpt>
      <trkpt lat="48.11046" lon="-1.21479">
        <ele>114.53</ele>
        <time>2014-02-23T15:02:51Z</time>
      </trkpt>
      <trkpt lat="48.1104" lon="-1.21481">
        <ele>114.53</ele>
        <time>2014-02-23T15:02:52Z</time>
      </trkpt>
      <trkpt lat="48.11033" lon="-1.21481">
        <ele>114.05</ele>
        <time>2014-02-23T15:02:53Z</time>
      </trkpt>
      <trkpt lat="48.11027" lon="-1.21479">
        <ele>114.53</ele>
        <time>2014-02-23T15:02:54Z</time>
      </trkpt>
      <trkpt lat="48.11022" lon="-1.21475">
        <ele>114.05</ele>
        <time>2014-02-23T15:02:55Z</time>
      </trkpt>
      <trkpt lat="48.11017" lon="-1.21469">
        <ele>114.05</ele>
        <time>2014-02-23T15:02:56Z</time>
      </trkpt>
      <trkpt lat="48.11013" lon="-1.21462">
        <ele>114.53</ele>
        <time>2014-02-23T15:02:57Z</time>
      </trkpt>
      <trkpt lat="48.11009" lon="-1.21454">
        <ele>114.53</ele>
        <time>2014-02-23T15:02:58Z</time>
      </trkpt>
      <trkpt lat="48.11006" lon="-1.21447">
        <ele>114.53</ele>
        <time>2014-02-23T15:02:59Z</time>
      </trkpt>
      <trkpt lat="48.11001" lon="-1.21441">
        <ele>114.05</ele>
        <time>2014-02-23T15:03:00Z</time>
      </trkpt>
      <trkpt lat="48.10996" lon="-1.21437">
        <ele>114.05</ele>
        <time>2014-02-23T15:03:01Z</time>
      </trkpt>
      <trkpt lat="48.10989" lon="-1.21435">
        <ele>113.57</ele>
        <time>2014-02-23T15:03:02Z</time>
      </trkpt>
      <trkpt lat="48.10983" lon="-1.21434">
        <ele>113.09</ele>
        <time>2014-02-23T15:03:03Z</time>
      </trkpt>
      <trkpt lat="48.10977" lon="-1.21434">
        <ele>113.09</ele>
        <time>2014-02-23T15:03:04Z</time>
      </trkpt>
      <trkpt lat="48.10958" lon="-1.21435">
        <ele>112.61</ele>
        <time>2014-02-23T15:03:07Z</time>
      </trkpt>
      <trkpt lat="48.10901" lon="-1.21453">
        <ele>111.65</ele>
        <time>2014-02-23T15:03:19Z</time>
      </trkpt>
      <trkpt lat="48.10897" lon="-1.21457">
        <ele>111.17</ele>
        <time>2014-02-23T15:03:20Z</time>
      </trkpt>
      <trkpt lat="48.10891" lon="-1.2146">
        <ele>110.69</ele>
        <time>2014-02-23T15:03:21Z</time>
      </trkpt>
      <trkpt lat="48.10886" lon="-1.2146">
        <ele>111.17</ele>
        <time>2014-02-23T15:03:22Z</time>
      </trkpt>
      <trkpt lat="48.1088" lon="-1.2146">
        <ele>111.17</ele>
        <time>2014-02-23T15:03:23Z</time>
      </trkpt>
      <trkpt lat="48.10873" lon="-1.21459">
        <ele>110.69</ele>
        <time>2014-02-23T15:03:24Z</time>
      </trkpt>
      <trkpt lat="48.10867" lon="-1.2146">
        <ele>110.69</ele>
        <time>2014-02-23T15:03:25Z</time>
      </trkpt>
      <trkpt lat="48.10763" lon="-1.21512">
        <ele>107.81</ele>
        <time>2014-02-23T15:03:40Z</time>
      </trkpt>
      <trkpt lat="48.10654" lon="-1.21578">
        <ele>104.44</ele>
        <time>2014-02-23T15:03:55Z</time>
      </trkpt>
      <trkpt lat="48.10564" lon="-1.21668">
        <ele>103</ele>
        <time>2014-02-23T15:04:10Z</time>
      </trkpt>
      <trkpt lat="48.10463" lon="-1.21757">
        <ele>100.6</ele>
        <time>2014-02-23T15:04:25Z</time>
      </trkpt>
      <trkpt lat="48.10368" lon="-1.21772">
        <ele>101.56</ele>
        <time>2014-02-23T15:04:39Z</time>
      </trkpt>
      <trkpt lat="48.10286" lon="-1.21774">
        <ele>103</ele>
        <time>2014-02-23T15:04:53Z</time>
      </trkpt>
      <trkpt lat="48.10226" lon="-1.21801">
        <ele>105.4</ele>
        <time>2014-02-23T15:05:05Z</time>
      </trkpt>
      <trkpt lat="48.10181" lon="-1.21824">
        <ele>107.81</ele>
        <time>2014-02-23T15:05:16Z</time>
      </trkpt>
      <trkpt lat="48.10137" lon="-1.21848">
        <ele>110.21</ele>
        <time>2014-02-23T15:05:27Z</time>
      </trkpt>
      <trkpt lat="48.1006" lon="-1.2189">
        <ele>111.65</ele>
        <time>2014-02-23T15:05:45Z</time>
      </trkpt>
      <trkpt lat="48.09982" lon="-1.21943">
        <ele>109.73</ele>
        <time>2014-02-23T15:06:00Z</time>
      </trkpt>
      <trkpt lat="48.09912" lon="-1.21998">
        <ele>106.36</ele>
        <time>2014-02-23T15:06:11Z</time>
      </trkpt>
      <trkpt lat="48.09876" lon="-1.22027">
        <ele>103.48</ele>
        <time>2014-02-23T15:06:16Z</time>
      </trkpt>
      <trkpt lat="48.09847" lon="-1.22051">
        <ele>100.6</ele>
        <time>2014-02-23T15:06:20Z</time>
      </trkpt>
      <trkpt lat="48.098" lon="-1.22087">
        <ele>97.23</ele>
        <time>2014-02-23T15:06:26Z</time>
      </trkpt>
      <trkpt lat="48.0972" lon="-1.22149">
        <ele>96.75</ele>
        <time>2014-02-23T15:06:38Z</time>
      </trkpt>
      <trkpt lat="48.09668" lon="-1.22189">
        <ele>93.87</ele>
        <time>2014-02-23T15:06:46Z</time>
      </trkpt>
      <trkpt lat="48.09628" lon="-1.22219">
        <ele>90.02</ele>
        <time>2014-02-23T15:06:51Z</time>
      </trkpt>
      <trkpt lat="48.09588" lon="-1.22256">
        <ele>86.66</ele>
        <time>2014-02-23T15:06:56Z</time>
      </trkpt>
      <trkpt lat="48.09556" lon="-1.2229">
        <ele>83.77</ele>
        <time>2014-02-23T15:07:00Z</time>
      </trkpt>
      <trkpt lat="48.09517" lon="-1.22334">
        <ele>80.41</ele>
        <time>2014-02-23T15:07:05Z</time>
      </trkpt>
      <trkpt lat="48.0944" lon="-1.22418">
        <ele>77.04</ele>
        <time>2014-02-23T15:07:16Z</time>
      </trkpt>
      <trkpt lat="48.09374" lon="-1.2249">
        <ele>74.16</ele>
        <time>2014-02-23T15:07:26Z</time>
      </trkpt>
      <trkpt lat="48.09345" lon="-1.22524">
        <ele>70.31</ele>
        <time>2014-02-23T15:07:30Z</time>
      </trkpt>
      <trkpt lat="48.09304" lon="-1.22564">
        <ele>67.43</ele>
        <time>2014-02-23T15:07:35Z</time>
      </trkpt>
      <trkpt lat="48.09243" lon="-1.22606">
        <ele>63.58</ele>
        <time>2014-02-23T15:07:42Z</time>
      </trkpt>
      <trkpt lat="48.09207" lon="-1.22626">
        <ele>62.14</ele>
        <time>2014-02-23T15:07:46Z</time>
      </trkpt>
      <trkpt lat="48.09173" lon="-1.22646">
        <ele>59.74</ele>
        <time>2014-02-23T15:07:50Z</time>
      </trkpt>
      <trkpt lat="48.09072" lon="-1.22703">
        <ele>58.78</ele>
        <time>2014-02-23T15:08:04Z</time>
      </trkpt>
      <trkpt lat="48.08977" lon="-1.22751">
        <ele>58.78</ele>
        <time>2014-02-23T15:08:19Z</time>
      </trkpt>
      <trkpt lat="48.08935" lon="-1.22804">
        <ele>62.14</ele>
        <time>2014-02-23T15:08:29Z</time>
      </trkpt>
      <trkpt lat="48.08931" lon="-1.22808">
        <ele>62.14</ele>
        <time>2014-02-23T15:08:30Z</time>
      </trkpt>
      <trkpt lat="48.08921" lon="-1.22821">
        <ele>63.1</ele>
        <time>2014-02-23T15:08:33Z</time>
      </trkpt>
      <trkpt lat="48.08891" lon="-1.22857">
        <ele>66.47</ele>
        <time>2014-02-23T15:08:43Z</time>
      </trkpt>
      <trkpt lat="48.08854" lon="-1.22888">
        <ele>68.87</ele>
        <time>2014-02-23T15:08:54Z</time>
      </trkpt>
      <trkpt lat="48.0881" lon="-1.22903">
        <ele>70.79</ele>
        <time>2014-02-23T15:09:05Z</time>
      </trkpt>
      <trkpt lat="48.08752" lon="-1.22917">
        <ele>72.24</ele>
        <time>2014-02-23T15:09:18Z</time>
      </trkpt>
      <trkpt lat="48.08718" lon="-1.22915">
        <ele>73.68</ele>
        <time>2014-02-23T15:09:26Z</time>
      </trkpt>
      <trkpt lat="48.08714" lon="-1.22913">
        <ele>73.68</ele>
        <time>2014-02-23T15:09:27Z</time>
      </trkpt>
      <trkpt lat="48.08709" lon="-1.22911">
        <ele>73.68</ele>
        <time>2014-02-23T15:09:28Z</time>
      </trkpt>
      <trkpt lat="48.08666" lon="-1.22894">
        <ele>75.12</ele>
        <time>2014-02-23T15:09:38Z</time>
      </trkpt>
      <trkpt lat="48.086" lon="-1.22894">
        <ele>78.48</ele>
        <time>2014-02-23T15:09:55Z</time>
      </trkpt>
      <trkpt lat="48.08559" lon="-1.22917">
        <ele>81.37</ele>
        <time>2014-02-23T15:10:07Z</time>
      </trkpt>
      <trkpt lat="48.08511" lon="-1.22944">
        <ele>84.25</ele>
        <time>2014-02-23T15:10:22Z</time>
      </trkpt>
      <trkpt lat="48.08462" lon="-1.22967">
        <ele>86.66</ele>
        <time>2014-02-23T15:10:36Z</time>
      </trkpt>
      <trkpt lat="48.08401" lon="-1.22996">
        <ele>90.02</ele>
        <time>2014-02-23T15:10:54Z</time>
      </trkpt>
      <trkpt lat="48.0834" lon="-1.23011">
        <ele>91.46</ele>
        <time>2014-02-23T15:11:10Z</time>
      </trkpt>
      <trkpt lat="48.08271" lon="-1.23042">
        <ele>91.94</ele>
        <time>2014-02-23T15:11:27Z</time>
      </trkpt>
      <trkpt lat="48.0821" lon="-1.23094">
        <ele>92.9</ele>
        <time>2014-02-23T15:11:43Z</time>
      </trkpt>
      <trkpt lat="48.08199" lon="-1.23105">
        <ele>92.9</ele>
        <time>2014-02-23T15:11:46Z</time>
      </trkpt>
      <trkpt lat="48.08195" lon="-1.23109">
        <ele>93.39</ele>
        <time>2014-02-23T15:11:47Z</time>
      </trkpt>
      <trkpt lat="48.08191" lon="-1.23112">
        <ele>92.9</ele>
        <time>2014-02-23T15:11:48Z</time>
      </trkpt>
      <trkpt lat="48.08187" lon="-1.23116">
        <ele>92.9</ele>
        <time>2014-02-23T15:11:49Z</time>
      </trkpt>
      <trkpt lat="48.08184" lon="-1.23119">
        <ele>93.39</ele>
        <time>2014-02-23T15:11:50Z</time>
      </trkpt>
      <trkpt lat="48.08169" lon="-1.23133">
        <ele>93.87</ele>
        <time>2014-02-23T15:11:54Z</time>
      </trkpt>
      <trkpt lat="48.08165" lon="-1.23136">
        <ele>94.35</ele>
        <time>2014-02-23T15:11:55Z</time>
      </trkpt>
      <trkpt lat="48.08117" lon="-1.23179">
        <ele>96.75</ele>
        <time>2014-02-23T15:12:09Z</time>
      </trkpt>
      <trkpt lat="48.08059" lon="-1.23228">
        <ele>99.63</ele>
        <time>2014-02-23T15:12:26Z</time>
      </trkpt>
      <trkpt lat="48.08045" lon="-1.2324">
        <ele>100.6</ele>
        <time>2014-02-23T15:12:30Z</time>
      </trkpt>
      <trkpt lat="48.08014" lon="-1.23275">
        <ele>101.56</ele>
        <time>2014-02-23T15:12:39Z</time>
      </trkpt>
      <trkpt lat="48.08011" lon="-1.23279">
        <ele>101.56</ele>
        <time>2014-02-23T15:12:40Z</time>
      </trkpt>
      <trkpt lat="48.0796" lon="-1.23343">
        <ele>103.96</ele>
        <time>2014-02-23T15:12:55Z</time>
      </trkpt>
      <trkpt lat="48.07956" lon="-1.23347">
        <ele>103.96</ele>
        <time>2014-02-23T15:12:56Z</time>
      </trkpt>
      <trkpt lat="48.07952" lon="-1.23351">
        <ele>103.96</ele>
        <time>2014-02-23T15:12:57Z</time>
      </trkpt>
      <trkpt lat="48.07948" lon="-1.23355">
        <ele>103.48</ele>
        <time>2014-02-23T15:12:58Z</time>
      </trkpt>
      <trkpt lat="48.07945" lon="-1.23359">
        <ele>103.96</ele>
        <time>2014-02-23T15:12:59Z</time>
      </trkpt>
      <trkpt lat="48.07867" lon="-1.23423">
        <ele>103</ele>
        <time>2014-02-23T15:13:15Z</time>
      </trkpt>
      <trkpt lat="48.07761" lon="-1.23506">
        <ele>100.6</ele>
        <time>2014-02-23T15:13:34Z</time>
      </trkpt>
      <trkpt lat="48.07672" lon="-1.23606">
        <ele>98.19</ele>
        <time>2014-02-23T15:13:50Z</time>
      </trkpt>
      <trkpt lat="48.07571" lon="-1.23724">
        <ele>96.27</ele>
        <time>2014-02-23T15:14:09Z</time>
      </trkpt>
      <trkpt lat="48.07475" lon="-1.23838">
        <ele>94.83</ele>
        <time>2014-02-23T15:14:28Z</time>
      </trkpt>
      <trkpt lat="48.07372" lon="-1.23958">
        <ele>94.83</ele>
        <time>2014-02-23T15:14:48Z</time>
      </trkpt>
      <trkpt lat="48.07295" lon="-1.24035">
        <ele>96.75</ele>
        <time>2014-02-23T15:15:05Z</time>
      </trkpt>
      <trkpt lat="48.07208" lon="-1.2411">
        <ele>94.35</ele>
        <time>2014-02-23T15:15:21Z</time>
      </trkpt>
      <trkpt lat="48.07158" lon="-1.24154">
        <ele>90.98</ele>
        <time>2014-02-23T15:15:29Z</time>
      </trkpt>
      <trkpt lat="48.07151" lon="-1.2416">
        <ele>90.98</ele>
        <time>2014-02-23T15:15:30Z</time>
      </trkpt>
      <trkpt lat="48.07118" lon="-1.24192">
        <ele>87.62</ele>
        <time>2014-02-23T15:15:35Z</time>
      </trkpt>
      <trkpt lat="48.07105" lon="-1.24206">
        <ele>87.14</ele>
        <time>2014-02-23T15:15:37Z</time>
      </trkpt>
      <trkpt lat="48.07035" lon="-1.24311">
        <ele>85.69</ele>
        <time>2014-02-23T15:15:51Z</time>
      </trkpt>
      <trkpt lat="48.06975" lon="-1.24396">
        <ele>88.1</ele>
        <time>2014-02-23T15:16:06Z</time>
      </trkpt>
      <trkpt lat="48.06912" lon="-1.24454">
        <ele>90.02</ele>
        <time>2014-02-23T15:16:20Z</time>
      </trkpt>
      <trkpt lat="48.06836" lon="-1.24522">
        <ele>91.94</ele>
        <time>2014-02-23T15:16:37Z</time>
      </trkpt>
      <trkpt lat="48.06812" lon="-1.24542">
        <ele>92.9</ele>
        <time>2014-02-23T15:16:43Z</time>
      </trkpt>
      <trkpt lat="48.06807" lon="-1.24544">
        <ele>92.9</ele>
        <time>2014-02-23T15:16:44Z</time>
      </trkpt>
      <trkpt lat="48.06803" lon="-1.24543">
        <ele>93.87</ele>
        <time>2014-02-23T15:16:45Z</time>
      </trkpt>
      <trkpt lat="48.068" lon="-1.2454">
        <ele>93.87</ele>
        <time>2014-02-23T15:16:46Z</time>
      </trkpt>
      <trkpt lat="48.06797" lon="-1.24535">
        <ele>93.87</ele>
        <time>2014-02-23T15:16:47Z</time>
      </trkpt>
      <trkpt lat="48.06795" lon="-1.24528">
        <ele>93.87</ele>
        <time>2014-02-23T15:16:48Z</time>
      </trkpt>
      <trkpt lat="48.06793" lon="-1.24521">
        <ele>93.87</ele>
        <time>2014-02-23T15:16:49Z</time>
      </trkpt>
      <trkpt lat="48.06792" lon="-1.24513">
        <ele>93.87</ele>
        <time>2014-02-23T15:16:50Z</time>
      </trkpt>
      <trkpt lat="48.06772" lon="-1.24386">
        <ele>92.42</ele>
        <time>2014-02-23T15:17:04Z</time>
      </trkpt>
      <trkpt lat="48.06755" lon="-1.24224">
        <ele>90.02</ele>
        <time>2014-02-23T15:17:19Z</time>
      </trkpt>
      <trkpt lat="48.06725" lon="-1.24053">
        <ele>88.58</ele>
        <time>2014-02-23T15:17:36Z</time>
      </trkpt>
      <trkpt lat="48.06691" lon="-1.23883">
        <ele>88.58</ele>
        <time>2014-02-23T15:17:54Z</time>
      </trkpt>
      <trkpt lat="48.06665" lon="-1.2372">
        <ele>91.46</ele>
        <time>2014-02-23T15:18:13Z</time>
      </trkpt>
      <trkpt lat="48.06664" lon="-1.23682">
        <ele>91.94</ele>
        <time>2014-02-23T15:18:18Z</time>
      </trkpt>
      <trkpt lat="48.06664" lon="-1.23674">
        <ele>92.42</ele>
        <time>2014-02-23T15:18:19Z</time>
      </trkpt>
      <trkpt lat="48.06661" lon="-1.23635">
        <ele>93.39</ele>
        <time>2014-02-23T15:18:24Z</time>
      </trkpt>
      <trkpt lat="48.06661" lon="-1.23627">
        <ele>93.39</ele>
        <time>2014-02-23T15:18:25Z</time>
      </trkpt>
      <trkpt lat="48.06653" lon="-1.23479">
        <ele>95.31</ele>
        <time>2014-02-23T15:18:43Z</time>
      </trkpt>
      <trkpt lat="48.06645" lon="-1.23309">
        <ele>97.23</ele>
        <time>2014-02-23T15:19:04Z</time>
      </trkpt>
      <trkpt lat="48.06635" lon="-1.23162">
        <ele>98.67</ele>
        <time>2014-02-23T15:19:22Z</time>
      </trkpt>
      <trkpt lat="48.06619" lon="-1.2305">
        <ele>99.15</ele>
        <time>2014-02-23T15:19:36Z</time>
      </trkpt>
      <trkpt lat="48.06613" lon="-1.23017">
        <ele>99.63</ele>
        <time>2014-02-23T15:19:40Z</time>
      </trkpt>
      <trkpt lat="48.06576" lon="-1.22869">
        <ele>101.08</ele>
        <time>2014-02-23T15:20:00Z</time>
      </trkpt>
      <trkpt lat="48.06535" lon="-1.22753">
        <ele>102.52</ele>
        <time>2014-02-23T15:20:17Z</time>
      </trkpt>
      <trkpt lat="48.06481" lon="-1.22628">
        <ele>103</ele>
        <time>2014-02-23T15:20:36Z</time>
      </trkpt>
      <trkpt lat="48.0643" lon="-1.22522">
        <ele>102.04</ele>
        <time>2014-02-23T15:20:51Z</time>
      </trkpt>
      <trkpt lat="48.0636" lon="-1.22369">
        <ele>99.15</ele>
        <time>2014-02-23T15:21:11Z</time>
      </trkpt>
      <trkpt lat="48.06303" lon="-1.22246">
        <ele>97.71</ele>
        <time>2014-02-23T15:21:28Z</time>
      </trkpt>
      <trkpt lat="48.06248" lon="-1.22107">
        <ele>96.75</ele>
        <time>2014-02-23T15:21:46Z</time>
      </trkpt>
      <trkpt lat="48.06205" lon="-1.21967">
        <ele>95.79</ele>
        <time>2014-02-23T15:22:02Z</time>
      </trkpt>
      <trkpt lat="48.06161" lon="-1.2181">
        <ele>92.9</ele>
        <time>2014-02-23T15:22:19Z</time>
      </trkpt>
      <trkpt lat="48.06122" lon="-1.21667">
        <ele>89.54</ele>
        <time>2014-02-23T15:22:33Z</time>
      </trkpt>
      <trkpt lat="48.0608" lon="-1.21513">
        <ele>89.54</ele>
        <time>2014-02-23T15:22:50Z</time>
      </trkpt>
      <trkpt lat="48.06042" lon="-1.21375">
        <ele>90.5</ele>
        <time>2014-02-23T15:23:07Z</time>
      </trkpt>
      <trkpt lat="48.06007" lon="-1.21248">
        <ele>92.42</ele>
        <time>2014-02-23T15:23:23Z</time>
      </trkpt>
      <trkpt lat="48.05974" lon="-1.21119">
        <ele>91.94</ele>
        <time>2014-02-23T15:23:39Z</time>
      </trkpt>
      <trkpt lat="48.0594" lon="-1.2098">
        <ele>90.98</ele>
        <time>2014-02-23T15:23:55Z</time>
      </trkpt>
      <trkpt lat="48.05905" lon="-1.20819">
        <ele>88.58</ele>
        <time>2014-02-23T15:24:12Z</time>
      </trkpt>
      <trkpt lat="48.05877" lon="-1.20659">
        <ele>89.54</ele>
        <time>2014-02-23T15:24:30Z</time>
      </trkpt>
      <trkpt lat="48.05857" lon="-1.2053">
        <ele>90.98</ele>
        <time>2014-02-23T15:24:47Z</time>
      </trkpt>
      <trkpt lat="48.05846" lon="-1.20414">
        <ele>91.94</ele>
        <time>2014-02-23T15:25:02Z</time>
      </trkpt>
      <trkpt lat="48.05836" lon="-1.20283">
        <ele>94.35</ele>
        <time>2014-02-23T15:25:20Z</time>
      </trkpt>
      <trkpt lat="48.05824" lon="-1.20161">
        <ele>96.75</ele>
        <time>2014-02-23T15:25:38Z</time>
      </trkpt>
      <trkpt lat="48.05816" lon="-1.20077">
        <ele>97.23</ele>
        <time>2014-02-23T15:25:50Z</time>
      </trkpt>
      <trkpt lat="48.05815" lon="-1.2007">
        <ele>96.75</ele>
        <time>2014-02-23T15:25:51Z</time>
      </trkpt>
      <trkpt lat="48.05814" lon="-1.20056">
        <ele>96.75</ele>
        <time>2014-02-23T15:25:53Z</time>
      </trkpt>
      <trkpt lat="48.05807" lon="-1.19992">
        <ele>97.23</ele>
        <time>2014-02-23T15:26:02Z</time>
      </trkpt>
      <trkpt lat="48.05805" lon="-1.19985">
        <ele>96.75</ele>
        <time>2014-02-23T15:26:03Z</time>
      </trkpt>
      <trkpt lat="48.05803" lon="-1.19979">
        <ele>96.75</ele>
        <time>2014-02-23T15:26:04Z</time>
      </trkpt>
      <trkpt lat="48.05799" lon="-1.19974">
        <ele>97.23</ele>
        <time>2014-02-23T15:26:05Z</time>
      </trkpt>
      <trkpt lat="48.05796" lon="-1.1997">
        <ele>97.23</ele>
        <time>2014-02-23T15:26:06Z</time>
      </trkpt>
      <trkpt lat="48.05791" lon="-1.19967">
        <ele>97.23</ele>
        <time>2014-02-23T15:26:07Z</time>
      </trkpt>
      <trkpt lat="48.05786" lon="-1.19964">
        <ele>97.23</ele>
        <time>2014-02-23T15:26:08Z</time>
      </trkpt>
      <trkpt lat="48.05781" lon="-1.19964">
        <ele>97.23</ele>
        <time>2014-02-23T15:26:09Z</time>
      </trkpt>
      <trkpt lat="48.05776" lon="-1.19964">
        <ele>97.23</ele>
        <time>2014-02-23T15:26:10Z</time>
      </trkpt>
      <trkpt lat="48.05771" lon="-1.19964">
        <ele>97.71</ele>
        <time>2014-02-23T15:26:11Z</time>
      </trkpt>
      <trkpt lat="48.05766" lon="-1.19964">
        <ele>97.71</ele>
        <time>2014-02-23T15:26:12Z</time>
      </trkpt>
      <trkpt lat="48.05761" lon="-1.19964">
        <ele>97.71</ele>
        <time>2014-02-23T15:26:13Z</time>
      </trkpt>
      <trkpt lat="48.05756" lon="-1.19964">
        <ele>97.23</ele>
        <time>2014-02-23T15:26:14Z</time>
      </trkpt>
      <trkpt lat="48.05751" lon="-1.19965">
        <ele>97.23</ele>
        <time>2014-02-23T15:26:15Z</time>
      </trkpt>
      <trkpt lat="48.05671" lon="-1.19969">
        <ele>97.71</ele>
        <time>2014-02-23T15:26:31Z</time>
      </trkpt>
      <trkpt lat="48.05594" lon="-1.19978">
        <ele>99.15</ele>
        <time>2014-02-23T15:26:46Z</time>
      </trkpt>
      <trkpt lat="48.05503" lon="-1.19994">
        <ele>99.63</ele>
        <time>2014-02-23T15:27:04Z</time>
      </trkpt>
      <trkpt lat="48.05406" lon="-1.20002">
        <ele>102.04</ele>
        <time>2014-02-23T15:27:25Z</time>
      </trkpt>
      <trkpt lat="48.05312" lon="-1.2001">
        <ele>103</ele>
        <time>2014-02-23T15:27:45Z</time>
      </trkpt>
      <trkpt lat="48.05207" lon="-1.2002">
        <ele>103.48</ele>
        <time>2014-02-23T15:28:06Z</time>
      </trkpt>
      <trkpt lat="48.0512" lon="-1.2004">
        <ele>102.52</ele>
        <time>2014-02-23T15:28:22Z</time>
      </trkpt>
      <trkpt lat="48.0503" lon="-1.20078">
        <ele>101.08</ele>
        <time>2014-02-23T15:28:38Z</time>
      </trkpt>
      <trkpt lat="48.05015" lon="-1.20094">
        <ele>101.08</ele>
        <time>2014-02-23T15:28:41Z</time>
      </trkpt>
      <trkpt lat="48.0501" lon="-1.201">
        <ele>100.6</ele>
        <time>2014-02-23T15:28:42Z</time>
      </trkpt>
      <trkpt lat="48.04992" lon="-1.20127">
        <ele>101.56</ele>
        <time>2014-02-23T15:28:46Z</time>
      </trkpt>
      <trkpt lat="48.04965" lon="-1.20152">
        <ele>99.63</ele>
        <time>2014-02-23T15:28:51Z</time>
      </trkpt>
      <trkpt lat="48.04953" lon="-1.20157">
        <ele>99.63</ele>
        <time>2014-02-23T15:28:53Z</time>
      </trkpt>
      <trkpt lat="48.04935" lon="-1.2016">
        <ele>99.63</ele>
        <time>2014-02-23T15:28:56Z</time>
      </trkpt>
      <trkpt lat="48.04913" lon="-1.20158">
        <ele>99.15</ele>
        <time>2014-02-23T15:29:00Z</time>
      </trkpt>
      <trkpt lat="48.04903" lon="-1.20159">
        <ele>99.15</ele>
        <time>2014-02-23T15:29:02Z</time>
      </trkpt>
      <trkpt lat="48.04899" lon="-1.20164">
        <ele>99.15</ele>
        <time>2014-02-23T15:29:03Z</time>
      </trkpt>
      <trkpt lat="48.04897" lon="-1.2017">
        <ele>99.63</ele>
        <time>2014-02-23T15:29:04Z</time>
      </trkpt>
      <trkpt lat="48.04897" lon="-1.20178">
        <ele>99.63</ele>
        <time>2014-02-23T15:29:05Z</time>
      </trkpt>
      <trkpt lat="48.04899" lon="-1.20185">
        <ele>99.63</ele>
        <time>2014-02-23T15:29:06Z</time>
      </trkpt>
      <trkpt lat="48.04903" lon="-1.20191">
        <ele>99.63</ele>
        <time>2014-02-23T15:29:07Z</time>
      </trkpt>
      <trkpt lat="48.04907" lon="-1.20197">
        <ele>99.63</ele>
        <time>2014-02-23T15:29:08Z</time>
      </trkpt>
      <trkpt lat="48.04936" lon="-1.2025">
        <ele>100.11</ele>
        <time>2014-02-23T15:29:16Z</time>
      </trkpt>
      <trkpt lat="48.04939" lon="-1.20257">
        <ele>100.11</ele>
        <time>2014-02-23T15:29:17Z</time>
      </trkpt>
      <trkpt lat="48.04942" lon="-1.20265">
        <ele>100.11</ele>
        <time>2014-02-23T15:29:18Z</time>
      </trkpt>
      <trkpt lat="48.04945" lon="-1.20272">
        <ele>99.63</ele>
        <time>2014-02-23T15:29:19Z</time>
      </trkpt>
      <trkpt lat="48.04947" lon="-1.20281">
        <ele>99.63</ele>
        <time>2014-02-23T15:29:20Z</time>
      </trkpt>
      <trkpt lat="48.04952" lon="-1.20305">
        <ele>100.11</ele>
        <time>2014-02-23T15:29:23Z</time>
      </trkpt>
      <trkpt lat="48.0496" lon="-1.20446">
        <ele>100.11</ele>
        <time>2014-02-23T15:29:39Z</time>
      </trkpt>
      <trkpt lat="48.04967" lon="-1.20596">
        <ele>98.19</ele>
        <time>2014-02-23T15:29:54Z</time>
      </trkpt>
      <trkpt lat="48.04973" lon="-1.20779">
        <ele>96.27</ele>
        <time>2014-02-23T15:30:10Z</time>
      </trkpt>
      <trkpt lat="48.04981" lon="-1.20964">
        <ele>96.27</ele>
        <time>2014-02-23T15:30:28Z</time>
      </trkpt>
      <trkpt lat="48.04982" lon="-1.20974">
        <ele>96.27</ele>
        <time>2014-02-23T15:30:29Z</time>
      </trkpt>
      <trkpt lat="48.04989" lon="-1.2114">
        <ele>97.23</ele>
        <time>2014-02-23T15:30:46Z</time>
      </trkpt>
      <trkpt lat="48.04988" lon="-1.21147">
        <ele>96.75</ele>
        <time>2014-02-23T15:30:49Z</time>
      </trkpt>
      <trkpt lat="48.04987" lon="-1.21142">
        <ele>96.75</ele>
        <time>2014-02-23T15:30:52Z</time>
      </trkpt>
      <trkpt lat="48.04989" lon="-1.21134">
        <ele>96.75</ele>
        <time>2014-02-23T15:31:01Z</time>
      </trkpt>
      <trkpt lat="48.04988" lon="-1.21147">
        <ele>96.75</ele>
        <time>2014-02-23T15:31:08Z</time>
      </trkpt>
      <trkpt lat="48.04989" lon="-1.21159">
        <ele>96.75</ele>
        <time>2014-02-23T15:31:10Z</time>
      </trkpt>
      <trkpt lat="48.04988" lon="-1.21166">
        <ele>96.27</ele>
        <time>2014-02-23T15:31:11Z</time>
      </trkpt>
      <trkpt lat="48.04989" lon="-1.21173">
        <ele>96.27</ele>
        <time>2014-02-23T15:31:12Z</time>
      </trkpt>
      <trkpt lat="48.04989" lon="-1.21182">
        <ele>96.27</ele>
        <time>2014-02-23T15:31:13Z</time>
      </trkpt>
      <trkpt lat="48.04994" lon="-1.2131">
        <ele>95.79</ele>
        <time>2014-02-23T15:31:26Z</time>
      </trkpt>
      <trkpt lat="48.0501" lon="-1.21503">
        <ele>95.31</ele>
        <time>2014-02-23T15:31:44Z</time>
      </trkpt>
      <trkpt lat="48.05028" lon="-1.21705">
        <ele>96.27</ele>
        <time>2014-02-23T15:32:04Z</time>
      </trkpt>
      <trkpt lat="48.05042" lon="-1.21876">
        <ele>98.67</ele>
        <time>2014-02-23T15:32:22Z</time>
      </trkpt>
      <trkpt lat="48.05045" lon="-1.22055">
        <ele>99.15</ele>
        <time>2014-02-23T15:32:41Z</time>
      </trkpt>
      <trkpt lat="48.05045" lon="-1.22203">
        <ele>100.11</ele>
        <time>2014-02-23T15:32:57Z</time>
      </trkpt>
      <trkpt lat="48.05046" lon="-1.22374">
        <ele>100.6</ele>
        <time>2014-02-23T15:33:15Z</time>
      </trkpt>
      <trkpt lat="48.05038" lon="-1.22543">
        <ele>99.63</ele>
        <time>2014-02-23T15:33:32Z</time>
      </trkpt>
      <trkpt lat="48.05018" lon="-1.22741">
        <ele>100.11</ele>
        <time>2014-02-23T15:33:52Z</time>
      </trkpt>
      <trkpt lat="48.05008" lon="-1.2283">
        <ele>101.08</ele>
        <time>2014-02-23T15:34:02Z</time>
      </trkpt>
      <trkpt lat="48.05007" lon="-1.22838">
        <ele>101.08</ele>
        <time>2014-02-23T15:34:03Z</time>
      </trkpt>
      <trkpt lat="48.05006" lon="-1.22846">
        <ele>101.08</ele>
        <time>2014-02-23T15:34:04Z</time>
      </trkpt>
      <trkpt lat="48.04994" lon="-1.22945">
        <ele>101.56</ele>
        <time>2014-02-23T15:34:15Z</time>
      </trkpt>
      <trkpt lat="48.04982" lon="-1.23054">
        <ele>101.08</ele>
        <time>2014-02-23T15:34:26Z</time>
      </trkpt>
      <trkpt lat="48.04967" lon="-1.23198">
        <ele>100.6</ele>
        <time>2014-02-23T15:34:40Z</time>
      </trkpt>
      <trkpt lat="48.04954" lon="-1.23308">
        <ele>100.6</ele>
        <time>2014-02-23T15:34:51Z</time>
      </trkpt>
      <trkpt lat="48.04947" lon="-1.23381">
        <ele>101.08</ele>
        <time>2014-02-23T15:34:59Z</time>
      </trkpt>
      <trkpt lat="48.04946" lon="-1.23389">
        <ele>101.08</ele>
        <time>2014-02-23T15:35:00Z</time>
      </trkpt>
      <trkpt lat="48.04945" lon="-1.23398">
        <ele>101.08</ele>
        <time>2014-02-23T15:35:01Z</time>
      </trkpt>
      <trkpt lat="48.04944" lon="-1.23406">
        <ele>101.56</ele>
        <time>2014-02-23T15:35:02Z</time>
      </trkpt>
      <trkpt lat="48.04943" lon="-1.23415">
        <ele>101.56</ele>
        <time>2014-02-23T15:35:03Z</time>
      </trkpt>
      <trkpt lat="48.0494" lon="-1.2345">
        <ele>102.04</ele>
        <time>2014-02-23T15:35:07Z</time>
      </trkpt>
      <trkpt lat="48.04938" lon="-1.23457">
        <ele>102.04</ele>
        <time>2014-02-23T15:35:08Z</time>
      </trkpt>
      <trkpt lat="48.04922" lon="-1.23589">
        <ele>102.52</ele>
        <time>2014-02-23T15:35:22Z</time>
      </trkpt>
      <trkpt lat="48.04885" lon="-1.23717">
        <ele>103</ele>
        <time>2014-02-23T15:35:37Z</time>
      </trkpt>
      <trkpt lat="48.04822" lon="-1.23837">
        <ele>103</ele>
        <time>2014-02-23T15:35:54Z</time>
      </trkpt>
      <trkpt lat="48.04749" lon="-1.23943">
        <ele>102.04</ele>
        <time>2014-02-23T15:36:10Z</time>
      </trkpt>
      <trkpt lat="48.04659" lon="-1.24076">
        <ele>99.15</ele>
        <time>2014-02-23T15:36:28Z</time>
      </trkpt>
      <trkpt lat="48.04567" lon="-1.24215">
        <ele>96.75</ele>
        <time>2014-02-23T15:36:46Z</time>
      </trkpt>
      <trkpt lat="48.04479" lon="-1.24346">
        <ele>94.35</ele>
        <time>2014-02-23T15:37:03Z</time>
      </trkpt>
      <trkpt lat="48.04399" lon="-1.24466">
        <ele>93.39</ele>
        <time>2014-02-23T15:37:19Z</time>
      </trkpt>
      <trkpt lat="48.04312" lon="-1.24598">
        <ele>92.9</ele>
        <time>2014-02-23T15:37:37Z</time>
      </trkpt>
      <trkpt lat="48.04228" lon="-1.24724">
        <ele>92.9</ele>
        <time>2014-02-23T15:37:55Z</time>
      </trkpt>
      <trkpt lat="48.0414" lon="-1.24843">
        <ele>91.94</ele>
        <time>2014-02-23T15:38:13Z</time>
      </trkpt>
      <trkpt lat="48.04055" lon="-1.2491">
        <ele>93.39</ele>
        <time>2014-02-23T15:38:29Z</time>
      </trkpt>
      <trkpt lat="48.03975" lon="-1.24969">
        <ele>95.31</ele>
        <time>2014-02-23T15:38:45Z</time>
      </trkpt>
      <trkpt lat="48.03944" lon="-1.25006">
        <ele>95.31</ele>
        <time>2014-02-23T15:38:52Z</time>
      </trkpt>
      <trkpt lat="48.03894" lon="-1.25121">
        <ele>92.42</ele>
        <time>2014-02-23T15:39:06Z</time>
      </trkpt>
      <trkpt lat="48.03882" lon="-1.25191">
        <ele>89.54</ele>
        <time>2014-02-23T15:39:12Z</time>
      </trkpt>
      <trkpt lat="48.03869" lon="-1.25314">
        <ele>86.18</ele>
        <time>2014-02-23T15:39:22Z</time>
      </trkpt>
      <trkpt lat="48.03854" lon="-1.25453">
        <ele>84.25</ele>
        <time>2014-02-23T15:39:34Z</time>
      </trkpt>
      <trkpt lat="48.0383" lon="-1.25662">
        <ele>81.85</ele>
        <time>2014-02-23T15:39:52Z</time>
      </trkpt>
      <trkpt lat="48.03816" lon="-1.25793">
        <ele>83.29</ele>
        <time>2014-02-23T15:40:05Z</time>
      </trkpt>
      <trkpt lat="48.03796" lon="-1.25943">
        <ele>84.73</ele>
        <time>2014-02-23T15:40:22Z</time>
      </trkpt>
      <trkpt lat="48.03759" lon="-1.2607">
        <ele>85.69</ele>
        <time>2014-02-23T15:40:38Z</time>
      </trkpt>
      <trkpt lat="48.03705" lon="-1.2621">
        <ele>84.25</ele>
        <time>2014-02-23T15:40:55Z</time>
      </trkpt>
      <trkpt lat="48.03649" lon="-1.26357">
        <ele>85.69</ele>
        <time>2014-02-23T15:41:14Z</time>
      </trkpt>
      <trkpt lat="48.03633" lon="-1.26409">
        <ele>86.66</ele>
        <time>2014-02-23T15:41:21Z</time>
      </trkpt>
      <trkpt lat="48.03631" lon="-1.26423">
        <ele>87.14</ele>
        <time>2014-02-23T15:41:23Z</time>
      </trkpt>
      <trkpt lat="48.0363" lon="-1.2643">
        <ele>87.14</ele>
        <time>2014-02-23T15:41:24Z</time>
      </trkpt>
      <trkpt lat="48.0363" lon="-1.26466">
        <ele>88.58</ele>
        <time>2014-02-23T15:41:29Z</time>
      </trkpt>
      <trkpt lat="48.03633" lon="-1.2653">
        <ele>88.58</ele>
        <time>2014-02-23T15:41:37Z</time>
      </trkpt>
      <trkpt lat="48.03633" lon="-1.26538">
        <ele>88.58</ele>
        <time>2014-02-23T15:41:38Z</time>
      </trkpt>
      <trkpt lat="48.03613" lon="-1.26619">
        <ele>88.1</ele>
        <time>2014-02-23T15:41:48Z</time>
      </trkpt>
      <trkpt lat="48.0361" lon="-1.26628">
        <ele>87.62</ele>
        <time>2014-02-23T15:41:49Z</time>
      </trkpt>
      <trkpt lat="48.03606" lon="-1.26638">
        <ele>87.14</ele>
        <time>2014-02-23T15:41:50Z</time>
      </trkpt>
      <trkpt lat="48.03602" lon="-1.26647">
        <ele>86.18</ele>
        <time>2014-02-23T15:41:51Z</time>
      </trkpt>
      <trkpt lat="48.03597" lon="-1.26656">
        <ele>85.69</ele>
        <time>2014-02-23T15:41:52Z</time>
      </trkpt>
      <trkpt lat="48.03592" lon="-1.26665">
        <ele>85.21</ele>
        <time>2014-02-23T15:41:53Z</time>
      </trkpt>
      <trkpt lat="48.03526" lon="-1.26756">
        <ele>82.81</ele>
        <time>2014-02-23T15:42:05Z</time>
      </trkpt>
      <trkpt lat="48.03491" lon="-1.26852">
        <ele>85.69</ele>
        <time>2014-02-23T15:42:18Z</time>
      </trkpt>
      <trkpt lat="48.03458" lon="-1.2696">
        <ele>88.58</ele>
        <time>2014-02-23T15:42:34Z</time>
      </trkpt>
      <trkpt lat="48.03433" lon="-1.27039">
        <ele>92.42</ele>
        <time>2014-02-23T15:42:47Z</time>
      </trkpt>
      <trkpt lat="48.03429" lon="-1.27051">
        <ele>91.94</ele>
        <time>2014-02-23T15:42:49Z</time>
      </trkpt>
      <trkpt lat="48.03401" lon="-1.27139">
        <ele>94.83</ele>
        <time>2014-02-23T15:43:04Z</time>
      </trkpt>
      <trkpt lat="48.03392" lon="-1.27167">
        <ele>95.79</ele>
        <time>2014-02-23T15:43:09Z</time>
      </trkpt>
      <trkpt lat="48.03366" lon="-1.27239">
        <ele>98.67</ele>
        <time>2014-02-23T15:43:23Z</time>
      </trkpt>
      <trkpt lat="48.03365" lon="-1.27245">
        <ele>99.15</ele>
        <time>2014-02-23T15:43:24Z</time>
      </trkpt>
      <trkpt lat="48.03335" lon="-1.27315">
        <ele>101.56</ele>
        <time>2014-02-23T15:43:38Z</time>
      </trkpt>
      <trkpt lat="48.03323" lon="-1.27331">
        <ele>102.04</ele>
        <time>2014-02-23T15:43:42Z</time>
      </trkpt>
      <trkpt lat="48.03296" lon="-1.27358">
        <ele>101.56</ele>
        <time>2014-02-23T15:43:49Z</time>
      </trkpt>
      <trkpt lat="48.03291" lon="-1.27361">
        <ele>101.08</ele>
        <time>2014-02-23T15:43:50Z</time>
      </trkpt>
      <trkpt lat="48.03287" lon="-1.27364">
        <ele>101.08</ele>
        <time>2014-02-23T15:43:51Z</time>
      </trkpt>
      <trkpt lat="48.03215" lon="-1.27398">
        <ele>98.19</ele>
        <time>2014-02-23T15:44:03Z</time>
      </trkpt>
      <trkpt lat="48.03138" lon="-1.27425">
        <ele>94.83</ele>
        <time>2014-02-23T15:44:14Z</time>
      </trkpt>
      <trkpt lat="48.03074" lon="-1.2745">
        <ele>92.42</ele>
        <time>2014-02-23T15:44:23Z</time>
      </trkpt>
      <trkpt lat="48.02975" lon="-1.27487">
        <ele>89.06</ele>
        <time>2014-02-23T15:44:36Z</time>
      </trkpt>
      <trkpt lat="48.02867" lon="-1.27525">
        <ele>86.18</ele>
        <time>2014-02-23T15:44:51Z</time>
      </trkpt>
      <trkpt lat="48.02768" lon="-1.2752">
        <ele>86.18</ele>
        <time>2014-02-23T15:45:06Z</time>
      </trkpt>
      <trkpt lat="48.02676" lon="-1.27518">
        <ele>85.21</ele>
        <time>2014-02-23T15:45:20Z</time>
      </trkpt>
      <trkpt lat="48.02587" lon="-1.27557">
        <ele>85.21</ele>
        <time>2014-02-23T15:45:34Z</time>
      </trkpt>
      <trkpt lat="48.02484" lon="-1.27613">
        <ele>81.85</ele>
        <time>2014-02-23T15:45:50Z</time>
      </trkpt>
      <trkpt lat="48.02394" lon="-1.2766">
        <ele>78.97</ele>
        <time>2014-02-23T15:46:03Z</time>
      </trkpt>
      <trkpt lat="48.02291" lon="-1.27696">
        <ele>75.6</ele>
        <time>2014-02-23T15:46:17Z</time>
      </trkpt>
      <trkpt lat="48.02213" lon="-1.27704">
        <ele>72.24</ele>
        <time>2014-02-23T15:46:27Z</time>
      </trkpt>
      <trkpt lat="48.02205" lon="-1.27705">
        <ele>72.24</ele>
        <time>2014-02-23T15:46:28Z</time>
      </trkpt>
      <trkpt lat="48.02119" lon="-1.27713">
        <ele>68.87</ele>
        <time>2014-02-23T15:46:39Z</time>
      </trkpt>
      <trkpt lat="48.02035" lon="-1.27726">
        <ele>65.99</ele>
        <time>2014-02-23T15:46:50Z</time>
      </trkpt>
      <trkpt lat="48.01941" lon="-1.27784">
        <ele>64.55</ele>
        <time>2014-02-23T15:47:04Z</time>
      </trkpt>
      <trkpt lat="48.01838" lon="-1.27857">
        <ele>63.58</ele>
        <time>2014-02-23T15:47:20Z</time>
      </trkpt>
      <trkpt lat="48.01765" lon="-1.27911">
        <ele>64.07</ele>
        <time>2014-02-23T15:47:33Z</time>
      </trkpt>
      <trkpt lat="48.01673" lon="-1.27973">
        <ele>66.47</ele>
        <time>2014-02-23T15:47:49Z</time>
      </trkpt>
      <trkpt lat="48.0159" lon="-1.2804">
        <ele>67.91</ele>
        <time>2014-02-23T15:48:05Z</time>
      </trkpt>
      <trkpt lat="48.0151" lon="-1.28122">
        <ele>66.47</ele>
        <time>2014-02-23T15:48:19Z</time>
      </trkpt>
      <trkpt lat="48.014" lon="-1.2823">
        <ele>63.1</ele>
        <time>2014-02-23T15:48:37Z</time>
      </trkpt>
      <trkpt lat="48.01298" lon="-1.2833">
        <ele>63.1</ele>
        <time>2014-02-23T15:48:55Z</time>
      </trkpt>
      <trkpt lat="48.01282" lon="-1.28347">
        <ele>62.62</ele>
        <time>2014-02-23T15:48:58Z</time>
      </trkpt>
      <trkpt lat="48.01277" lon="-1.28353">
        <ele>63.1</ele>
        <time>2014-02-23T15:48:59Z</time>
      </trkpt>
      <trkpt lat="48.01208" lon="-1.2842">
        <ele>63.1</ele>
        <time>2014-02-23T15:49:12Z</time>
      </trkpt>
      <trkpt lat="48.01203" lon="-1.28426">
        <ele>63.1</ele>
        <time>2014-02-23T15:49:13Z</time>
      </trkpt>
      <trkpt lat="48.01199" lon="-1.28433">
        <ele>63.1</ele>
        <time>2014-02-23T15:49:14Z</time>
      </trkpt>
      <trkpt lat="48.01196" lon="-1.28442">
        <ele>63.58</ele>
        <time>2014-02-23T15:49:15Z</time>
      </trkpt>
      <trkpt lat="48.01195" lon="-1.28451">
        <ele>63.58</ele>
        <time>2014-02-23T15:49:16Z</time>
      </trkpt>
      <trkpt lat="48.01195" lon="-1.2846">
        <ele>63.58</ele>
        <time>2014-02-23T15:49:17Z</time>
      </trkpt>
      <trkpt lat="48.01196" lon="-1.28469">
        <ele>63.58</ele>
        <time>2014-02-23T15:49:18Z</time>
      </trkpt>
      <trkpt lat="48.01197" lon="-1.28478">
        <ele>63.58</ele>
        <time>2014-02-23T15:49:19Z</time>
      </trkpt>
      <trkpt lat="48.01199" lon="-1.28487">
        <ele>63.58</ele>
        <time>2014-02-23T15:49:20Z</time>
      </trkpt>
      <trkpt lat="48.01216" lon="-1.28619">
        <ele>65.03</ele>
        <time>2014-02-23T15:49:35Z</time>
      </trkpt>
      <trkpt lat="48.01227" lon="-1.28703">
        <ele>65.51</ele>
        <time>2014-02-23T15:49:45Z</time>
      </trkpt>
      <trkpt lat="48.0123" lon="-1.2871">
        <ele>65.51</ele>
        <time>2014-02-23T15:49:46Z</time>
      </trkpt>
      <trkpt lat="48.01234" lon="-1.28715">
        <ele>65.51</ele>
        <time>2014-02-23T15:49:47Z</time>
      </trkpt>
      <trkpt lat="48.01239" lon="-1.28717">
        <ele>65.99</ele>
        <time>2014-02-23T15:49:48Z</time>
      </trkpt>
      <trkpt lat="48.01245" lon="-1.28719">
        <ele>66.47</ele>
        <time>2014-02-23T15:49:49Z</time>
      </trkpt>
      <trkpt lat="48.01251" lon="-1.28718">
        <ele>66.47</ele>
        <time>2014-02-23T15:49:50Z</time>
      </trkpt>
      <trkpt lat="48.01256" lon="-1.28717">
        <ele>66.47</ele>
        <time>2014-02-23T15:49:51Z</time>
      </trkpt>
      <trkpt lat="48.01262" lon="-1.28716">
        <ele>66.47</ele>
        <time>2014-02-23T15:49:52Z</time>
      </trkpt>
      <trkpt lat="48.01268" lon="-1.28714">
        <ele>66.47</ele>
        <time>2014-02-23T15:49:53Z</time>
      </trkpt>
      <trkpt lat="48.01291" lon="-1.28708">
        <ele>66.95</ele>
        <time>2014-02-23T15:49:57Z</time>
      </trkpt>
      <trkpt lat="48.01296" lon="-1.28711">
        <ele>66.95</ele>
        <time>2014-02-23T15:49:58Z</time>
      </trkpt>
      <trkpt lat="48.01301" lon="-1.28716">
        <ele>67.43</ele>
        <time>2014-02-23T15:49:59Z</time>
      </trkpt>
      <trkpt lat="48.01304" lon="-1.28722">
        <ele>67.43</ele>
        <time>2014-02-23T15:50:00Z</time>
      </trkpt>
      <trkpt lat="48.01307" lon="-1.28728">
        <ele>67.91</ele>
        <time>2014-02-23T15:50:01Z</time>
      </trkpt>
      <trkpt lat="48.0131" lon="-1.28735">
        <ele>67.91</ele>
        <time>2014-02-23T15:50:02Z</time>
      </trkpt>
      <trkpt lat="48.01316" lon="-1.28748">
        <ele>67.91</ele>
        <time>2014-02-23T15:50:04Z</time>
      </trkpt>
      <trkpt lat="48.01323" lon="-1.28769">
        <ele>68.39</ele>
        <time>2014-02-23T15:50:07Z</time>
      </trkpt>
      <trkpt lat="48.01327" lon="-1.28774">
        <ele>68.87</ele>
        <time>2014-02-23T15:50:08Z</time>
      </trkpt>
      <trkpt lat="48.01332" lon="-1.28776">
        <ele>69.35</ele>
        <time>2014-02-23T15:50:09Z</time>
      </trkpt>
      <trkpt lat="48.01336" lon="-1.28776">
        <ele>69.35</ele>
        <time>2014-02-23T15:50:10Z</time>
      </trkpt>
      <trkpt lat="48.01341" lon="-1.28774">
        <ele>69.35</ele>
        <time>2014-02-23T15:50:11Z</time>
      </trkpt>
      <trkpt lat="48.01394" lon="-1.28757">
        <ele>71.27</ele>
        <time>2014-02-23T15:50:25Z</time>
      </trkpt>
      <trkpt lat="48.014" lon="-1.28754">
        <ele>71.76</ele>
        <time>2014-02-23T15:50:33Z</time>
      </trkpt>
      <trkpt lat="48.01403" lon="-1.28755">
        <ele>71.27</ele>
        <time>2014-02-23T15:50:45Z</time>
      </trkpt>
    </trkseg>
  </trk>
</gpx>